Hoppmann, Mario; Tippenhauer, Sandra; Floeter, Jens (2026): Continuous thermosalinograph oceanography along RV HEINCKE cruise track HE660 [dataset]. Alfred Wegener Institute, Helmholtz Centre for Polar and Marine Research, Bremerhaven, PANGAEA, https://doi.pangaea.de/10.1594/PANGAEA.993557 (DOI registration in progress)
Always quote citation above when using data! You can download the citation in several formats below.
Published: 2026-05-05
Abstract:
Raw data acquired by a thermosalinograph (SBE21, Sea-Bird GmbH) in combination with an external temperature sensor (SBE38, Sea-Bird GmbH) aboard RV Heincke were processed to generate a calibrated, quality-controlled dataset of seawater temperature and salinity. The raw sensor data were initially retrieved from the DSHIP database (https://dship.awi.de) at a temporal resolution of 1 second and converted into temperature and conductivity using the pre-deployment calibration coefficients. The thermosalinograph system aboard RV Heincke is typically replaced after each expedition season, with a recalibration conducted at the manufacturer's facilities after each exchange. After post-cruise recalibration of the instruments, additional correction factors were calculated and applied to account for sensor drift. Salinity was calculated from internally measured temperatures and conductivities following the Practical Salinity Scale (PSS-78). The processed dataset is provided as 1-minute averages of salinity and seawater external temperature, synchronized with the positional data from the expedition's master track. Quality flags were assigned in accordance with the SeaDataNet Data Quality Control Procedures (May 2010).
Related to:
Floeter, Jens (2025): MARSYS education cruise in the North Sea, Cruise No. HE660, 03. - 12.05.2025, Bremerhaven (Germany) - Bremerhaven (Germany). HEINCKE-Berichte, Begutachtungspanel Forschungsschiffe, HE660, 18 pp, https://doi.org/10.48433/cr_he660
Floeter, Jens (2025): Master tracks in different resolutions of HEINCKE cruise HE660, Bremerhaven - Bremerhaven, 2025-05-03 - 2025-05-12 [dataset]. Alfred Wegener Institute, Helmholtz Centre for Polar and Marine Research, Bremerhaven, PANGAEA, https://doi.org/10.1594/PANGAEA.982953
Data processing report:
Hoppmann, Mario; Tippenhauer, Sandra (2026): Continuous thermosalinograph oceanography along RV HEINCKE cruise track HE660 - Data Processing Report. FIELAX - Gesellschaft für wissenschaftliche Datenverarbeitung mbH, HE660_TSG_nav.pdf
Project(s):
DAM Underway Research Data (DAM_Underway)
Physical Oceanography @ AWI (AWI_PhyOce)
Coverage:
Median Latitude: 54.607617 * Median Longitude: 7.857665 * South-bound Latitude: 53.811344 * West-bound Longitude: 7.237928 * North-bound Latitude: 55.218164 * East-bound Longitude: 8.331648
Date/Time Start: 2025-05-03T09:01:00 * Date/Time End: 2025-05-12T08:18:00
Minimum DEPTH, water: 2.0 m * Maximum DEPTH, water: 2.0 m
Event(s):
HE660_0_Underway-6 * Latitude Start: 53.858213 * Longitude Start: 8.123691 * Latitude End: 53.918517 * Longitude End: 7.972530 * Date/Time Start: 2025-05-03T08:45:14 * Date/Time End: 2025-05-12T08:23:06 * Elevation Start: -10.0 m * Elevation End: -15.0 m * O2A Registry URI: https://registry.o2a-data.de/items/8558 * Campaign: HE660 (I-MARSYS) * Basis: Heincke * Method/Device: Thermosalinograph (TSG)
Parameter(s):
License:
Creative Commons Attribution 4.0 International (CC-BY-4.0)
Status:
Curation Level: Enhanced curation (CurationLevelC) * Processing Level: PANGAEA data processing level 2 (ProcLevel2)
Size:
56904 data points
Data
| 1 Date/Time | 2 Latitude | 3 Longitude | 4 Depth water [m] | 5 Temp [°C] | 6 QF water temp | 7 Cond [mS/cm] | 8 T intern [°C] | 9 Sal | 10 QF sal |
|---|---|---|---|---|---|---|---|---|---|
| 2025-05-03T09:01:00 | 53.890721 | 8.077011 | 2.0 | 12.266 | 2 | 35.840 | 12.521 | 30.541 | 2 |
| 2025-05-03T09:02:00 | 53.892031 | 8.072977 | 2.0 | 12.159 | 2 | 35.885 | 12.445 | 30.645 | 2 |
| 2025-05-03T09:03:00 | 53.893351 | 8.068892 | 2.0 | 12.086 | 2 | 35.901 | 12.340 | 30.746 | 2 |
| 2025-05-03T09:04:00 | 53.894647 | 8.064832 | 2.0 | 11.987 | 2 | 35.980 | 12.259 | 30.888 | 2 |
| 2025-05-03T09:05:00 | 53.895934 | 8.060805 | 2.0 | 11.902 | 2 | 36.009 | 12.166 | 30.992 | 2 |
| 2025-05-03T09:06:00 | 53.897248 | 8.056751 | 2.0 | 11.743 | 2 | 36.073 | 12.071 | 31.133 | 2 |
| 2025-05-03T09:07:00 | 53.898557 | 8.052766 | 2.0 | 11.680 | 2 | 36.110 | 11.925 | 31.290 | 2 |
| 2025-05-03T09:08:00 | 53.899893 | 8.048817 | 2.0 | 11.708 | 2 | 36.111 | 11.885 | 31.325 | 2 |
| 2025-05-03T09:09:00 | 53.901268 | 8.044923 | 2.0 | 11.669 | 2 | 36.138 | 11.893 | 31.344 | 2 |
| 2025-05-03T09:10:00 | 53.902627 | 8.041092 | 2.0 | 11.631 | 2 | 36.101 | 11.854 | 31.341 | 2 |
| 2025-05-03T09:11:00 | 53.903972 | 8.037290 | 2.0 | 11.569 | 2 | 35.946 | 11.806 | 31.232 | 2 |
| 2025-05-03T09:12:00 | 53.905312 | 8.033502 | 2.0 | 11.570 | 2 | 36.091 | 11.762 | 31.409 | 2 |
| 2025-05-03T09:13:00 | 53.906609 | 8.029830 | 2.0 | 11.536 | 2 | 36.138 | 11.752 | 31.463 | 2 |
| 2025-05-03T09:14:00 | 53.907981 | 8.026238 | 2.0 | 11.477 | 2 | 36.187 | 11.721 | 31.537 | 2 |
| 2025-05-03T09:15:00 | 53.909439 | 8.022655 | 2.0 | 11.398 | 2 | 36.195 | 11.651 | 31.604 | 2 |
| 2025-05-03T09:16:00 | 53.910906 | 8.019075 | 2.0 | 11.358 | 2 | 36.193 | 11.579 | 31.664 | 2 |
| 2025-05-03T09:17:00 | 53.912425 | 8.015455 | 2.0 | 11.330 | 2 | 36.205 | 11.555 | 31.696 | 2 |
| 2025-05-03T09:18:00 | 53.914012 | 8.011883 | 2.0 | 11.295 | 2 | 36.218 | 11.513 | 31.745 | 2 |
| 2025-05-03T09:19:00 | 53.915589 | 8.008359 | 2.0 | 11.204 | 2 | 36.247 | 11.473 | 31.807 | 2 |
| 2025-05-03T09:20:00 | 53.917089 | 8.004890 | 2.0 | 10.832 | 2 | 36.240 | 11.279 | 31.968 | 2 |
| 2025-05-03T09:21:00 | 53.918585 | 8.001358 | 2.0 | 10.788 | 2 | 36.142 | 11.044 | 32.076 | 2 |
| 2025-05-03T09:22:00 | 53.920113 | 7.997743 | 2.0 | 10.740 | 2 | 36.111 | 10.976 | 32.105 | 2 |
| 2025-05-03T09:23:00 | 53.921636 | 7.994163 | 2.0 | 10.663 | 2 | 36.074 | 10.910 | 32.126 | 2 |
| 2025-05-03T09:24:00 | 53.923190 | 7.990721 | 2.0 | 10.638 | 2 | 36.018 | 10.851 | 32.122 | 2 |
| 2025-05-03T09:25:00 | 53.924851 | 7.987327 | 2.0 | 10.648 | 2 | 36.044 | 10.841 | 32.157 | 2 |
| 2025-05-03T09:26:00 | 53.926542 | 7.983947 | 2.0 | 10.559 | 2 | 35.640 | 10.819 | 31.775 | 2 |
| 2025-05-03T09:27:00 | 53.928317 | 7.980607 | 2.0 | 10.482 | 2 | 35.490 | 10.748 | 31.688 | 2 |
| 2025-05-03T09:28:00 | 53.930286 | 7.977557 | 2.0 | 10.433 | 2 | 35.970 | 10.675 | 32.229 | 2 |
| 2025-05-03T09:29:00 | 53.932786 | 7.976150 | 2.0 | 10.363 | 2 | 35.958 | 10.620 | 32.266 | 2 |
| 2025-05-03T09:30:00 | 53.935513 | 7.976271 | 2.0 | 10.337 | 2 | 35.922 | 10.554 | 32.288 | 2 |
| 2025-05-03T09:31:00 | 53.938290 | 7.976681 | 2.0 | 10.284 | 2 | 35.899 | 10.520 | 32.295 | 2 |
| 2025-05-03T09:32:00 | 53.940998 | 7.977388 | 2.0 | 10.161 | 2 | 35.543 | 10.454 | 31.998 | 2 |
| 2025-05-03T09:33:00 | 53.943739 | 7.978063 | 2.0 | 10.154 | 2 | 35.503 | 10.365 | 32.036 | 2 |
| 2025-05-03T09:34:00 | 53.946478 | 7.978727 | 2.0 | 10.147 | 2 | 35.708 | 10.350 | 32.255 | 2 |
| 2025-05-03T09:35:00 | 53.949264 | 7.979420 | 2.0 | 10.120 | 2 | 35.752 | 10.339 | 32.309 | 2 |
| 2025-05-03T09:36:00 | 53.952061 | 7.980137 | 2.0 | 10.101 | 2 | 35.733 | 10.298 | 32.326 | 2 |
| 2025-05-03T09:37:00 | 53.954863 | 7.980841 | 2.0 | 10.047 | 2 | 35.574 | 10.291 | 32.173 | 2 |
| 2025-05-03T09:38:00 | 53.957626 | 7.981491 | 2.0 | 9.928 | 2 | 35.743 | 10.204 | 32.420 | 2 |
| 2025-05-03T09:39:00 | 53.960354 | 7.982176 | 2.0 | 9.713 | 2 | 35.170 | 10.117 | 31.920 | 2 |
| 2025-05-03T09:40:00 | 53.963013 | 7.982595 | 2.0 | 9.505 | 2 | 35.153 | 9.861 | 32.130 | 2 |
| 2025-05-03T09:41:00 | 53.965655 | 7.983216 | 2.0 | 9.469 | 2 | 34.976 | 9.719 | 32.076 | 2 |
| 2025-05-03T09:42:00 | 53.968321 | 7.983188 | 2.0 | 9.452 | 2 | 34.760 | 9.672 | 31.898 | 2 |
| 2025-05-03T09:43:00 | 53.971022 | 7.983101 | 2.0 | 9.432 | 2 | 34.718 | 9.649 | 31.876 | 2 |
| 2025-05-03T09:44:00 | 53.973766 | 7.983182 | 2.0 | 9.395 | 2 | 34.957 | 9.630 | 32.136 | 2 |
| 2025-05-03T09:45:00 | 53.976485 | 7.983188 | 2.0 | 9.375 | 2 | 34.956 | 9.599 | 32.163 | 2 |
| 2025-05-03T09:46:00 | 53.979243 | 7.983136 | 2.0 | 9.311 | 2 | 34.950 | 9.557 | 32.195 | 2 |
| 2025-05-03T09:47:00 | 53.982027 | 7.983160 | 2.0 | 9.240 | 2 | 34.746 | 9.526 | 32.014 | 2 |
| 2025-05-03T09:48:00 | 53.984808 | 7.983213 | 2.0 | 9.193 | 2 | 34.807 | 9.424 | 32.167 | 2 |
| 2025-05-03T09:49:00 | 53.987603 | 7.983399 | 2.0 | 9.249 | 2 | 34.977 | 9.403 | 32.361 | 2 |
| 2025-05-03T09:50:00 | 53.990388 | 7.983662 | 2.0 | 9.440 | 2 | 34.890 | 9.486 | 32.197 | 2 |
| 2025-05-03T09:51:00 | 53.993195 | 7.983894 | 2.0 | 9.689 | 2 | 34.659 | 9.646 | 31.818 | 2 |
| 2025-05-03T09:52:00 | 53.995987 | 7.984307 | 2.0 | 9.892 | 2 | 34.934 | 9.910 | 31.864 | 2 |
| 2025-05-03T09:53:00 | 53.998770 | 7.984969 | 2.0 | 10.048 | 2 | 35.084 | 10.088 | 31.859 | 2 |
| 2025-05-03T09:54:00 | 54.001532 | 7.985796 | 2.0 | 10.241 | 2 | 35.050 | 10.242 | 31.689 | 2 |
| 2025-05-03T09:55:00 | 54.004283 | 7.986730 | 2.0 | 10.321 | 2 | 35.383 | 10.433 | 31.856 | 2 |
| 2025-05-03T09:56:00 | 54.007029 | 7.987794 | 2.0 | 10.462 | 2 | 34.909 | 10.493 | 31.331 | 2 |
| 2025-05-03T09:57:00 | 54.009747 | 7.988952 | 2.0 | 10.322 | 2 | 35.175 | 10.601 | 31.503 | 2 |
| 2025-05-03T09:58:00 | 54.012523 | 7.989618 | 2.0 | 10.317 | 2 | 34.907 | 10.515 | 31.310 | 2 |
| 2025-05-03T09:59:00 | 54.015334 | 7.990141 | 2.0 | 10.532 | 2 | 35.282 | 10.615 | 31.597 | 2 |
| 2025-05-03T10:00:00 | 54.018150 | 7.990635 | 2.0 | 10.300 | 2 | 35.168 | 10.644 | 31.459 | 2 |
| 2025-05-03T10:01:00 | 54.020955 | 7.990990 | 2.0 | 10.921 | 2 | 35.127 | 10.555 | 31.495 | 2 |
| 2025-05-03T10:02:00 | 54.023778 | 7.991452 | 2.0 | 11.128 | 2 | 35.209 | 11.063 | 31.141 | 2 |
| 2025-05-03T10:03:00 | 54.026554 | 7.991882 | 2.0 | 11.083 | 2 | 35.435 | 11.276 | 31.182 | 2 |
| 2025-05-03T10:04:00 | 54.029252 | 7.992250 | 2.0 | 11.217 | 2 | 35.249 | 11.254 | 31.019 | 2 |
| 2025-05-03T10:05:00 | 54.032016 | 7.992650 | 2.0 | 11.327 | 2 | 35.355 | 11.370 | 31.025 | 2 |
| 2025-05-03T10:06:00 | 54.034810 | 7.993249 | 2.0 | 11.353 | 2 | 35.414 | 11.483 | 30.988 | 2 |
| 2025-05-03T10:07:00 | 54.037576 | 7.993810 | 2.0 | 11.324 | 2 | 35.383 | 11.515 | 30.931 | 2 |
| 2025-05-03T10:08:00 | 54.040296 | 7.994971 | 2.0 | 11.337 | 2 | 35.417 | 11.495 | 30.981 | 2 |
| 2025-05-03T10:09:00 | 54.043025 | 7.996200 | 2.0 | 11.381 | 2 | 35.396 | 11.524 | 30.936 | 2 |
| 2025-05-03T10:10:00 | 54.045740 | 7.997443 | 2.0 | 11.400 | 2 | 35.331 | 11.557 | 30.845 | 2 |
| 2025-05-03T10:11:00 | 54.048464 | 7.998706 | 2.0 | 11.434 | 2 | 35.260 | 11.580 | 30.758 | 2 |
| 2025-05-03T10:12:00 | 54.051202 | 7.999910 | 2.0 | 11.443 | 2 | 35.196 | 11.606 | 30.674 | 2 |
| 2025-05-03T10:13:00 | 54.053929 | 8.001146 | 2.0 | 11.394 | 2 | 35.153 | 11.608 | 30.631 | 2 |
| 2025-05-03T10:14:00 | 54.056620 | 8.002398 | 2.0 | 11.326 | 2 | 35.158 | 11.565 | 30.671 | 2 |
| 2025-05-03T10:15:00 | 54.059303 | 8.003601 | 2.0 | 11.254 | 2 | 35.187 | 11.494 | 30.758 | 2 |
| 2025-05-03T10:16:00 | 54.061989 | 8.004821 | 2.0 | 11.172 | 2 | 35.171 | 11.427 | 30.798 | 2 |
| 2025-05-03T10:17:00 | 54.064676 | 8.006089 | 2.0 | 11.113 | 2 | 35.152 | 11.339 | 30.853 | 2 |
| 2025-05-03T10:18:00 | 54.067360 | 8.007305 | 2.0 | 11.152 | 2 | 35.174 | 11.297 | 30.910 | 2 |
| 2025-05-03T10:19:00 | 54.070045 | 8.008451 | 2.0 | 11.173 | 2 | 35.167 | 11.348 | 30.860 | 2 |
| 2025-05-03T10:20:00 | 54.072707 | 8.009716 | 2.0 | 11.153 | 2 | 35.160 | 11.356 | 30.847 | 2 |
| 2025-05-03T10:21:00 | 54.075378 | 8.010990 | 2.0 | 11.436 | 2 | 35.199 | 11.376 | 30.868 | 2 |
| 2025-05-03T10:22:00 | 54.078033 | 8.012232 | 2.0 | 11.530 | 2 | 35.418 | 11.608 | 30.887 | 2 |
| 2025-05-03T10:23:00 | 54.080680 | 8.013435 | 2.0 | 11.537 | 2 | 35.472 | 11.702 | 30.861 | 2 |
| 2025-05-03T10:24:00 | 54.083345 | 8.014633 | 2.0 | 11.470 | 2 | 35.481 | 11.694 | 30.877 | 2 |
| 2025-05-03T10:25:00 | 54.085996 | 8.015919 | 2.0 | 11.439 | 2 | 35.461 | 11.643 | 30.900 | 2 |
| 2025-05-03T10:26:00 | 54.088661 | 8.017149 | 2.0 | 11.433 | 2 | 35.428 | 11.608 | 30.897 | 2 |
| 2025-05-03T10:27:00 | 54.091317 | 8.018381 | 2.0 | 11.540 | 2 | 35.439 | 11.626 | 30.893 | 2 |
| 2025-05-03T10:28:00 | 54.093973 | 8.019571 | 2.0 | 11.625 | 2 | 35.570 | 11.721 | 30.940 | 2 |
| 2025-05-03T10:29:00 | 54.096593 | 8.020783 | 2.0 | 11.691 | 2 | 35.580 | 11.810 | 30.876 | 2 |
| 2025-05-03T10:30:00 | 54.099170 | 8.021974 | 2.0 | 11.717 | 2 | 35.598 | 11.864 | 30.848 | 2 |
| 2025-05-03T10:31:00 | 54.101721 | 8.023199 | 2.0 | 11.704 | 2 | 35.618 | 11.884 | 30.851 | 2 |
| 2025-05-03T10:32:00 | 54.104286 | 8.024141 | 2.0 | 11.678 | 2 | 35.604 | 11.874 | 30.846 | 2 |
| 2025-05-03T10:33:00 | 54.106746 | 8.024910 | 2.0 | 11.621 | 2 | 35.560 | 11.846 | 30.827 | 2 |
| 2025-05-03T10:34:00 | 54.108733 | 8.025455 | 2.0 | 11.567 | 2 | 35.529 | 11.784 | 30.848 | 2 |
| 2025-05-03T10:35:00 | 54.110447 | 8.026113 | 2.0 | 11.641 | 2 | 35.508 | 11.774 | 30.836 | 2 |
| 2025-05-03T10:36:00 | 54.111996 | 8.026481 | 2.0 | 11.631 | 2 | 35.485 | 11.806 | 30.788 | 2 |
| 2025-05-03T10:37:00 | 54.113635 | 8.027066 | 2.0 | 11.624 | 2 | 35.465 | 11.801 | 30.772 | 2 |
| 2025-05-03T10:38:00 | 54.115419 | 8.027650 | 2.0 | 11.634 | 2 | 35.452 | 11.800 | 30.761 | 2 |
| 2025-05-03T10:39:00 | 54.117267 | 8.028251 | 2.0 | 11.644 | 2 | 35.389 | 11.806 | 30.695 | 2 |
| 2025-05-03T10:40:00 | 54.118982 | 8.028860 | 2.0 | 11.675 | 2 | 35.360 | 11.821 | 30.655 | 2 |
| 2025-05-03T10:41:00 | 54.120333 | 8.029776 | 2.0 | 11.701 | 2 | 35.345 | 11.853 | 30.614 | 2 |
| 2025-05-03T10:42:00 | 54.120292 | 8.030992 | 2.0 | 11.594 | 2 | 35.321 | 11.845 | 30.598 | 2 |
| 2025-05-03T10:43:00 | 54.120013 | 8.031221 | 2.0 | 11.649 | 2 | 35.271 | 11.778 | 30.605 | 2 |
| 2025-05-03T10:44:00 | 54.119997 | 8.030684 | 2.0 | 11.577 | 2 | 35.351 | 11.805 | 30.659 | 2 |
| 2025-05-03T10:45:00 | 54.120008 | 8.030200 | 2.0 | 11.611 | 2 | 35.303 | 11.711 | 30.691 | 2 |
| 2025-05-03T10:46:00 | 54.120018 | 8.030148 | 2.0 | 11.717 | 2 | 35.359 | 11.830 | 30.646 | 2 |
| 2025-05-03T10:47:00 | 54.120064 | 8.030191 | 2.0 | 11.719 | 2 | 35.375 | 11.885 | 30.617 | 2 |
| 2025-05-03T10:48:00 | 54.120167 | 8.030264 | 2.0 | 11.737 | 2 | 35.393 | 11.889 | 30.631 | 2 |
| 2025-05-03T10:49:00 | 54.120252 | 8.030194 | 2.0 | 11.747 | 2 | 35.401 | 11.905 | 30.625 | 2 |
| 2025-05-03T10:50:00 | 54.120256 | 8.030075 | 2.0 | 11.720 | 2 | 35.403 | 11.916 | 30.618 | 2 |
| 2025-05-03T10:51:00 | 54.120223 | 8.029940 | 2.0 | 11.717 | 2 | 35.385 | 11.891 | 30.621 | 2 |
| 2025-05-03T10:52:00 | 54.120199 | 8.029815 | 2.0 | 11.742 | 2 | 35.394 | 11.897 | 30.625 | 2 |
| 2025-05-03T10:53:00 | 54.120214 | 8.029760 | 2.0 | 11.741 | 2 | 35.402 | 11.910 | 30.622 | 2 |
| 2025-05-03T10:54:00 | 54.120225 | 8.029776 | 2.0 | 11.702 | 2 | 35.408 | 11.896 | 30.639 | 2 |
| 2025-05-03T10:55:00 | 54.120236 | 8.029845 | 2.0 | 11.713 | 2 | 35.400 | 11.884 | 30.641 | 2 |
| 2025-05-03T10:56:00 | 54.120225 | 8.029951 | 2.0 | 11.705 | 2 | 35.406 | 11.879 | 30.651 | 2 |
| 2025-05-03T10:57:00 | 54.120225 | 8.030017 | 2.0 | 11.708 | 2 | 35.403 | 11.872 | 30.654 | 2 |
| 2025-05-03T10:58:00 | 54.120231 | 8.030048 | 2.0 | 11.709 | 2 | 35.409 | 11.871 | 30.661 | 2 |
| 2025-05-03T10:59:00 | 54.120237 | 8.030067 | 2.0 | 11.725 | 2 | 35.422 | 11.885 | 30.662 | 2 |
| 2025-05-03T11:00:00 | 54.120233 | 8.030074 | 2.0 | 11.704 | 2 | 35.439 | 11.890 | 30.674 | 2 |
| 2025-05-03T11:01:00 | 54.120230 | 8.030066 | 2.0 | 11.721 | 2 | 35.446 | 11.885 | 30.685 | 2 |
| 2025-05-03T11:02:00 | 54.120245 | 8.030028 | 2.0 | 11.718 | 2 | 35.469 | 11.889 | 30.704 | 2 |
| 2025-05-03T11:03:00 | 54.120276 | 8.029962 | 2.0 | 11.715 | 2 | 35.491 | 11.892 | 30.722 | 2 |
| 2025-05-03T11:04:00 | 54.120300 | 8.029880 | 2.0 | 11.728 | 2 | 35.514 | 11.890 | 30.746 | 2 |
| 2025-05-03T11:05:00 | 54.120305 | 8.029859 | 2.0 | 11.712 | 2 | 35.532 | 11.898 | 30.757 | 2 |
| 2025-05-03T11:06:00 | 54.120313 | 8.029894 | 2.0 | 11.696 | 2 | 35.522 | 11.883 | 30.760 | 2 |
| 2025-05-03T11:07:00 | 54.120336 | 8.029971 | 2.0 | 11.689 | 2 | 35.509 | 11.866 | 30.761 | 2 |
| 2025-05-03T11:08:00 | 54.120354 | 8.030046 | 2.0 | 11.706 | 2 | 35.509 | 11.870 | 30.758 | 2 |
| 2025-05-03T11:09:00 | 54.120357 | 8.030094 | 2.0 | 11.701 | 2 | 35.515 | 11.874 | 30.760 | 2 |
| 2025-05-03T11:10:00 | 54.120337 | 8.030130 | 2.0 | 11.703 | 2 | 35.516 | 11.876 | 30.760 | 2 |
| 2025-05-03T11:11:00 | 54.120326 | 8.030130 | 2.0 | 11.699 | 2 | 35.515 | 11.873 | 30.761 | 2 |
| 2025-05-03T11:12:00 | 54.120323 | 8.030079 | 2.0 | 11.704 | 2 | 35.518 | 11.875 | 30.762 | 2 |
| 2025-05-03T11:13:00 | 54.120318 | 8.030005 | 2.0 | 11.704 | 2 | 35.518 | 11.870 | 30.766 | 2 |
| 2025-05-03T11:14:00 | 54.120303 | 8.029953 | 2.0 | 11.690 | 2 | 35.527 | 11.874 | 30.772 | 2 |
| 2025-05-03T11:15:00 | 54.120304 | 8.029983 | 2.0 | 11.693 | 2 | 35.525 | 11.863 | 30.779 | 2 |
| 2025-05-03T11:16:00 | 54.120295 | 8.030078 | 2.0 | 11.695 | 2 | 35.529 | 11.864 | 30.782 | 2 |
| 2025-05-03T11:17:00 | 54.120284 | 8.030164 | 2.0 | 11.687 | 2 | 35.539 | 11.870 | 30.787 | 2 |
| 2025-05-03T11:18:00 | 54.120284 | 8.030213 | 2.0 | 11.693 | 2 | 35.547 | 11.870 | 30.794 | 2 |
| 2025-05-03T11:19:00 | 54.120252 | 8.030190 | 2.0 | 11.677 | 2 | 35.560 | 11.876 | 30.802 | 2 |
| 2025-05-03T11:20:00 | 54.120180 | 8.030166 | 2.0 | 11.660 | 2 | 35.562 | 11.864 | 30.814 | 2 |
| 2025-05-03T11:21:00 | 54.120104 | 8.030194 | 2.0 | 11.652 | 2 | 35.565 | 11.853 | 30.826 | 2 |
| 2025-05-03T11:22:00 | 54.120036 | 8.030116 | 2.0 | 11.650 | 2 | 35.564 | 11.841 | 30.835 | 2 |
| 2025-05-03T11:23:00 | 54.120077 | 8.029951 | 2.0 | 11.668 | 2 | 35.575 | 11.845 | 30.842 | 2 |
| 2025-05-03T11:24:00 | 54.120030 | 8.029523 | 2.0 | 11.651 | 2 | 35.595 | 11.860 | 30.849 | 2 |
| 2025-05-03T11:25:00 | 54.120014 | 8.028553 | 2.0 | 11.621 | 2 | 35.604 | 11.844 | 30.871 | 2 |
| 2025-05-03T11:26:00 | 54.120248 | 8.027468 | 2.0 | 11.635 | 2 | 35.613 | 11.819 | 30.900 | 2 |
| 2025-05-03T11:27:00 | 54.120623 | 8.026336 | 2.0 | 11.655 | 2 | 35.655 | 11.838 | 30.925 | 2 |
| 2025-05-03T11:28:00 | 54.120995 | 8.025323 | 2.0 | 11.670 | 2 | 35.684 | 11.854 | 30.939 | 2 |
| 2025-05-03T11:29:00 | 54.121302 | 8.024670 | 2.0 | 11.674 | 2 | 35.709 | 11.871 | 30.949 | 2 |
| 2025-05-03T11:30:00 | 54.121589 | 8.024221 | 2.0 | 11.665 | 2 | 35.714 | 11.872 | 30.953 | 2 |
| 2025-05-03T11:31:00 | 54.121853 | 8.023875 | 2.0 | 11.649 | 2 | 35.709 | 11.865 | 30.954 | 2 |
| 2025-05-03T11:32:00 | 54.122121 | 8.023590 | 2.0 | 11.649 | 2 | 35.693 | 11.843 | 30.957 | 2 |
| 2025-05-03T11:33:00 | 54.122393 | 8.023334 | 2.0 | 11.623 | 2 | 35.682 | 11.825 | 30.962 | 2 |
| 2025-05-03T11:34:00 | 54.122569 | 8.023165 | 2.0 | 11.620 | 2 | 35.670 | 11.812 | 30.961 | 2 |
| 2025-05-03T11:35:00 | 54.122559 | 8.022998 | 2.0 | 11.615 | 2 | 35.659 | 11.796 | 30.964 | 2 |
| 2025-05-03T11:36:00 | 54.122720 | 8.022961 | 2.0 | 11.609 | 2 | 35.658 | 11.795 | 30.963 | 2 |
| 2025-05-03T11:37:00 | 54.123098 | 8.023822 | 2.0 | 11.606 | 2 | 35.654 | 11.787 | 30.966 | 2 |
| 2025-05-03T11:38:00 | 54.123459 | 8.025558 | 2.0 | 11.614 | 2 | 35.654 | 11.787 | 30.966 | 2 |
| 2025-05-03T11:39:00 | 54.123544 | 8.027923 | 2.0 | 11.609 | 2 | 35.660 | 11.794 | 30.966 | 2 |
| 2025-05-03T11:40:00 | 54.123412 | 8.030611 | 2.0 | 11.627 | 2 | 35.654 | 11.793 | 30.961 | 2 |
| 2025-05-03T11:41:00 | 54.122776 | 8.033043 | 2.0 | 11.648 | 2 | 35.655 | 11.810 | 30.948 | 2 |
| 2025-05-03T11:42:00 | 54.121854 | 8.035294 | 2.0 | 11.642 | 2 | 35.664 | 11.829 | 30.941 | 2 |
| 2025-05-03T11:43:00 | 54.120700 | 8.036231 | 2.0 | 11.641 | 2 | 35.650 | 11.811 | 30.942 | 2 |
| 2025-05-03T11:44:00 | 54.119747 | 8.036136 | 2.0 | 11.662 | 2 | 35.650 | 11.821 | 30.934 | 2 |
| 2025-05-03T11:45:00 | 54.119289 | 8.035639 | 2.0 | 11.690 | 2 | 35.673 | 11.842 | 30.939 | 2 |
| 2025-05-03T11:46:00 | 54.119195 | 8.035212 | 2.0 | 11.681 | 2 | 35.697 | 11.865 | 30.943 | 2 |
| 2025-05-03T11:47:00 | 54.119167 | 8.034714 | 2.0 | 11.678 | 2 | 35.697 | 11.860 | 30.947 | 2 |
| 2025-05-03T11:48:00 | 54.119059 | 8.033860 | 2.0 | 11.664 | 2 | 35.688 | 11.846 | 30.950 | 2 |
| 2025-05-03T11:49:00 | 54.118869 | 8.032687 | 2.0 | 11.678 | 2 | 35.691 | 11.848 | 30.951 | 2 |
| 2025-05-03T11:50:00 | 54.118674 | 8.031486 | 2.0 | 11.675 | 2 | 35.702 | 11.855 | 30.956 | 2 |
| 2025-05-03T11:51:00 | 54.118457 | 8.030255 | 2.0 | 11.688 | 2 | 35.705 | 11.852 | 30.961 | 2 |
| 2025-05-03T11:52:00 | 54.118219 | 8.028942 | 2.0 | 11.668 | 2 | 35.718 | 11.858 | 30.969 | 2 |
| 2025-05-03T11:53:00 | 54.118015 | 8.027533 | 2.0 | 11.661 | 2 | 35.708 | 11.841 | 30.973 | 2 |
| 2025-05-03T11:54:00 | 54.117866 | 8.026347 | 2.0 | 11.677 | 2 | 35.711 | 11.842 | 30.975 | 2 |
| 2025-05-03T11:55:00 | 54.117805 | 8.025280 | 2.0 | 11.696 | 2 | 35.728 | 11.857 | 30.979 | 2 |
| 2025-05-03T11:56:00 | 54.117818 | 8.024316 | 2.0 | 11.698 | 2 | 35.741 | 11.870 | 30.981 | 2 |
| 2025-05-03T11:57:00 | 54.117877 | 8.023392 | 2.0 | 11.689 | 2 | 35.744 | 11.871 | 30.983 | 2 |
| 2025-05-03T11:58:00 | 54.117918 | 8.022345 | 2.0 | 11.681 | 2 | 35.739 | 11.864 | 30.984 | 2 |
| 2025-05-03T11:59:00 | 54.117863 | 8.021070 | 2.0 | 11.687 | 2 | 35.734 | 11.856 | 30.986 | 2 |
| 2025-05-03T12:00:00 | 54.117626 | 8.019687 | 2.0 | 11.681 | 2 | 35.740 | 11.861 | 30.988 | 2 |
| 2025-05-03T12:01:00 | 54.117308 | 8.018384 | 2.0 | 11.667 | 2 | 35.739 | 11.855 | 30.992 | 2 |
| 2025-05-03T12:02:00 | 54.116916 | 8.017205 | 2.0 | 11.649 | 2 | 35.728 | 11.838 | 30.995 | 2 |
| 2025-05-03T12:03:00 | 54.116484 | 8.016075 | 2.0 | 11.613 | 2 | 35.717 | 11.818 | 31.001 | 2 |
| 2025-05-03T12:04:00 | 54.116012 | 8.015020 | 2.0 | 11.583 | 2 | 35.707 | 11.787 | 31.017 | 2 |
| 2025-05-03T12:05:00 | 54.115483 | 8.014059 | 2.0 | 11.572 | 2 | 35.705 | 11.763 | 31.035 | 2 |
| 2025-05-03T12:06:00 | 54.114940 | 8.013083 | 2.0 | 11.538 | 2 | 35.704 | 11.741 | 31.053 | 2 |
| 2025-05-03T12:07:00 | 54.114401 | 8.012107 | 2.0 | 11.517 | 2 | 35.689 | 11.712 | 31.063 | 2 |
| 2025-05-03T12:08:00 | 54.113869 | 8.011167 | 2.0 | 11.506 | 2 | 35.684 | 11.698 | 31.070 | 2 |
| 2025-05-03T12:09:00 | 54.113341 | 8.010217 | 2.0 | 11.495 | 2 | 35.675 | 11.679 | 31.077 | 2 |
| 2025-05-03T12:10:00 | 54.112813 | 8.009246 | 2.0 | 11.554 | 2 | 35.685 | 11.686 | 31.081 | 2 |
| 2025-05-03T12:11:00 | 54.112287 | 8.008268 | 2.0 | 11.559 | 2 | 35.724 | 11.727 | 31.084 | 2 |
| 2025-05-03T12:12:00 | 54.111764 | 8.007271 | 2.0 | 11.552 | 2 | 35.558 | 11.733 | 30.919 | 2 |
| 2025-05-03T12:13:00 | 54.111244 | 8.006245 | 2.0 | 11.562 | 2 | 35.735 | 11.728 | 31.094 | 2 |
| 2025-05-03T12:14:00 | 54.110716 | 8.005227 | 2.0 | 11.557 | 2 | 35.668 | 11.733 | 31.025 | 2 |
| 2025-05-03T12:15:00 | 54.110183 | 8.004191 | 2.0 | 11.556 | 2 | 35.736 | 11.729 | 31.094 | 2 |
| 2025-05-03T12:16:00 | 54.109648 | 8.003178 | 2.0 | 11.551 | 2 | 35.749 | 11.730 | 31.106 | 2 |
| 2025-05-03T12:17:00 | 54.109118 | 8.002201 | 2.0 | 11.555 | 2 | 35.759 | 11.732 | 31.114 | 2 |
| 2025-05-03T12:18:00 | 54.108581 | 8.001208 | 2.0 | 11.509 | 2 | 35.765 | 11.724 | 31.126 | 2 |
| 2025-05-03T12:19:00 | 54.108048 | 8.000217 | 2.0 | 11.375 | 2 | 35.493 | 11.653 | 30.922 | 2 |
| 2025-05-03T12:20:00 | 54.107512 | 7.999251 | 2.0 | 11.350 | 2 | 35.637 | 11.555 | 31.144 | 2 |
| 2025-05-03T12:21:00 | 54.106981 | 7.998296 | 2.0 | 11.330 | 2 | 35.310 | 11.528 | 30.849 | 2 |
| 2025-05-03T12:22:00 | 54.106457 | 7.997349 | 2.0 | 11.293 | 2 | 35.306 | 11.500 | 30.869 | 2 |
| 2025-05-03T12:23:00 | 54.105930 | 7.996390 | 2.0 | 11.276 | 2 | 35.538 | 11.472 | 31.117 | 2 |
| 2025-05-03T12:24:00 | 54.105398 | 7.995416 | 2.0 | 11.246 | 2 | 35.512 | 11.449 | 31.112 | 2 |
| 2025-05-03T12:25:00 | 54.104873 | 7.994436 | 2.0 | 11.223 | 2 | 35.474 | 11.423 | 31.096 | 2 |
| 2025-05-03T12:26:00 | 54.104342 | 7.993441 | 2.0 | 11.204 | 2 | 35.417 | 11.397 | 31.063 | 2 |
| 2025-05-03T12:27:00 | 54.103805 | 7.992458 | 2.0 | 11.200 | 2 | 35.393 | 11.378 | 31.055 | 2 |
| 2025-05-03T12:28:00 | 54.103269 | 7.991508 | 2.0 | 11.182 | 2 | 35.036 | 11.371 | 30.714 | 2 |
| 2025-05-03T12:29:00 | 54.102748 | 7.990517 | 2.0 | 11.195 | 2 | 34.998 | 11.359 | 30.687 | 2 |
| 2025-05-03T12:30:00 | 54.102208 | 7.989521 | 2.0 | 11.213 | 2 | 35.179 | 11.377 | 30.848 | 2 |
| 2025-05-03T12:31:00 | 54.101673 | 7.988531 | 2.0 | 11.224 | 2 | 35.199 | 11.393 | 30.854 | 2 |
| 2025-05-03T12:32:00 | 54.101141 | 7.987511 | 2.0 | 11.204 | 2 | 35.241 | 11.396 | 30.892 | 2 |
| 2025-05-03T12:33:00 | 54.100609 | 7.986492 | 2.0 | 11.217 | 2 | 35.202 | 11.386 | 30.863 | 2 |
| 2025-05-03T12:34:00 | 54.100078 | 7.985476 | 2.0 | 11.208 | 2 | 35.349 | 11.388 | 31.004 | 2 |
| 2025-05-03T12:35:00 | 54.099550 | 7.984451 | 2.0 | 11.219 | 2 | 35.117 | 11.387 | 30.779 | 2 |
| 2025-05-03T12:36:00 | 54.099021 | 7.983427 | 2.0 | 11.219 | 2 | 35.230 | 11.396 | 30.882 | 2 |
| 2025-05-03T12:37:00 | 54.098497 | 7.982440 | 2.0 | 11.232 | 2 | 35.100 | 11.392 | 30.758 | 2 |
| 2025-05-03T12:38:00 | 54.097974 | 7.981467 | 2.0 | 11.247 | 2 | 35.055 | 11.408 | 30.701 | 2 |
| 2025-05-03T12:39:00 | 54.097442 | 7.980457 | 2.0 | 11.257 | 2 | 35.374 | 11.423 | 30.999 | 2 |
| 2025-05-03T12:40:00 | 54.096890 | 7.979460 | 2.0 | 11.263 | 2 | 35.386 | 11.434 | 31.002 | 2 |
| 2025-05-03T12:41:00 | 54.096350 | 7.978490 | 2.0 | 11.272 | 2 | 34.918 | 11.440 | 30.542 | 2 |
| 2025-05-03T12:42:00 | 54.095817 | 7.977495 | 2.0 | 11.304 | 2 | 35.405 | 11.450 | 31.007 | 2 |
| 2025-05-03T12:43:00 | 54.095285 | 7.976520 | 2.0 | 11.310 | 2 | 35.434 | 11.476 | 31.013 | 2 |
| 2025-05-03T12:44:00 | 54.094759 | 7.975545 | 2.0 | 11.325 | 2 | 35.205 | 11.487 | 30.781 | 2 |
| 2025-05-03T12:45:00 | 54.094224 | 7.974594 | 2.0 | 11.363 | 2 | 35.235 | 11.503 | 30.797 | 2 |
| 2025-05-03T12:46:00 | 54.093973 | 7.973884 | 2.0 | 11.375 | 2 | 35.301 | 11.535 | 30.835 | 2 |
| 2025-05-03T12:47:00 | 54.094231 | 7.974314 | 2.0 | 11.370 | 2 | 35.149 | 11.547 | 30.677 | 2 |
| 2025-05-03T12:48:00 | 54.095091 | 7.975960 | 2.0 | 11.331 | 2 | 35.440 | 11.536 | 30.969 | 2 |
| 2025-05-03T12:49:00 | 54.096322 | 7.978080 | 2.0 | 11.318 | 2 | 35.016 | 11.507 | 30.582 | 2 |
| 2025-05-03T12:50:00 | 54.097521 | 7.980183 | 2.0 | 11.295 | 2 | 35.364 | 11.492 | 30.932 | 2 |
| 2025-05-03T12:51:00 | 54.098700 | 7.982281 | 2.0 | 11.285 | 2 | 35.376 | 11.470 | 30.962 | 2 |
| 2025-05-03T12:52:00 | 54.099857 | 7.984349 | 2.0 | 11.256 | 2 | 35.108 | 11.457 | 30.712 | 2 |
| 2025-05-03T12:53:00 | 54.100595 | 7.986389 | 2.0 | 11.237 | 2 | 35.152 | 11.430 | 30.777 | 2 |
| 2025-05-03T12:54:00 | 54.100425 | 7.987592 | 2.0 | 11.198 | 2 | 35.201 | 11.402 | 30.848 | 2 |
| 2025-05-03T12:55:00 | 54.100116 | 7.987985 | 2.0 | 11.246 | 2 | 35.131 | 11.383 | 30.796 | 2 |
| 2025-05-03T12:56:00 | 54.099716 | 7.987725 | 2.0 | 11.259 | 2 | 35.179 | 11.420 | 30.812 | 2 |
| 2025-05-03T12:57:00 | 54.099332 | 7.986923 | 2.0 | 11.288 | 2 | 35.328 | 11.439 | 30.941 | 2 |
| 2025-05-03T12:58:00 | 54.098893 | 7.985817 | 2.0 | 11.239 | 2 | 35.094 | 11.463 | 30.694 | 2 |
| 2025-05-03T12:59:00 | 54.098397 | 7.984671 | 2.0 | 11.246 | 2 | 35.315 | 11.390 | 30.969 | 2 |
| 2025-05-03T13:00:00 | 54.097868 | 7.983525 | 2.0 | 11.316 | 2 | 35.150 | 11.441 | 30.766 | 2 |
| 2025-05-03T13:01:00 | 54.097331 | 7.982396 | 2.0 | 11.315 | 2 | 35.089 | 11.485 | 30.671 | 2 |
| 2025-05-03T13:02:00 | 54.096803 | 7.981272 | 2.0 | 11.336 | 2 | 35.356 | 11.493 | 30.923 | 2 |
| 2025-05-03T13:03:00 | 54.096272 | 7.980118 | 2.0 | 11.354 | 2 | 35.351 | 11.514 | 30.901 | 2 |
| 2025-05-03T13:04:00 | 54.095737 | 7.978959 | 2.0 | 11.354 | 2 | 35.464 | 11.525 | 31.001 | 2 |
| 2025-05-03T13:05:00 | 54.095202 | 7.977795 | 2.0 | 11.378 | 2 | 35.405 | 11.534 | 30.936 | 2 |
| 2025-05-03T13:06:00 | 54.094690 | 7.976675 | 2.0 | 11.394 | 2 | 35.416 | 11.554 | 30.930 | 2 |
| 2025-05-03T13:07:00 | 54.094212 | 7.975573 | 2.0 | 11.412 | 2 | 35.453 | 11.571 | 30.952 | 2 |
| 2025-05-03T13:08:00 | 54.093731 | 7.974457 | 2.0 | 11.411 | 2 | 35.448 | 11.583 | 30.937 | 2 |
| 2025-05-03T13:09:00 | 54.093246 | 7.973344 | 2.0 | 11.403 | 2 | 35.420 | 11.584 | 30.909 | 2 |
| 2025-05-03T13:10:00 | 54.092758 | 7.972258 | 2.0 | 11.401 | 2 | 35.358 | 11.578 | 30.854 | 2 |
| 2025-05-03T13:11:00 | 54.092283 | 7.971223 | 2.0 | 11.376 | 2 | 35.503 | 11.571 | 31.000 | 2 |
| 2025-05-03T13:12:00 | 54.091824 | 7.970236 | 2.0 | 11.370 | 2 | 35.270 | 11.551 | 30.791 | 2 |
| 2025-05-03T13:13:00 | 54.091355 | 7.969245 | 2.0 | 11.357 | 2 | 35.271 | 11.543 | 30.799 | 2 |
| 2025-05-03T13:14:00 | 54.090861 | 7.968211 | 2.0 | 11.320 | 2 | 35.092 | 11.524 | 30.641 | 2 |
| 2025-05-03T13:15:00 | 54.090356 | 7.967149 | 2.0 | 11.302 | 2 | 34.996 | 11.492 | 30.575 | 2 |
| 2025-05-03T13:16:00 | 54.089846 | 7.966046 | 2.0 | 11.315 | 2 | 35.133 | 11.484 | 30.714 | 2 |
| 2025-05-03T13:17:00 | 54.089313 | 7.964934 | 2.0 | 11.259 | 2 | 35.188 | 11.478 | 30.772 | 2 |
| 2025-05-03T13:18:00 | 54.088847 | 7.963865 | 2.0 | 11.239 | 2 | 35.451 | 11.430 | 31.068 | 2 |
| 2025-05-03T13:19:00 | 54.089047 | 7.963695 | 2.0 | 11.260 | 2 | 35.125 | 11.421 | 30.759 | 2 |
| 2025-05-03T13:20:00 | 54.089570 | 7.964507 | 2.0 | 11.240 | 2 | 35.161 | 11.428 | 30.788 | 2 |
| 2025-05-03T13:21:00 | 54.090349 | 7.965593 | 2.0 | 11.241 | 2 | 34.628 | 11.415 | 30.281 | 2 |
| 2025-05-03T13:22:00 | 54.091286 | 7.966761 | 2.0 | 11.354 | 2 | 34.719 | 11.447 | 30.343 | 2 |
| 2025-05-03T13:23:00 | 54.092045 | 7.968142 | 2.0 | 11.297 | 2 | 34.921 | 11.504 | 30.492 | 2 |
| 2025-05-03T13:24:00 | 54.092008 | 7.969350 | 2.0 | 11.295 | 2 | 35.428 | 11.473 | 31.010 | 2 |
| 2025-05-03T13:25:00 | 54.091790 | 7.969723 | 2.0 | 11.305 | 2 | 34.857 | 11.465 | 30.462 | 2 |
| 2025-05-03T13:26:00 | 54.091628 | 7.969211 | 2.0 | 11.296 | 2 | 35.250 | 11.489 | 30.823 | 2 |
| 2025-05-03T13:27:00 | 54.091566 | 7.968603 | 2.0 | 11.367 | 2 | 35.458 | 11.476 | 31.036 | 2 |
| 2025-05-03T13:28:00 | 54.091496 | 7.967988 | 2.0 | 11.265 | 2 | 35.115 | 11.511 | 30.674 | 2 |
| 2025-05-03T13:29:00 | 54.091445 | 7.967358 | 2.0 | 11.212 | 2 | 35.149 | 11.428 | 30.776 | 2 |
| 2025-05-03T13:30:00 | 54.091392 | 7.966766 | 2.0 | 11.228 | 2 | 35.197 | 11.393 | 30.852 | 2 |
| 2025-05-03T13:31:00 | 54.091331 | 7.966185 | 2.0 | 11.262 | 2 | 35.104 | 11.408 | 30.749 | 2 |
| 2025-05-03T13:32:00 | 54.091282 | 7.965619 | 2.0 | 11.252 | 2 | 35.231 | 11.433 | 30.852 | 2 |
| 2025-05-03T13:33:00 | 54.091231 | 7.965241 | 2.0 | 11.242 | 2 | 35.304 | 11.425 | 30.929 | 2 |
| 2025-05-03T13:34:00 | 54.091182 | 7.964887 | 2.0 | 11.276 | 2 | 35.119 | 11.418 | 30.755 | 2 |
| 2025-05-03T13:35:00 | 54.091146 | 7.964517 | 2.0 | 11.262 | 2 | 35.365 | 11.451 | 30.967 | 2 |
| 2025-05-03T13:36:00 | 54.091099 | 7.964091 | 2.0 | 11.233 | 2 | 35.376 | 11.431 | 30.994 | 2 |
| 2025-05-03T13:37:00 | 54.091042 | 7.963584 | 2.0 | 11.192 | 2 | 35.396 | 11.400 | 31.040 | 2 |
| 2025-05-03T13:38:00 | 54.090995 | 7.963057 | 2.0 | 11.167 | 2 | 35.492 | 11.365 | 31.163 | 2 |
| 2025-05-03T13:39:00 | 54.090941 | 7.962573 | 2.0 | 11.154 | 2 | 35.465 | 11.339 | 31.158 | 2 |
| 2025-05-03T13:40:00 | 54.090969 | 7.962276 | 2.0 | 11.143 | 2 | 35.439 | 11.324 | 31.146 | 2 |
| 2025-05-03T13:41:00 | 54.091493 | 7.962400 | 2.0 | 11.154 | 2 | 35.259 | 11.317 | 30.976 | 2 |
| 2025-05-03T13:42:00 | 54.092518 | 7.963572 | 2.0 | 11.160 | 2 | 35.442 | 11.329 | 31.144 | 2 |
| 2025-05-03T13:43:00 | 54.093761 | 7.965424 | 2.0 | 11.202 | 2 | 35.338 | 11.339 | 31.035 | 2 |
| 2025-05-03T13:44:00 | 54.095089 | 7.967708 | 2.0 | 11.230 | 2 | 35.331 | 11.382 | 30.992 | 2 |
| 2025-05-03T13:45:00 | 54.096471 | 7.970278 | 2.0 | 11.224 | 2 | 35.396 | 11.398 | 31.041 | 2 |
| 2025-05-03T13:46:00 | 54.097767 | 7.972959 | 2.0 | 11.248 | 2 | 35.379 | 11.409 | 31.016 | 2 |
| 2025-05-03T13:47:00 | 54.098874 | 7.975632 | 2.0 | 11.237 | 2 | 35.403 | 11.416 | 31.033 | 2 |
| 2025-05-03T13:48:00 | 54.099910 | 7.978139 | 2.0 | 11.255 | 2 | 35.353 | 11.414 | 30.986 | 2 |
| 2025-05-03T13:49:00 | 54.100918 | 7.980588 | 2.0 | 11.277 | 2 | 35.406 | 11.431 | 31.024 | 2 |
| 2025-05-03T13:50:00 | 54.101943 | 7.982845 | 2.0 | 11.279 | 2 | 35.395 | 11.450 | 30.997 | 2 |
| 2025-05-03T13:51:00 | 54.103036 | 7.985078 | 2.0 | 11.285 | 2 | 35.376 | 11.455 | 30.974 | 2 |
| 2025-05-03T13:52:00 | 54.104180 | 7.987788 | 2.0 | 11.296 | 2 | 35.452 | 11.460 | 31.044 | 2 |
| 2025-05-03T13:53:00 | 54.105409 | 7.990708 | 2.0 | 11.298 | 2 | 35.271 | 11.469 | 30.861 | 2 |
| 2025-05-03T13:54:00 | 54.106694 | 7.993751 | 2.0 | 11.289 | 2 | 35.431 | 11.471 | 31.014 | 2 |
| 2025-05-03T13:55:00 | 54.107992 | 7.996818 | 2.0 | 11.270 | 2 | 35.363 | 11.460 | 30.957 | 2 |
| 2025-05-03T13:56:00 | 54.109153 | 7.999600 | 2.0 | 11.258 | 2 | 35.420 | 11.442 | 31.028 | 2 |
| 2025-05-03T13:57:00 | 54.110125 | 8.001999 | 2.0 | 11.263 | 2 | 35.400 | 11.434 | 31.015 | 2 |
| 2025-05-03T13:58:00 | 54.110964 | 8.004090 | 2.0 | 11.256 | 2 | 35.409 | 11.435 | 31.023 | 2 |
| 2025-05-03T13:59:00 | 54.111328 | 8.006033 | 2.0 | 11.241 | 2 | 35.397 | 11.426 | 31.019 | 2 |
| 2025-05-03T14:00:00 | 54.111147 | 8.007178 | 2.0 | 11.242 | 2 | 35.387 | 11.415 | 31.018 | 2 |
| 2025-05-03T14:01:00 | 54.110946 | 8.007811 | 2.0 | 11.243 | 2 | 35.387 | 11.413 | 31.020 | 2 |
| 2025-05-03T14:02:00 | 54.110796 | 8.007941 | 2.0 | 11.238 | 2 | 35.356 | 11.414 | 30.989 | 2 |
| 2025-05-03T14:03:00 | 54.110686 | 8.007640 | 2.0 | 11.246 | 2 | 35.363 | 11.410 | 30.999 | 2 |
| 2025-05-03T14:04:00 | 54.110563 | 8.006850 | 2.0 | 11.259 | 2 | 35.319 | 11.420 | 30.948 | 2 |
| 2025-05-03T14:05:00 | 54.110445 | 8.005802 | 2.0 | 11.260 | 2 | 35.407 | 11.433 | 31.023 | 2 |
| 2025-05-03T14:06:00 | 54.110301 | 8.004601 | 2.0 | 11.221 | 2 | 35.404 | 11.411 | 31.038 | 2 |
| 2025-05-03T14:07:00 | 54.110156 | 8.003415 | 2.0 | 11.256 | 2 | 35.397 | 11.409 | 31.033 | 2 |
| 2025-05-03T14:08:00 | 54.110000 | 8.002342 | 2.0 | 11.258 | 2 | 35.409 | 11.428 | 31.029 | 2 |
| 2025-05-03T14:09:00 | 54.109836 | 8.001168 | 2.0 | 11.256 | 2 | 35.409 | 11.430 | 31.027 | 2 |
| 2025-05-03T14:10:00 | 54.109701 | 8.000005 | 2.0 | 11.257 | 2 | 35.321 | 11.431 | 30.941 | 2 |
| 2025-05-03T14:11:00 | 54.109561 | 7.998877 | 2.0 | 11.255 | 2 | 35.273 | 11.431 | 30.894 | 2 |
| 2025-05-03T14:12:00 | 54.109428 | 7.997831 | 2.0 | 11.246 | 2 | 35.415 | 11.429 | 31.034 | 2 |
| 2025-05-03T14:14:00 | 54.109134 | 7.995911 | 2.0 | 11.241 | 2 | 35.280 | 11.419 | 30.911 | 2 |
| 2025-05-03T14:15:00 | 54.109040 | 7.995377 | 2.0 | 11.241 | 2 | 35.187 | 11.415 | 30.824 | 2 |
| 2025-05-03T14:16:00 | 54.108886 | 7.995076 | 2.0 | 11.246 | 2 | 34.674 | 11.417 | 30.324 | 2 |
| 2025-05-03T14:17:00 | 54.109142 | 7.994985 | 2.0 | 11.243 | 2 | 35.159 | 11.417 | 30.795 | 2 |
| 2025-05-03T14:18:00 | 54.109699 | 7.995181 | 2.0 | 11.239 | 2 | 35.081 | 11.415 | 30.721 | 2 |
| 2025-05-03T14:19:00 | 54.110579 | 7.995845 | 2.0 | 11.223 | 2 | 34.744 | 11.407 | 30.400 | 2 |
| 2025-05-03T14:20:00 | 54.111473 | 7.997956 | 2.0 | 11.233 | 2 | 34.670 | 11.398 | 30.336 | 2 |
| 2025-05-03T14:26:00 | 54.118896 | 8.017426 | 2.0 | 11.219 | 2 | 34.882 | 11.395 | 30.544 | 2 |
| 2025-05-03T14:27:00 | 54.120199 | 8.020862 | 2.0 | 11.196 | 2 | 35.364 | 11.394 | 31.014 | 2 |
| 2025-05-03T14:28:00 | 54.121508 | 8.024279 | 2.0 | 11.170 | 2 | 34.899 | 11.367 | 30.584 | 2 |
| 2025-05-03T14:29:00 | 54.122747 | 8.027684 | 2.0 | 11.156 | 2 | 35.229 | 11.353 | 30.917 | 2 |
| 2025-05-03T14:30:00 | 54.123228 | 8.030862 | 2.0 | 11.150 | 2 | 34.903 | 11.347 | 30.604 | 2 |
| 2025-05-03T14:31:00 | 54.123092 | 8.033554 | 2.0 | 11.134 | 2 | 35.364 | 11.340 | 31.059 | 2 |
| 2025-05-03T14:32:00 | 54.122578 | 8.035600 | 2.0 | 11.129 | 2 | 35.025 | 11.326 | 30.740 | 2 |
| 2025-05-03T14:34:00 | 54.120537 | 8.037169 | 2.0 | 11.130 | 2 | 35.361 | 11.325 | 31.069 | 2 |
| 2025-05-03T14:35:00 | 54.119653 | 8.036225 | 2.0 | 11.152 | 2 | 35.356 | 11.330 | 31.060 | 2 |
| 2025-05-03T14:36:00 | 54.119530 | 8.035176 | 2.0 | 11.170 | 2 | 35.365 | 11.352 | 31.050 | 2 |
| 2025-05-03T14:37:00 | 54.119777 | 8.034345 | 2.0 | 11.176 | 2 | 35.375 | 11.368 | 31.046 | 2 |
| 2025-05-03T14:38:00 | 54.120002 | 8.033522 | 2.0 | 11.176 | 2 | 35.371 | 11.373 | 31.038 | 2 |
| 2025-05-03T14:39:00 | 54.120175 | 8.032556 | 2.0 | 11.188 | 2 | 35.349 | 11.377 | 31.013 | 2 |
| 2025-05-03T14:40:00 | 54.120266 | 8.031768 | 2.0 | 11.176 | 2 | 35.388 | 11.385 | 31.045 | 2 |
| 2025-05-03T14:41:00 | 54.120251 | 8.031451 | 2.0 | 11.161 | 2 | 35.332 | 11.368 | 31.004 | 2 |
| 2025-05-03T14:42:00 | 54.120174 | 8.031214 | 2.0 | 11.176 | 2 | 35.352 | 11.364 | 31.027 | 2 |
| 2025-05-03T14:43:00 | 54.120242 | 8.031101 | 2.0 | 11.193 | 2 | 35.335 | 11.378 | 30.999 | 2 |
| 2025-05-03T14:44:00 | 54.120266 | 8.030872 | 2.0 | 11.201 | 2 | 35.385 | 11.394 | 31.034 | 2 |
| 2025-05-03T14:45:00 | 54.120194 | 8.030582 | 2.0 | 11.216 | 2 | 35.361 | 11.398 | 31.007 | 2 |
| 2025-05-03T14:46:00 | 54.120126 | 8.030427 | 2.0 | 11.205 | 2 | 35.405 | 11.416 | 31.035 | 2 |
| 2025-05-03T14:47:00 | 54.120070 | 8.030441 | 2.0 | 11.179 | 2 | 35.374 | 11.399 | 31.019 | 2 |
| 2025-05-03T14:48:00 | 54.119997 | 8.030462 | 2.0 | 11.169 | 2 | 35.379 | 11.383 | 31.038 | 2 |
| 2025-05-03T14:49:00 | 54.119952 | 8.030443 | 2.0 | 11.167 | 2 | 35.361 | 11.370 | 31.031 | 2 |
| 2025-05-03T14:50:00 | 54.119928 | 8.030396 | 2.0 | 11.197 | 2 | 35.358 | 11.376 | 31.023 | 2 |
| 2025-05-03T14:51:00 | 54.119903 | 8.030316 | 2.0 | 11.200 | 2 | 35.397 | 11.403 | 31.038 | 2 |
| 2025-05-03T14:52:00 | 54.119875 | 8.030262 | 2.0 | 11.185 | 2 | 35.402 | 11.400 | 31.046 | 2 |
| 2025-05-03T14:53:00 | 54.119903 | 8.030206 | 2.0 | 11.182 | 2 | 35.395 | 11.391 | 31.046 | 2 |
| 2025-05-03T14:54:00 | 54.119935 | 8.030156 | 2.0 | 11.171 | 2 | 35.389 | 11.385 | 31.046 | 2 |
| 2025-05-03T14:55:00 | 54.119950 | 8.030145 | 2.0 | 11.168 | 2 | 35.379 | 11.375 | 31.044 | 2 |
| 2025-05-03T14:56:00 | 54.119963 | 8.030116 | 2.0 | 11.151 | 2 | 35.375 | 11.368 | 31.046 | 2 |
| 2025-05-03T14:57:00 | 54.119976 | 8.030088 | 2.0 | 11.151 | 2 | 35.376 | 11.358 | 31.056 | 2 |
| 2025-05-03T14:58:00 | 54.119980 | 8.030081 | 2.0 | 11.187 | 2 | 35.368 | 11.345 | 31.059 | 2 |
| 2025-05-03T14:59:00 | 54.119985 | 8.030077 | 2.0 | 11.193 | 2 | 35.382 | 11.370 | 31.051 | 2 |
| 2025-05-03T15:00:00 | 54.119988 | 8.030070 | 2.0 | 11.183 | 2 | 35.357 | 11.377 | 31.021 | 2 |
| 2025-05-03T15:01:00 | 54.120011 | 8.030058 | 2.0 | 11.185 | 2 | 35.349 | 11.369 | 31.020 | 2 |
| 2025-05-03T15:02:00 | 54.120030 | 8.030050 | 2.0 | 11.196 | 2 | 35.373 | 11.370 | 31.043 | 2 |
| 2025-05-03T15:03:00 | 54.120007 | 8.030073 | 2.0 | 11.204 | 2 | 35.361 | 11.380 | 31.023 | 2 |
| 2025-05-03T15:04:00 | 54.120003 | 8.030090 | 2.0 | 11.204 | 2 | 35.317 | 11.384 | 30.976 | 2 |
| 2025-05-03T15:05:00 | 54.119993 | 8.030103 | 2.0 | 11.203 | 2 | 35.359 | 11.384 | 31.017 | 2 |
| 2025-05-03T15:06:00 | 54.119981 | 8.030110 | 2.0 | 11.203 | 2 | 35.370 | 11.381 | 31.030 | 2 |
| 2025-05-03T15:07:00 | 54.119969 | 8.030141 | 2.0 | 11.207 | 2 | 35.381 | 11.384 | 31.039 | 2 |
| 2025-05-03T15:08:00 | 54.119941 | 8.030214 | 2.0 | 11.209 | 2 | 35.361 | 11.386 | 31.017 | 2 |
| 2025-05-03T15:09:00 | 54.119912 | 8.030258 | 2.0 | 11.209 | 2 | 35.387 | 11.387 | 31.042 | 2 |
| 2025-05-03T15:10:00 | 54.119885 | 8.030286 | 2.0 | 11.211 | 2 | 35.386 | 11.389 | 31.039 | 2 |
| 2025-05-03T15:11:00 | 54.119862 | 8.030321 | 2.0 | 11.211 | 2 | 35.371 | 11.389 | 31.025 | 2 |
| 2025-05-03T15:12:00 | 54.119844 | 8.030350 | 2.0 | 11.211 | 2 | 35.388 | 11.391 | 31.040 | 2 |
| 2025-05-03T15:13:00 | 54.119818 | 8.030370 | 2.0 | 11.214 | 2 | 35.391 | 11.390 | 31.043 | 2 |
| 2025-05-03T15:14:00 | 54.119775 | 8.030403 | 2.0 | 11.217 | 2 | 35.393 | 11.393 | 31.043 | 2 |
| 2025-05-03T15:15:00 | 54.119739 | 8.030449 | 2.0 | 11.219 | 2 | 35.395 | 11.394 | 31.044 | 2 |
| 2025-05-03T15:16:00 | 54.119729 | 8.030465 | 2.0 | 11.220 | 2 | 35.399 | 11.396 | 31.046 | 2 |
| 2025-05-03T15:17:00 | 54.119749 | 8.030408 | 2.0 | 11.212 | 2 | 35.399 | 11.393 | 31.049 | 2 |
| 2025-05-03T15:18:00 | 54.119803 | 8.030354 | 2.0 | 11.203 | 2 | 35.397 | 11.388 | 31.051 | 2 |
| 2025-05-03T15:19:00 | 54.119847 | 8.030381 | 2.0 | 11.202 | 2 | 35.393 | 11.377 | 31.056 | 2 |
| 2025-05-03T15:20:00 | 54.119882 | 8.030391 | 2.0 | 11.192 | 2 | 35.395 | 11.376 | 31.059 | 2 |
| 2025-05-03T15:21:00 | 54.119905 | 8.030376 | 2.0 | 11.194 | 2 | 35.393 | 11.369 | 31.063 | 2 |
| 2025-05-03T15:22:00 | 54.119931 | 8.030274 | 2.0 | 11.191 | 2 | 35.392 | 11.370 | 31.061 | 2 |
| 2025-05-03T15:23:00 | 54.119942 | 8.030164 | 2.0 | 11.190 | 2 | 35.390 | 11.366 | 31.063 | 2 |
| 2025-05-03T15:24:00 | 54.119965 | 8.030102 | 2.0 | 11.194 | 2 | 35.389 | 11.367 | 31.061 | 2 |
| 2025-05-03T15:25:00 | 54.119966 | 8.030104 | 2.0 | 11.187 | 2 | 35.393 | 11.369 | 31.063 | 2 |
| 2025-05-03T15:26:00 | 54.119981 | 8.030140 | 2.0 | 11.182 | 2 | 35.391 | 11.362 | 31.067 | 2 |
| 2025-05-03T15:27:00 | 54.119985 | 8.030209 | 2.0 | 11.199 | 2 | 35.390 | 11.364 | 31.064 | 2 |
| 2025-05-03T15:28:00 | 54.119984 | 8.030255 | 2.0 | 11.201 | 2 | 35.027 | 11.372 | 30.704 | 2 |
| 2025-05-03T15:29:00 | 54.120022 | 8.030255 | 2.0 | 11.200 | 2 | 35.404 | 11.377 | 31.067 | 2 |
| 2025-05-03T15:30:00 | 54.120046 | 8.030254 | 2.0 | 11.194 | 2 | 35.403 | 11.373 | 31.069 | 2 |
| 2025-05-03T15:31:00 | 54.120069 | 8.030231 | 2.0 | 11.186 | 2 | 35.049 | 11.367 | 30.730 | 2 |
| 2025-05-03T15:32:00 | 54.120069 | 8.030271 | 2.0 | 11.192 | 2 | 34.952 | 11.361 | 30.640 | 2 |
| 2025-05-03T15:33:00 | 54.120061 | 8.030313 | 2.0 | 11.189 | 2 | 35.209 | 11.367 | 30.885 | 2 |
| 2025-05-03T15:34:00 | 54.120062 | 8.030332 | 2.0 | 11.184 | 2 | 34.893 | 11.362 | 30.582 | 2 |
| 2025-05-03T15:35:00 | 54.120091 | 8.030325 | 2.0 | 11.202 | 2 | 35.307 | 11.362 | 30.985 | 2 |
| 2025-05-03T15:36:00 | 54.120115 | 8.030278 | 2.0 | 11.199 | 2 | 34.969 | 11.375 | 30.645 | 2 |
| 2025-05-03T15:37:00 | 54.120124 | 8.030197 | 2.0 | 11.200 | 2 | 35.389 | 11.374 | 31.055 | 2 |
| 2025-05-03T15:38:00 | 54.120087 | 8.030124 | 2.0 | 11.190 | 2 | 35.409 | 11.370 | 31.078 | 2 |
| 2025-05-03T15:39:00 | 54.120047 | 8.030071 | 2.0 | 11.184 | 2 | 35.406 | 11.363 | 31.081 | 2 |
| 2025-05-03T15:40:00 | 54.120011 | 8.030044 | 2.0 | 11.184 | 2 | 35.403 | 11.359 | 31.081 | 2 |
| 2025-05-03T15:41:00 | 54.120007 | 8.030040 | 2.0 | 11.189 | 2 | 35.401 | 11.360 | 31.078 | 2 |
| 2025-05-03T15:42:00 | 54.119994 | 8.030077 | 2.0 | 11.191 | 2 | 34.994 | 11.365 | 30.678 | 2 |
| 2025-05-03T15:43:00 | 54.119984 | 8.030118 | 2.0 | 11.189 | 2 | 35.404 | 11.366 | 31.076 | 2 |
| 2025-05-03T15:44:00 | 54.119989 | 8.030096 | 2.0 | 11.185 | 2 | 35.021 | 11.362 | 30.707 | 2 |
| 2025-05-03T15:45:00 | 54.120001 | 8.030047 | 2.0 | 11.187 | 2 | 34.755 | 11.360 | 30.449 | 2 |
| 2025-05-03T15:48:00 | 54.120036 | 8.030228 | 2.0 | 11.182 | 2 | 35.393 | 11.351 | 31.078 | 2 |
| 2025-05-03T15:49:00 | 54.120039 | 8.030200 | 2.0 | 11.175 | 2 | 35.395 | 11.354 | 31.077 | 2 |
| 2025-05-03T15:50:00 | 54.120018 | 8.030133 | 2.0 | 11.174 | 2 | 35.392 | 11.349 | 31.079 | 2 |
| 2025-05-03T15:51:00 | 54.120002 | 8.030022 | 2.0 | 11.176 | 2 | 35.389 | 11.347 | 31.078 | 2 |
| 2025-05-03T15:52:00 | 54.119951 | 8.030005 | 2.0 | 11.179 | 2 | 35.387 | 11.350 | 31.073 | 2 |
| 2025-05-03T15:53:00 | 54.119870 | 8.030081 | 2.0 | 11.178 | 2 | 35.393 | 11.352 | 31.077 | 2 |
| 2025-05-03T15:54:00 | 54.119794 | 8.030149 | 2.0 | 11.176 | 2 | 35.393 | 11.351 | 31.078 | 2 |
| 2025-05-03T15:55:00 | 54.119729 | 8.030196 | 2.0 | 11.173 | 2 | 35.393 | 11.349 | 31.080 | 2 |
| 2025-05-03T15:56:00 | 54.119703 | 8.030168 | 2.0 | 11.173 | 2 | 35.392 | 11.346 | 31.081 | 2 |
| 2025-05-03T15:57:00 | 54.119760 | 8.030082 | 2.0 | 11.167 | 2 | 35.392 | 11.345 | 31.082 | 2 |
| 2025-05-03T15:58:00 | 54.119859 | 8.030052 | 2.0 | 11.154 | 2 | 35.386 | 11.335 | 31.085 | 2 |
| 2025-05-03T15:59:00 | 54.119958 | 8.030092 | 2.0 | 11.155 | 2 | 35.382 | 11.330 | 31.085 | 2 |
| 2025-05-03T16:00:00 | 54.120051 | 8.030142 | 2.0 | 11.159 | 2 | 35.381 | 11.329 | 31.085 | 2 |
| 2025-05-03T16:01:00 | 54.120125 | 8.030167 | 2.0 | 11.153 | 2 | 35.381 | 11.329 | 31.085 | 2 |
| 2025-05-03T16:02:00 | 54.120183 | 8.030180 | 2.0 | 11.156 | 2 | 35.380 | 11.327 | 31.086 | 2 |
| 2025-05-03T16:03:00 | 54.120204 | 8.030185 | 2.0 | 11.153 | 2 | 35.381 | 11.327 | 31.087 | 2 |
| 2025-05-03T16:04:00 | 54.120187 | 8.030197 | 2.0 | 11.159 | 2 | 35.378 | 11.327 | 31.084 | 2 |
| 2025-05-03T16:05:00 | 54.120132 | 8.030259 | 2.0 | 11.161 | 2 | 35.387 | 11.334 | 31.087 | 2 |
| 2025-05-03T16:06:00 | 54.120045 | 8.030383 | 2.0 | 11.160 | 2 | 35.391 | 11.334 | 31.090 | 2 |
| 2025-05-03T16:07:00 | 54.119907 | 8.030479 | 2.0 | 11.159 | 2 | 35.387 | 11.332 | 31.088 | 2 |
| 2025-05-03T16:08:00 | 54.119821 | 8.030470 | 2.0 | 11.158 | 2 | 35.387 | 11.332 | 31.088 | 2 |
| 2025-05-03T16:09:00 | 54.119809 | 8.030374 | 2.0 | 11.160 | 2 | 35.388 | 11.331 | 31.090 | 2 |
| 2025-05-03T16:10:00 | 54.119846 | 8.030229 | 2.0 | 11.159 | 2 | 35.392 | 11.333 | 31.092 | 2 |
| 2025-05-03T16:11:00 | 54.119890 | 8.030142 | 2.0 | 11.154 | 2 | 35.391 | 11.331 | 31.093 | 2 |
| 2025-05-03T16:12:00 | 54.119922 | 8.030164 | 2.0 | 11.162 | 2 | 35.381 | 11.330 | 31.084 | 2 |
| 2025-05-03T16:13:00 | 54.119927 | 8.030215 | 2.0 | 11.156 | 2 | 35.125 | 11.333 | 30.832 | 2 |
| 2025-05-03T16:14:00 | 54.119954 | 8.030146 | 2.0 | 11.159 | 2 | 35.234 | 11.330 | 30.941 | 2 |
| 2025-05-03T16:15:00 | 54.120002 | 8.030083 | 2.0 | 11.160 | 2 | 35.386 | 11.332 | 31.087 | 2 |
| 2025-05-03T16:16:00 | 54.120013 | 8.030061 | 2.0 | 11.153 | 2 | 35.244 | 11.330 | 30.950 | 2 |
| 2025-05-03T16:17:00 | 54.119991 | 8.030100 | 2.0 | 11.145 | 2 | 35.233 | 11.324 | 30.945 | 2 |
| 2025-05-03T16:18:00 | 54.119915 | 8.030138 | 2.0 | 11.141 | 2 | 35.326 | 11.318 | 31.040 | 2 |
| 2025-05-03T16:19:00 | 54.119834 | 8.030067 | 2.0 | 11.139 | 2 | 35.316 | 11.313 | 31.035 | 2 |
| 2025-05-03T16:20:00 | 54.119759 | 8.030020 | 2.0 | 11.139 | 2 | 35.344 | 11.311 | 31.064 | 2 |
| 2025-05-03T16:21:00 | 54.119676 | 8.030034 | 2.0 | 11.141 | 2 | 35.242 | 11.312 | 30.964 | 2 |
| 2025-05-03T16:22:00 | 54.119553 | 8.030065 | 2.0 | 11.140 | 2 | 35.321 | 11.313 | 31.040 | 2 |
| 2025-05-03T16:23:00 | 54.119403 | 8.030118 | 2.0 | 11.137 | 2 | 35.251 | 11.311 | 30.973 | 2 |
| 2025-05-03T16:24:00 | 54.119244 | 8.030184 | 2.0 | 11.136 | 2 | 35.321 | 11.309 | 31.043 | 2 |
| 2025-05-03T16:25:00 | 54.119064 | 8.030205 | 2.0 | 11.132 | 2 | 35.335 | 11.307 | 31.059 | 2 |
| 2025-05-03T16:26:00 | 54.118916 | 8.030145 | 2.0 | 11.133 | 2 | 35.275 | 11.304 | 31.002 | 2 |
| 2025-05-03T16:27:00 | 54.118800 | 8.030055 | 2.0 | 11.132 | 2 | 35.332 | 11.306 | 31.056 | 2 |
| 2025-05-03T16:28:00 | 54.118668 | 8.030035 | 2.0 | 11.131 | 2 | 35.318 | 11.303 | 31.045 | 2 |
| 2025-05-03T16:29:00 | 54.118531 | 8.030003 | 2.0 | 11.130 | 2 | 35.289 | 11.302 | 31.018 | 2 |
| 2025-05-03T16:30:00 | 54.118449 | 8.029874 | 2.0 | 11.127 | 2 | 35.307 | 11.301 | 31.036 | 2 |
| 2025-05-03T16:31:00 | 54.118404 | 8.029665 | 2.0 | 11.129 | 2 | 35.314 | 11.299 | 31.045 | 2 |
| 2025-05-03T16:32:00 | 54.118384 | 8.029393 | 2.0 | 11.133 | 2 | 35.284 | 11.301 | 31.014 | 2 |
| 2025-05-03T16:33:00 | 54.118342 | 8.029134 | 2.0 | 11.137 | 2 | 35.342 | 11.306 | 31.066 | 2 |
| 2025-05-03T16:34:00 | 54.118264 | 8.028963 | 2.0 | 11.127 | 2 | 35.305 | 11.307 | 31.029 | 2 |
| 2025-05-03T16:35:00 | 54.118145 | 8.028869 | 2.0 | 11.121 | 2 | 35.366 | 11.299 | 31.096 | 2 |
| 2025-05-03T16:36:00 | 54.118046 | 8.028688 | 2.0 | 11.121 | 2 | 35.312 | 11.294 | 31.047 | 2 |
| 2025-05-03T16:37:00 | 54.117972 | 8.028489 | 2.0 | 11.126 | 2 | 35.345 | 11.295 | 31.078 | 2 |
| 2025-05-03T16:38:00 | 54.117881 | 8.028287 | 2.0 | 11.129 | 2 | 35.355 | 11.299 | 31.085 | 2 |
| 2025-05-03T16:39:00 | 54.117752 | 8.028150 | 2.0 | 11.131 | 2 | 35.347 | 11.301 | 31.075 | 2 |
| 2025-05-03T16:40:00 | 54.117597 | 8.028101 | 2.0 | 11.130 | 2 | 35.397 | 11.303 | 31.122 | 2 |
| 2025-05-03T16:41:00 | 54.117469 | 8.028094 | 2.0 | 11.131 | 2 | 35.403 | 11.302 | 31.129 | 2 |
| 2025-05-03T16:42:00 | 54.117328 | 8.028130 | 2.0 | 11.124 | 2 | 35.357 | 11.301 | 31.085 | 2 |
| 2025-05-03T16:43:00 | 54.117178 | 8.028144 | 2.0 | 11.109 | 2 | 35.356 | 11.290 | 31.093 | 2 |
| 2025-05-03T16:44:00 | 54.117050 | 8.027814 | 2.0 | 11.117 | 2 | 35.349 | 11.283 | 31.092 | 2 |
| 2025-05-03T16:45:00 | 54.116682 | 8.026571 | 2.0 | 11.111 | 2 | 35.355 | 11.286 | 31.096 | 2 |
| 2025-05-03T16:46:00 | 54.115645 | 8.025278 | 2.0 | 11.110 | 2 | 35.397 | 11.284 | 31.138 | 2 |
| 2025-05-03T16:47:00 | 54.114277 | 8.023779 | 2.0 | 11.108 | 2 | 35.421 | 11.281 | 31.164 | 2 |
| 2025-05-03T16:48:00 | 54.112645 | 8.022177 | 2.0 | 11.116 | 2 | 35.430 | 11.283 | 31.172 | 2 |
| 2025-05-03T16:49:00 | 54.110455 | 8.020416 | 2.0 | 11.134 | 2 | 35.438 | 11.292 | 31.172 | 2 |
| 2025-05-03T16:50:00 | 54.107905 | 8.018577 | 2.0 | 11.097 | 2 | 35.468 | 11.300 | 31.194 | 2 |
| 2025-05-03T16:51:00 | 54.105251 | 8.016602 | 2.0 | 11.069 | 2 | 35.424 | 11.268 | 31.178 | 2 |
| 2025-05-03T16:52:00 | 54.102578 | 8.014524 | 2.0 | 11.104 | 2 | 35.434 | 11.249 | 31.204 | 2 |
| 2025-05-03T16:53:00 | 54.099863 | 8.012488 | 2.0 | 11.060 | 2 | 35.491 | 11.280 | 31.234 | 2 |
| 2025-05-03T16:54:00 | 54.097158 | 8.010441 | 2.0 | 11.061 | 2 | 35.463 | 11.222 | 31.255 | 2 |
| 2025-05-03T16:55:00 | 54.094440 | 8.008362 | 2.0 | 11.096 | 2 | 35.503 | 11.253 | 31.268 | 2 |
| 2025-05-03T16:56:00 | 54.091727 | 8.006299 | 2.0 | 11.040 | 2 | 35.537 | 11.257 | 31.298 | 2 |
| 2025-05-03T16:57:00 | 54.089022 | 8.004248 | 2.0 | 11.059 | 2 | 35.523 | 11.225 | 31.312 | 2 |
| 2025-05-03T16:58:00 | 54.086306 | 8.002212 | 2.0 | 11.039 | 2 | 35.536 | 11.230 | 31.320 | 2 |
| 2025-05-03T16:59:00 | 54.083595 | 8.000116 | 2.0 | 11.003 | 2 | 35.519 | 11.213 | 31.318 | 2 |
| 2025-05-03T17:00:00 | 54.080853 | 7.998087 | 2.0 | 10.968 | 2 | 35.483 | 11.173 | 31.317 | 2 |
| 2025-05-03T17:01:00 | 54.078120 | 7.996000 | 2.0 | 10.974 | 2 | 35.461 | 11.149 | 31.315 | 2 |
| 2025-05-03T17:02:00 | 54.075387 | 7.993944 | 2.0 | 11.045 | 2 | 35.490 | 11.162 | 31.333 | 2 |
| 2025-05-03T17:03:00 | 54.072633 | 7.991837 | 2.0 | 11.046 | 2 | 35.584 | 11.220 | 31.376 | 2 |
| 2025-05-03T17:04:00 | 54.069870 | 7.989744 | 2.0 | 11.033 | 2 | 35.599 | 11.214 | 31.395 | 2 |
| 2025-05-03T17:05:00 | 54.067099 | 7.987646 | 2.0 | 11.036 | 2 | 35.598 | 11.211 | 31.397 | 2 |
| 2025-05-03T17:06:00 | 54.064323 | 7.985512 | 2.0 | 11.036 | 2 | 35.613 | 11.210 | 31.413 | 2 |
| 2025-05-03T17:07:00 | 54.061525 | 7.983398 | 2.0 | 10.872 | 2 | 35.649 | 11.194 | 31.461 | 2 |
| 2025-05-03T17:08:00 | 54.058731 | 7.981243 | 2.0 | 10.744 | 2 | 35.644 | 11.061 | 31.570 | 2 |
| 2025-05-03T17:09:00 | 54.055927 | 7.979148 | 2.0 | 10.604 | 2 | 35.601 | 10.869 | 31.694 | 2 |
| 2025-05-03T17:10:00 | 54.053127 | 7.977066 | 2.0 | 10.549 | 2 | 35.591 | 10.793 | 31.749 | 2 |
| 2025-05-03T17:11:00 | 54.050318 | 7.974950 | 2.0 | 10.484 | 2 | 35.611 | 10.724 | 31.829 | 2 |
| 2025-05-03T17:12:00 | 54.047537 | 7.972844 | 2.0 | 10.339 | 2 | 35.621 | 10.628 | 31.923 | 2 |
| 2025-05-03T17:13:00 | 54.044796 | 7.970667 | 2.0 | 10.160 | 2 | 35.599 | 10.505 | 32.009 | 2 |
| 2025-05-03T17:14:00 | 54.042022 | 7.968614 | 2.0 | 10.092 | 2 | 35.544 | 10.335 | 32.104 | 2 |
| 2025-05-03T17:15:00 | 54.039280 | 7.966461 | 2.0 | 10.323 | 2 | 35.536 | 10.331 | 32.099 | 2 |
| 2025-05-03T17:16:00 | 54.036525 | 7.964369 | 2.0 | 10.382 | 2 | 35.625 | 10.505 | 32.035 | 2 |
| 2025-05-03T17:17:00 | 54.033758 | 7.962349 | 2.0 | 10.443 | 2 | 35.690 | 10.568 | 32.044 | 2 |
| 2025-05-03T17:18:00 | 54.031004 | 7.960202 | 2.0 | 10.301 | 2 | 35.762 | 10.566 | 32.118 | 2 |
| 2025-05-03T17:19:00 | 54.028223 | 7.958114 | 2.0 | 10.260 | 2 | 35.730 | 10.478 | 32.164 | 2 |
| 2025-05-03T17:20:00 | 54.025455 | 7.955971 | 2.0 | 10.172 | 2 | 35.764 | 10.426 | 32.244 | 2 |
| 2025-05-03T17:21:00 | 54.022676 | 7.953929 | 2.0 | 10.352 | 2 | 35.751 | 10.372 | 32.279 | 2 |
| 2025-05-03T17:22:00 | 54.019906 | 7.951811 | 2.0 | 10.589 | 2 | 35.850 | 10.561 | 32.210 | 2 |
| 2025-05-03T17:23:00 | 54.017118 | 7.949711 | 2.0 | 10.737 | 2 | 36.014 | 10.782 | 32.179 | 2 |
| 2025-05-03T17:24:00 | 54.014312 | 7.947633 | 2.0 | 10.762 | 2 | 36.093 | 10.901 | 32.153 | 2 |
| 2025-05-03T17:25:00 | 54.011529 | 7.945506 | 2.0 | 10.809 | 2 | 36.145 | 10.940 | 32.170 | 2 |
| 2025-05-03T17:26:00 | 54.008730 | 7.943374 | 2.0 | 10.839 | 2 | 36.230 | 10.978 | 32.221 | 2 |
| 2025-05-03T17:27:00 | 54.005925 | 7.941286 | 2.0 | 10.889 | 2 | 36.282 | 11.018 | 32.237 | 2 |
| 2025-05-03T17:28:00 | 54.003103 | 7.939108 | 2.0 | 10.728 | 2 | 36.321 | 11.042 | 32.254 | 2 |
| 2025-05-03T17:29:00 | 54.000267 | 7.937025 | 2.0 | 10.478 | 2 | 36.304 | 10.883 | 32.377 | 2 |
| 2025-05-03T17:30:00 | 53.997461 | 7.934858 | 2.0 | 10.208 | 2 | 36.209 | 10.611 | 32.524 | 2 |
| 2025-05-03T17:31:00 | 53.994671 | 7.932706 | 2.0 | 10.139 | 2 | 36.106 | 10.391 | 32.618 | 2 |
| 2025-05-03T17:32:00 | 53.991881 | 7.930612 | 2.0 | 10.037 | 2 | 36.059 | 10.316 | 32.638 | 2 |
| 2025-05-03T17:33:00 | 53.989106 | 7.928501 | 2.0 | 9.718 | 2 | 35.965 | 10.147 | 32.696 | 2 |
| 2025-05-03T17:34:00 | 53.986355 | 7.926431 | 2.0 | 9.741 | 2 | 35.802 | 9.903 | 32.751 | 2 |
| 2025-05-03T17:35:00 | 53.983631 | 7.924311 | 2.0 | 9.624 | 2 | 35.802 | 9.936 | 32.721 | 2 |
| 2025-05-03T17:36:00 | 53.980925 | 7.922171 | 2.0 | 9.463 | 2 | 35.731 | 9.769 | 32.801 | 2 |
| 2025-05-03T17:37:00 | 53.978214 | 7.920151 | 2.0 | 9.397 | 2 | 35.658 | 9.672 | 32.815 | 2 |
| 2025-05-03T17:38:00 | 53.975557 | 7.918029 | 2.0 | 9.361 | 2 | 35.591 | 9.570 | 32.839 | 2 |
| 2025-05-03T17:39:00 | 53.972880 | 7.916081 | 2.0 | 9.413 | 2 | 35.573 | 9.557 | 32.833 | 2 |
| 2025-05-03T17:40:00 | 53.970197 | 7.914126 | 2.0 | 9.500 | 2 | 35.639 | 9.618 | 32.845 | 2 |
| 2025-05-03T17:41:00 | 53.967540 | 7.912052 | 2.0 | 9.434 | 2 | 35.703 | 9.675 | 32.858 | 2 |
| 2025-05-03T17:42:00 | 53.964891 | 7.910068 | 2.0 | 9.390 | 2 | 35.637 | 9.615 | 32.845 | 2 |
| 2025-05-03T17:43:00 | 53.962255 | 7.908051 | 2.0 | 9.434 | 2 | 35.586 | 9.576 | 32.829 | 2 |
| 2025-05-03T17:44:00 | 53.959605 | 7.906051 | 2.0 | 9.456 | 2 | 35.632 | 9.623 | 32.833 | 2 |
| 2025-05-03T17:45:00 | 53.956956 | 7.904064 | 2.0 | 9.497 | 2 | 35.649 | 9.642 | 32.833 | 2 |
| 2025-05-03T17:46:00 | 53.954307 | 7.902082 | 2.0 | 9.528 | 2 | 35.685 | 9.681 | 32.834 | 2 |
| 2025-05-03T17:47:00 | 53.951644 | 7.900097 | 2.0 | 9.626 | 2 | 35.721 | 9.727 | 32.829 | 2 |
| 2025-05-03T17:48:00 | 53.948940 | 7.898116 | 2.0 | 9.613 | 2 | 35.780 | 9.799 | 32.823 | 2 |
| 2025-05-03T17:49:00 | 53.946278 | 7.896027 | 2.0 | 9.593 | 2 | 35.775 | 9.795 | 32.822 | 2 |
| 2025-05-03T17:50:00 | 53.943601 | 7.893988 | 2.0 | 9.628 | 2 | 35.757 | 9.774 | 32.823 | 2 |
| 2025-05-03T17:51:00 | 53.940932 | 7.891982 | 2.0 | 9.543 | 2 | 35.776 | 9.805 | 32.814 | 2 |
| 2025-05-03T17:52:00 | 53.938297 | 7.889850 | 2.0 | 9.420 | 2 | 35.702 | 9.700 | 32.834 | 2 |
| 2025-05-03T17:53:00 | 53.935636 | 7.887852 | 2.0 | 9.375 | 2 | 35.049 | 9.599 | 32.258 | 2 |
| 2025-05-03T17:54:00 | 53.932981 | 7.885892 | 2.0 | 9.374 | 2 | 35.517 | 9.561 | 32.772 | 2 |
| 2025-05-03T17:55:00 | 53.930223 | 7.884491 | 2.0 | 9.390 | 2 | 35.509 | 9.560 | 32.764 | 2 |
| 2025-05-03T17:56:00 | 53.927400 | 7.884308 | 2.0 | 9.427 | 2 | 35.524 | 9.578 | 32.763 | 2 |
| 2025-05-03T17:57:00 | 53.924555 | 7.884057 | 2.0 | 9.446 | 2 | 35.562 | 9.613 | 32.770 | 2 |
| 2025-05-03T17:58:00 | 53.921711 | 7.883741 | 2.0 | 9.472 | 2 | 35.144 | 9.628 | 32.329 | 2 |
| 2025-05-03T17:59:00 | 53.918898 | 7.883438 | 2.0 | 9.494 | 2 | 35.523 | 9.654 | 32.693 | 2 |
| 2025-05-03T18:00:00 | 53.916101 | 7.883090 | 2.0 | 9.518 | 2 | 35.202 | 9.676 | 32.345 | 2 |
| 2025-05-03T18:01:00 | 53.913324 | 7.882758 | 2.0 | 9.545 | 2 | 35.233 | 9.701 | 32.354 | 2 |
| 2025-05-03T18:02:00 | 53.910595 | 7.882319 | 2.0 | 9.562 | 2 | 35.530 | 9.725 | 32.636 | 2 |
| 2025-05-03T18:03:00 | 53.907817 | 7.881886 | 2.0 | 9.579 | 2 | 35.178 | 9.742 | 32.261 | 2 |
| 2025-05-03T18:04:00 | 53.905021 | 7.881475 | 2.0 | 9.596 | 2 | 35.700 | 9.760 | 32.777 | 2 |
| 2025-05-03T18:05:00 | 53.902279 | 7.881015 | 2.0 | 9.608 | 2 | 35.543 | 9.777 | 32.602 | 2 |
| 2025-05-03T18:06:00 | 53.899687 | 7.880689 | 2.0 | 9.610 | 2 | 35.711 | 9.787 | 32.764 | 2 |
| 2025-05-03T18:07:00 | 53.897215 | 7.880312 | 2.0 | 9.624 | 2 | 35.710 | 9.792 | 32.758 | 2 |
| 2025-05-03T18:08:00 | 53.894805 | 7.879989 | 2.0 | 9.639 | 2 | 35.505 | 9.803 | 32.540 | 2 |
| 2025-05-03T18:09:00 | 53.892436 | 7.879597 | 2.0 | 9.655 | 2 | 35.724 | 9.819 | 32.748 | 2 |
| 2025-05-03T18:10:00 | 53.890234 | 7.879100 | 2.0 | 9.673 | 2 | 35.579 | 9.835 | 32.586 | 2 |
| 2025-05-03T18:11:00 | 53.888291 | 7.878639 | 2.0 | 9.681 | 2 | 35.747 | 9.851 | 32.742 | 2 |
| 2025-05-03T18:12:00 | 53.886514 | 7.878388 | 2.0 | 9.696 | 2 | 35.601 | 9.860 | 32.586 | 2 |
| 2025-05-03T18:13:00 | 53.884810 | 7.878175 | 2.0 | 9.703 | 2 | 35.763 | 9.873 | 32.739 | 2 |
| 2025-05-03T18:14:00 | 53.883151 | 7.877825 | 2.0 | 9.705 | 2 | 35.767 | 9.879 | 32.737 | 2 |
| 2025-05-03T18:15:00 | 53.881507 | 7.877484 | 2.0 | 9.706 | 2 | 35.604 | 9.881 | 32.570 | 2 |
| 2025-05-03T18:16:00 | 53.879793 | 7.877214 | 2.0 | 9.705 | 2 | 35.435 | 9.880 | 32.399 | 2 |
| 2025-05-03T18:17:00 | 53.877706 | 7.877026 | 2.0 | 9.706 | 2 | 35.446 | 9.881 | 32.409 | 2 |
| 2025-05-03T18:18:00 | 53.875200 | 7.876686 | 2.0 | 9.713 | 2 | 35.759 | 9.885 | 32.724 | 2 |
| 2025-05-03T18:19:00 | 53.872487 | 7.876105 | 2.0 | 9.732 | 2 | 35.684 | 9.894 | 32.639 | 2 |
| 2025-05-03T18:20:00 | 53.869683 | 7.875662 | 2.0 | 9.735 | 2 | 35.531 | 9.906 | 32.473 | 2 |
| 2025-05-04T18:44:00 | 53.811344 | 7.961139 | 2.0 | 11.288 | 2 | 37.039 | 11.628 | 32.445 | 2 |
| 2025-05-04T18:45:00 | 53.812750 | 7.956247 | 2.0 | 11.222 | 2 | 36.058 | 11.510 | 31.591 | 2 |
| 2025-05-04T18:46:00 | 53.814262 | 7.951002 | 2.0 | 11.163 | 2 | 36.671 | 11.425 | 32.263 | 2 |
| 2025-05-04T18:47:00 | 53.815835 | 7.945819 | 2.0 | 11.103 | 2 | 36.646 | 11.358 | 32.297 | 2 |
| 2025-05-04T18:48:00 | 53.817399 | 7.940549 | 2.0 | 11.073 | 2 | 36.722 | 11.297 | 32.425 | 2 |
| 2025-05-04T18:49:00 | 53.818987 | 7.935391 | 2.0 | 11.047 | 2 | 36.691 | 11.263 | 32.424 | 2 |
| 2025-05-04T18:50:00 | 53.820446 | 7.930358 | 2.0 | 11.017 | 2 | 36.658 | 11.230 | 32.421 | 2 |
| 2025-05-04T18:51:00 | 53.821891 | 7.925496 | 2.0 | 11.022 | 2 | 36.628 | 11.203 | 32.415 | 2 |
| 2025-05-04T18:52:00 | 53.823346 | 7.920660 | 2.0 | 11.067 | 2 | 36.615 | 11.208 | 32.398 | 2 |
| 2025-05-04T18:53:00 | 53.824770 | 7.915746 | 2.0 | 11.110 | 2 | 36.533 | 11.253 | 32.278 | 2 |
| 2025-05-04T18:54:00 | 53.826176 | 7.910673 | 2.0 | 11.123 | 2 | 36.613 | 11.286 | 32.328 | 2 |
| 2025-05-04T18:55:00 | 53.827654 | 7.905628 | 2.0 | 11.113 | 2 | 36.638 | 11.305 | 32.336 | 2 |
| 2025-05-04T18:56:00 | 53.829086 | 7.900643 | 2.0 | 11.035 | 2 | 36.632 | 11.280 | 32.352 | 2 |
| 2025-05-04T18:57:00 | 53.830509 | 7.895699 | 2.0 | 10.928 | 2 | 36.587 | 11.201 | 32.377 | 2 |
| 2025-05-04T18:58:00 | 53.831936 | 7.890890 | 2.0 | 10.909 | 2 | 36.524 | 11.105 | 32.399 | 2 |
| 2025-05-04T18:59:00 | 53.833416 | 7.886169 | 2.0 | 10.994 | 2 | 36.506 | 11.098 | 32.388 | 2 |
| 2025-05-04T19:00:00 | 53.835890 | 7.882876 | 2.0 | 11.130 | 2 | 36.560 | 11.201 | 32.350 | 2 |
| 2025-05-04T19:01:00 | 53.838867 | 7.881906 | 2.0 | 11.123 | 2 | 36.641 | 11.327 | 32.319 | 2 |
| 2025-05-04T19:02:00 | 53.841868 | 7.882127 | 2.0 | 10.496 | 2 | 36.435 | 11.242 | 32.191 | 2 |
| 2025-05-04T19:03:00 | 53.844886 | 7.882307 | 2.0 | 10.350 | 2 | 36.092 | 10.670 | 32.355 | 2 |
| 2025-05-04T19:04:00 | 53.847841 | 7.882556 | 2.0 | 10.231 | 2 | 36.156 | 10.526 | 32.547 | 2 |
| 2025-05-04T19:05:00 | 53.850844 | 7.882674 | 2.0 | 10.213 | 2 | 35.718 | 10.406 | 32.215 | 2 |
| 2025-05-04T19:06:00 | 53.853783 | 7.882767 | 2.0 | 10.359 | 2 | 36.022 | 10.426 | 32.502 | 2 |
| 2025-05-04T19:07:00 | 53.856596 | 7.882903 | 2.0 | 10.352 | 2 | 36.153 | 10.542 | 32.530 | 2 |
| 2025-05-04T19:08:00 | 53.859518 | 7.882709 | 2.0 | 10.208 | 2 | 35.756 | 10.514 | 32.158 | 2 |
| 2025-05-04T19:09:00 | 53.862432 | 7.882526 | 2.0 | 10.109 | 2 | 35.955 | 10.371 | 32.484 | 2 |
| 2025-05-04T19:10:00 | 53.865305 | 7.882558 | 2.0 | 10.098 | 2 | 35.661 | 10.293 | 32.258 | 2 |
| 2025-05-04T19:11:00 | 53.868207 | 7.882633 | 2.0 | 10.020 | 2 | 35.841 | 10.280 | 32.451 | 2 |
| 2025-05-04T19:12:00 | 53.871148 | 7.882743 | 2.0 | 9.828 | 2 | 35.710 | 10.162 | 32.425 | 2 |
| 2025-05-04T19:13:00 | 53.874066 | 7.882699 | 2.0 | 9.807 | 2 | 35.611 | 10.021 | 32.451 | 2 |
| 2025-05-04T19:14:00 | 53.876943 | 7.882679 | 2.0 | 9.790 | 2 | 35.422 | 9.992 | 32.285 | 2 |
| 2025-05-04T19:15:00 | 53.879776 | 7.882672 | 2.0 | 9.778 | 2 | 35.548 | 9.972 | 32.431 | 2 |
| 2025-05-04T19:16:00 | 53.882662 | 7.882753 | 2.0 | 9.767 | 2 | 35.545 | 9.959 | 32.440 | 2 |
| 2025-05-04T19:17:00 | 53.885528 | 7.882769 | 2.0 | 9.759 | 2 | 35.430 | 9.948 | 32.333 | 2 |
| 2025-05-04T19:18:00 | 53.888427 | 7.882856 | 2.0 | 9.752 | 2 | 35.565 | 9.940 | 32.477 | 2 |
| 2025-05-04T19:19:00 | 53.891387 | 7.882885 | 2.0 | 9.748 | 2 | 35.335 | 9.933 | 32.250 | 2 |
| 2025-05-04T19:20:00 | 53.894326 | 7.882841 | 2.0 | 9.744 | 2 | 35.387 | 9.929 | 32.306 | 2 |
| 2025-05-04T19:21:00 | 53.897298 | 7.882900 | 2.0 | 9.743 | 2 | 35.463 | 9.925 | 32.387 | 2 |
| 2025-05-04T19:22:00 | 53.900268 | 7.882906 | 2.0 | 9.748 | 2 | 35.501 | 9.926 | 32.425 | 2 |
| 2025-05-04T19:23:00 | 53.903211 | 7.882882 | 2.0 | 9.750 | 2 | 35.728 | 9.929 | 32.652 | 2 |
| 2025-05-04T19:24:00 | 53.906178 | 7.882862 | 2.0 | 9.758 | 2 | 35.559 | 9.932 | 32.478 | 2 |
| 2025-05-04T19:25:00 | 53.909067 | 7.882859 | 2.0 | 9.764 | 2 | 35.746 | 9.938 | 32.663 | 2 |
| 2025-05-04T19:26:00 | 53.911992 | 7.882922 | 2.0 | 9.772 | 2 | 35.512 | 9.944 | 32.420 | 2 |
| 2025-05-04T19:27:00 | 53.914938 | 7.883007 | 2.0 | 9.779 | 2 | 35.556 | 9.953 | 32.456 | 2 |
| 2025-05-04T19:28:00 | 53.917940 | 7.882949 | 2.0 | 9.789 | 2 | 35.593 | 9.959 | 32.488 | 2 |
| 2025-05-04T19:29:00 | 53.920944 | 7.883055 | 2.0 | 9.799 | 2 | 35.671 | 9.969 | 32.558 | 2 |
| 2025-05-04T19:30:00 | 53.923908 | 7.883093 | 2.0 | 9.806 | 2 | 35.703 | 9.978 | 32.583 | 2 |
| 2025-05-04T19:31:00 | 53.926872 | 7.883125 | 2.0 | 9.807 | 2 | 35.654 | 9.984 | 32.528 | 2 |
| 2025-05-04T19:32:00 | 53.929744 | 7.883472 | 2.0 | 9.800 | 2 | 35.736 | 9.983 | 32.612 | 2 |
| 2025-05-04T19:33:00 | 53.932638 | 7.884103 | 2.0 | 9.755 | 2 | 35.547 | 9.974 | 32.428 | 2 |
| 2025-05-04T19:34:00 | 53.935552 | 7.884719 | 2.0 | 9.744 | 2 | 35.636 | 9.934 | 32.554 | 2 |
| 2025-05-04T19:35:00 | 53.938479 | 7.885559 | 2.0 | 9.735 | 2 | 35.586 | 9.922 | 32.515 | 2 |
| 2025-05-04T19:36:00 | 53.941423 | 7.886385 | 2.0 | 9.725 | 2 | 35.528 | 9.914 | 32.463 | 2 |
| 2025-05-04T19:37:00 | 53.944361 | 7.887111 | 2.0 | 9.680 | 2 | 35.319 | 9.898 | 32.265 | 2 |
| 2025-05-04T19:38:00 | 53.947241 | 7.887857 | 2.0 | 9.655 | 2 | 35.441 | 9.854 | 32.428 | 2 |
| 2025-05-04T19:39:00 | 53.950111 | 7.888509 | 2.0 | 9.627 | 2 | 35.406 | 9.832 | 32.413 | 2 |
| 2025-05-04T19:40:00 | 53.952966 | 7.889198 | 2.0 | 9.591 | 2 | 35.462 | 9.798 | 32.500 | 2 |
| 2025-05-04T19:41:00 | 53.955762 | 7.889880 | 2.0 | 9.655 | 2 | 35.475 | 9.787 | 32.523 | 2 |
| 2025-05-04T19:42:00 | 53.958528 | 7.890414 | 2.0 | 9.639 | 2 | 35.490 | 9.828 | 32.502 | 2 |
| 2025-05-04T19:43:00 | 53.961322 | 7.891121 | 2.0 | 9.682 | 2 | 35.446 | 9.818 | 32.466 | 2 |
| 2025-05-04T19:44:00 | 53.964159 | 7.891834 | 2.0 | 9.916 | 2 | 35.416 | 9.924 | 32.340 | 2 |
| 2025-05-04T19:45:00 | 53.966950 | 7.892604 | 2.0 | 9.938 | 2 | 35.397 | 10.081 | 32.181 | 2 |
| 2025-05-04T19:46:00 | 53.969770 | 7.893314 | 2.0 | 9.950 | 2 | 35.255 | 10.112 | 32.010 | 2 |
| 2025-05-04T19:47:00 | 53.972600 | 7.894039 | 2.0 | 9.968 | 2 | 35.356 | 10.125 | 32.100 | 2 |
| 2025-05-04T19:48:00 | 53.975376 | 7.894751 | 2.0 | 9.982 | 2 | 35.352 | 10.144 | 32.079 | 2 |
| 2025-05-04T19:49:00 | 53.978146 | 7.895477 | 2.0 | 9.985 | 2 | 35.367 | 10.158 | 32.082 | 2 |
| 2025-05-04T19:50:00 | 53.980940 | 7.896226 | 2.0 | 9.983 | 2 | 35.363 | 10.158 | 32.078 | 2 |
| 2025-05-04T19:51:00 | 53.983749 | 7.896852 | 2.0 | 9.995 | 2 | 35.358 | 10.159 | 32.072 | 2 |
| 2025-05-04T19:52:00 | 53.986585 | 7.897521 | 2.0 | 10.020 | 2 | 35.334 | 10.173 | 32.036 | 2 |
| 2025-05-04T19:53:00 | 53.989427 | 7.898280 | 2.0 | 10.041 | 2 | 35.291 | 10.197 | 31.971 | 2 |
| 2025-05-04T19:54:00 | 53.992280 | 7.898967 | 2.0 | 10.052 | 2 | 35.269 | 10.215 | 31.933 | 2 |
| 2025-05-04T19:55:00 | 53.995130 | 7.899689 | 2.0 | 10.072 | 2 | 35.267 | 10.227 | 31.921 | 2 |
| 2025-05-04T19:56:00 | 53.997959 | 7.900360 | 2.0 | 10.084 | 2 | 35.254 | 10.246 | 31.891 | 2 |
| 2025-05-04T19:57:00 | 54.000785 | 7.901077 | 2.0 | 10.091 | 2 | 35.247 | 10.259 | 31.872 | 2 |
| 2025-05-04T19:58:00 | 54.003628 | 7.901797 | 2.0 | 10.095 | 2 | 35.236 | 10.266 | 31.855 | 2 |
| 2025-05-04T19:59:00 | 54.006450 | 7.902474 | 2.0 | 10.092 | 2 | 35.200 | 10.269 | 31.816 | 2 |
| 2025-05-04T20:00:00 | 54.009276 | 7.903134 | 2.0 | 10.087 | 2 | 35.192 | 10.266 | 31.811 | 2 |
| 2025-05-04T20:01:00 | 54.012128 | 7.903867 | 2.0 | 10.088 | 2 | 35.139 | 10.260 | 31.763 | 2 |
| 2025-05-04T20:02:00 | 54.014983 | 7.904607 | 2.0 | 10.088 | 2 | 35.105 | 10.262 | 31.727 | 2 |
| 2025-05-04T20:03:00 | 54.017847 | 7.905297 | 2.0 | 10.094 | 2 | 35.095 | 10.262 | 31.717 | 2 |
| 2025-05-04T20:04:00 | 54.020712 | 7.906036 | 2.0 | 10.095 | 2 | 35.084 | 10.268 | 31.701 | 2 |
| 2025-05-04T20:05:00 | 54.023561 | 7.906782 | 2.0 | 10.092 | 2 | 35.090 | 10.268 | 31.707 | 2 |
| 2025-05-04T20:06:00 | 54.026425 | 7.907449 | 2.0 | 10.094 | 2 | 35.069 | 10.266 | 31.688 | 2 |
| 2025-05-04T20:07:00 | 54.029266 | 7.908194 | 2.0 | 10.089 | 2 | 35.057 | 10.266 | 31.676 | 2 |
| 2025-05-04T20:08:00 | 54.032131 | 7.908896 | 2.0 | 10.091 | 2 | 35.046 | 10.263 | 31.667 | 2 |
| 2025-05-04T20:09:00 | 54.034999 | 7.909600 | 2.0 | 10.098 | 2 | 35.031 | 10.267 | 31.649 | 2 |
| 2025-05-04T20:10:00 | 54.037884 | 7.910291 | 2.0 | 10.099 | 2 | 35.026 | 10.272 | 31.639 | 2 |
| 2025-05-04T20:11:00 | 54.040762 | 7.910937 | 2.0 | 10.095 | 2 | 35.019 | 10.272 | 31.632 | 2 |
| 2025-05-04T20:12:00 | 54.043631 | 7.911697 | 2.0 | 10.117 | 2 | 35.018 | 10.270 | 31.633 | 2 |
| 2025-05-04T20:13:00 | 54.046447 | 7.912423 | 2.0 | 10.145 | 2 | 35.020 | 10.297 | 31.611 | 2 |
| 2025-05-04T20:14:00 | 54.049224 | 7.913090 | 2.0 | 10.153 | 2 | 35.013 | 10.319 | 31.585 | 2 |
| 2025-05-04T20:15:00 | 54.052055 | 7.913779 | 2.0 | 10.167 | 2 | 35.003 | 10.326 | 31.569 | 2 |
| 2025-05-04T20:16:00 | 54.054926 | 7.914462 | 2.0 | 10.234 | 2 | 34.998 | 10.355 | 31.539 | 2 |
| 2025-05-04T20:17:00 | 54.057726 | 7.915195 | 2.0 | 10.248 | 2 | 35.011 | 10.403 | 31.510 | 2 |
| 2025-05-04T20:18:00 | 54.060521 | 7.915901 | 2.0 | 10.252 | 2 | 35.020 | 10.417 | 31.507 | 2 |
| 2025-05-04T20:19:00 | 54.063344 | 7.916601 | 2.0 | 10.278 | 2 | 35.024 | 10.430 | 31.500 | 2 |
| 2025-05-04T20:20:00 | 54.066186 | 7.917334 | 2.0 | 10.283 | 2 | 35.034 | 10.450 | 31.493 | 2 |
| 2025-05-04T20:21:00 | 54.069002 | 7.918032 | 2.0 | 10.299 | 2 | 35.034 | 10.455 | 31.488 | 2 |
| 2025-05-04T20:22:00 | 54.071829 | 7.918673 | 2.0 | 10.358 | 2 | 35.043 | 10.481 | 31.475 | 2 |
| 2025-05-04T20:23:00 | 54.074655 | 7.919427 | 2.0 | 10.388 | 2 | 35.065 | 10.529 | 31.455 | 2 |
| 2025-05-04T20:24:00 | 54.077481 | 7.920215 | 2.0 | 10.396 | 2 | 35.077 | 10.557 | 31.443 | 2 |
| 2025-05-04T20:25:00 | 54.080314 | 7.920876 | 2.0 | 10.402 | 2 | 35.080 | 10.567 | 31.437 | 2 |
| 2025-05-04T20:26:00 | 54.083134 | 7.921500 | 2.0 | 10.397 | 2 | 35.082 | 10.572 | 31.435 | 2 |
| 2025-05-04T20:27:00 | 54.085921 | 7.922118 | 2.0 | 10.387 | 2 | 34.980 | 10.564 | 31.341 | 2 |
| 2025-05-04T20:28:00 | 54.088663 | 7.922874 | 2.0 | 10.410 | 2 | 34.750 | 10.561 | 31.114 | 2 |
| 2025-05-04T20:29:00 | 54.091436 | 7.923617 | 2.0 | 10.408 | 2 | 34.866 | 10.581 | 31.213 | 2 |
| 2025-05-04T20:30:00 | 54.094218 | 7.924329 | 2.0 | 10.408 | 2 | 35.093 | 10.579 | 31.440 | 2 |
| 2025-05-04T20:31:00 | 54.097007 | 7.925013 | 2.0 | 10.409 | 2 | 34.443 | 10.579 | 30.794 | 2 |
| 2025-05-04T20:32:00 | 54.099783 | 7.925663 | 2.0 | 10.386 | 2 | 34.849 | 10.579 | 31.197 | 2 |
| 2025-05-04T20:33:00 | 54.102573 | 7.926341 | 2.0 | 10.338 | 2 | 35.012 | 10.552 | 31.383 | 2 |
| 2025-05-04T20:34:00 | 54.105358 | 7.927059 | 2.0 | 10.290 | 2 | 34.608 | 10.502 | 31.024 | 2 |
| 2025-05-04T20:35:00 | 54.108143 | 7.927804 | 2.0 | 10.278 | 2 | 34.574 | 10.465 | 31.021 | 2 |
| 2025-05-04T20:36:00 | 54.110912 | 7.928492 | 2.0 | 10.301 | 2 | 34.478 | 10.455 | 30.934 | 2 |
| 2025-05-04T20:37:00 | 54.113683 | 7.929086 | 2.0 | 10.329 | 2 | 35.039 | 10.479 | 31.473 | 2 |
| 2025-05-04T20:38:00 | 54.116460 | 7.929742 | 2.0 | 10.349 | 2 | 35.064 | 10.506 | 31.474 | 2 |
| 2025-05-04T20:39:00 | 54.119222 | 7.930467 | 2.0 | 10.336 | 2 | 34.750 | 10.519 | 31.150 | 2 |
| 2025-05-04T20:40:00 | 54.121980 | 7.931146 | 2.0 | 10.310 | 2 | 35.091 | 10.505 | 31.502 | 2 |
| 2025-05-04T20:41:00 | 54.124764 | 7.931862 | 2.0 | 10.275 | 2 | 35.028 | 10.480 | 31.461 | 2 |
| 2025-05-04T20:42:00 | 54.127552 | 7.932563 | 2.0 | 10.206 | 2 | 35.075 | 10.440 | 31.542 | 2 |
| 2025-05-04T20:43:00 | 54.130344 | 7.933148 | 2.0 | 10.195 | 2 | 34.991 | 10.382 | 31.509 | 2 |
| 2025-05-04T20:44:00 | 54.133128 | 7.933872 | 2.0 | 10.184 | 2 | 35.021 | 10.370 | 31.549 | 2 |
| 2025-05-04T20:45:00 | 54.135903 | 7.934625 | 2.0 | 10.172 | 2 | 34.798 | 10.357 | 31.337 | 2 |
| 2025-05-04T20:46:00 | 54.138674 | 7.935385 | 2.0 | 10.160 | 2 | 34.630 | 10.344 | 31.181 | 2 |
| 2025-05-04T20:47:00 | 54.141452 | 7.936043 | 2.0 | 10.210 | 2 | 34.745 | 10.336 | 31.302 | 2 |
| 2025-05-04T20:48:00 | 54.144222 | 7.936735 | 2.0 | 10.358 | 2 | 34.793 | 10.413 | 31.284 | 2 |
| 2025-05-04T20:49:00 | 54.146953 | 7.937488 | 2.0 | 10.404 | 2 | 34.849 | 10.527 | 31.242 | 2 |
| 2025-05-04T20:50:00 | 54.149701 | 7.938130 | 2.0 | 10.430 | 2 | 34.845 | 10.579 | 31.193 | 2 |
| 2025-05-04T20:51:00 | 54.152460 | 7.938830 | 2.0 | 10.439 | 2 | 34.738 | 10.601 | 31.068 | 2 |
| 2025-05-04T20:52:00 | 54.155241 | 7.939585 | 2.0 | 10.432 | 2 | 34.409 | 10.604 | 30.740 | 2 |
| 2025-05-04T20:53:00 | 54.158050 | 7.940231 | 2.0 | 10.419 | 2 | 34.817 | 10.598 | 31.149 | 2 |
| 2025-05-04T20:54:00 | 54.160882 | 7.940949 | 2.0 | 10.392 | 2 | 34.707 | 10.591 | 31.046 | 2 |
| 2025-05-04T20:55:00 | 54.163724 | 7.941697 | 2.0 | 10.330 | 2 | 34.588 | 10.555 | 30.959 | 2 |
| 2025-05-04T20:56:00 | 54.166562 | 7.942453 | 2.0 | 10.315 | 2 | 34.565 | 10.502 | 30.981 | 2 |
| 2025-05-04T20:57:00 | 54.169393 | 7.943221 | 2.0 | 10.256 | 2 | 34.875 | 10.482 | 31.306 | 2 |
| 2025-05-04T20:58:00 | 54.172260 | 7.943746 | 2.0 | 10.247 | 2 | 34.908 | 10.425 | 31.388 | 2 |
| 2025-05-04T20:59:00 | 54.175101 | 7.944402 | 2.0 | 10.272 | 2 | 34.919 | 10.426 | 31.399 | 2 |
| 2025-05-04T21:00:00 | 54.177900 | 7.945209 | 2.0 | 10.244 | 2 | 34.798 | 10.426 | 31.278 | 2 |
| 2025-05-04T21:01:00 | 54.180729 | 7.945903 | 2.0 | 10.261 | 2 | 34.971 | 10.425 | 31.451 | 2 |
| 2025-05-04T21:02:00 | 54.183552 | 7.946671 | 2.0 | 10.266 | 2 | 35.030 | 10.415 | 31.519 | 2 |
| 2025-05-04T21:03:00 | 54.186406 | 7.947332 | 2.0 | 10.259 | 2 | 35.105 | 10.435 | 31.577 | 2 |
| 2025-05-04T21:04:00 | 54.189268 | 7.948066 | 2.0 | 10.250 | 2 | 34.986 | 10.431 | 31.461 | 2 |
| 2025-05-04T21:05:00 | 54.192143 | 7.948780 | 2.0 | 10.237 | 2 | 34.963 | 10.420 | 31.448 | 2 |
| 2025-05-04T21:06:00 | 54.195020 | 7.949437 | 2.0 | 10.237 | 2 | 35.096 | 10.411 | 31.588 | 2 |
| 2025-05-04T21:07:00 | 54.197904 | 7.950103 | 2.0 | 10.231 | 2 | 34.992 | 10.408 | 31.487 | 2 |
| 2025-05-04T21:08:00 | 54.200794 | 7.950869 | 2.0 | 10.231 | 2 | 34.906 | 10.405 | 31.404 | 2 |
| 2025-05-04T21:09:00 | 54.203724 | 7.951561 | 2.0 | 10.196 | 2 | 34.839 | 10.397 | 31.344 | 2 |
| 2025-05-04T21:10:00 | 54.206643 | 7.952231 | 2.0 | 10.205 | 2 | 34.841 | 10.370 | 31.369 | 2 |
| 2025-05-04T21:11:00 | 54.209538 | 7.952966 | 2.0 | 10.201 | 2 | 34.804 | 10.378 | 31.325 | 2 |
| 2025-05-04T21:12:00 | 54.212480 | 7.953702 | 2.0 | 10.198 | 2 | 34.684 | 10.374 | 31.209 | 2 |
| 2025-05-04T21:13:00 | 54.215421 | 7.954453 | 2.0 | 10.182 | 2 | 34.703 | 10.371 | 31.230 | 2 |
| 2025-05-04T21:14:00 | 54.218364 | 7.955187 | 2.0 | 10.167 | 2 | 34.684 | 10.356 | 31.224 | 2 |
| 2025-05-04T21:15:00 | 54.221326 | 7.955864 | 2.0 | 10.157 | 2 | 34.697 | 10.339 | 31.252 | 2 |
| 2025-05-04T21:16:00 | 54.224272 | 7.956602 | 2.0 | 10.001 | 2 | 34.685 | 10.314 | 31.261 | 2 |
| 2025-05-04T21:17:00 | 54.227102 | 7.956124 | 2.0 | 9.919 | 2 | 34.966 | 10.144 | 31.691 | 2 |
| 2025-05-04T21:18:00 | 54.230002 | 7.955658 | 2.0 | 9.944 | 2 | 34.914 | 10.112 | 31.666 | 2 |
| 2025-05-04T21:19:00 | 54.232977 | 7.955185 | 2.0 | 9.998 | 2 | 34.884 | 10.136 | 31.615 | 2 |
| 2025-05-04T21:20:00 | 54.235967 | 7.954665 | 2.0 | 10.094 | 2 | 34.860 | 10.183 | 31.550 | 2 |
| 2025-05-04T21:21:00 | 54.238929 | 7.954138 | 2.0 | 10.140 | 2 | 34.672 | 10.268 | 31.288 | 2 |
| 2025-05-04T21:22:00 | 54.241897 | 7.953604 | 2.0 | 10.144 | 2 | 34.441 | 10.302 | 31.028 | 2 |
| 2025-05-04T21:23:00 | 54.244844 | 7.953096 | 2.0 | 10.210 | 2 | 34.606 | 10.322 | 31.175 | 2 |
| 2025-05-04T21:24:00 | 54.247765 | 7.952548 | 2.0 | 10.247 | 2 | 34.257 | 10.382 | 30.776 | 2 |
| 2025-05-04T21:25:00 | 54.250725 | 7.952095 | 2.0 | 10.351 | 2 | 34.389 | 10.435 | 30.863 | 2 |
| 2025-05-04T21:26:00 | 54.253702 | 7.951547 | 2.0 | 10.451 | 2 | 34.485 | 10.530 | 30.878 | 2 |
| 2025-05-04T21:27:00 | 54.256686 | 7.951010 | 2.0 | 10.541 | 2 | 34.316 | 10.629 | 30.626 | 2 |
| 2025-05-04T21:28:00 | 54.259666 | 7.950458 | 2.0 | 10.579 | 2 | 34.515 | 10.708 | 30.757 | 2 |
| 2025-05-04T21:29:00 | 54.262619 | 7.949906 | 2.0 | 10.615 | 2 | 34.363 | 10.751 | 30.571 | 2 |
| 2025-05-04T21:30:00 | 54.265588 | 7.949398 | 2.0 | 10.648 | 2 | 34.464 | 10.789 | 30.639 | 2 |
| 2025-05-04T21:31:00 | 54.268542 | 7.948903 | 2.0 | 10.661 | 2 | 34.288 | 10.817 | 30.442 | 2 |
| 2025-05-04T21:32:00 | 54.271496 | 7.948339 | 2.0 | 10.673 | 2 | 34.449 | 10.831 | 30.589 | 2 |
| 2025-05-04T21:33:00 | 54.274459 | 7.947786 | 2.0 | 10.682 | 2 | 34.289 | 10.844 | 30.420 | 2 |
| 2025-05-04T21:34:00 | 54.277464 | 7.947281 | 2.0 | 10.680 | 2 | 34.399 | 10.851 | 30.523 | 2 |
| 2025-05-04T21:35:00 | 54.280494 | 7.946833 | 2.0 | 10.670 | 2 | 34.413 | 10.850 | 30.538 | 2 |
| 2025-05-04T21:36:00 | 54.283516 | 7.946229 | 2.0 | 10.650 | 2 | 34.155 | 10.838 | 30.294 | 2 |
| 2025-05-04T21:37:00 | 54.286545 | 7.945596 | 2.0 | 10.614 | 2 | 34.357 | 10.815 | 30.512 | 2 |
| 2025-05-04T21:38:00 | 54.289550 | 7.945052 | 2.0 | 10.675 | 2 | 34.447 | 10.793 | 30.619 | 2 |
| 2025-05-04T21:39:00 | 54.292520 | 7.944423 | 2.0 | 10.698 | 2 | 34.401 | 10.844 | 30.531 | 2 |
| 2025-05-04T21:40:00 | 54.295508 | 7.943958 | 2.0 | 10.691 | 2 | 34.550 | 10.866 | 30.659 | 2 |
| 2025-05-04T21:41:00 | 54.298487 | 7.943499 | 2.0 | 10.687 | 2 | 34.476 | 10.860 | 30.591 | 2 |
| 2025-05-04T21:42:00 | 54.301488 | 7.942985 | 2.0 | 10.691 | 2 | 34.571 | 10.856 | 30.688 | 2 |
| 2025-05-04T21:43:00 | 54.304499 | 7.942485 | 2.0 | 10.743 | 2 | 34.432 | 10.871 | 30.539 | 2 |
| 2025-05-04T21:44:00 | 54.307492 | 7.941963 | 2.0 | 10.800 | 2 | 34.353 | 10.918 | 30.422 | 2 |
| 2025-05-04T21:45:00 | 54.310406 | 7.941416 | 2.0 | 10.898 | 2 | 34.425 | 10.979 | 30.442 | 2 |
| 2025-05-04T21:46:00 | 54.313355 | 7.940914 | 2.0 | 10.968 | 2 | 34.572 | 11.071 | 30.510 | 2 |
| 2025-05-04T21:47:00 | 54.316326 | 7.940404 | 2.0 | 10.999 | 2 | 34.498 | 11.136 | 30.384 | 2 |
| 2025-05-04T21:48:00 | 54.319241 | 7.939852 | 2.0 | 11.007 | 2 | 34.593 | 11.165 | 30.453 | 2 |
| 2025-05-04T21:49:00 | 54.322148 | 7.939323 | 2.0 | 11.028 | 2 | 34.694 | 11.177 | 30.541 | 2 |
| 2025-05-04T21:50:00 | 54.325101 | 7.938751 | 2.0 | 11.069 | 2 | 34.651 | 11.203 | 30.478 | 2 |
| 2025-05-04T21:51:00 | 54.328044 | 7.938191 | 2.0 | 11.087 | 2 | 34.716 | 11.237 | 30.513 | 2 |
| 2025-05-04T21:52:00 | 54.330947 | 7.937680 | 2.0 | 11.097 | 2 | 34.673 | 11.253 | 30.458 | 2 |
| 2025-05-04T21:53:00 | 54.333843 | 7.937138 | 2.0 | 11.100 | 2 | 34.647 | 11.264 | 30.423 | 2 |
| 2025-05-04T21:54:00 | 54.336718 | 7.936698 | 2.0 | 11.096 | 2 | 34.705 | 11.268 | 30.477 | 2 |
| 2025-05-04T21:55:00 | 54.339607 | 7.936197 | 2.0 | 11.084 | 2 | 34.718 | 11.261 | 30.495 | 2 |
| 2025-05-04T21:56:00 | 54.342529 | 7.935656 | 2.0 | 11.072 | 2 | 34.702 | 11.248 | 30.490 | 2 |
| 2025-05-04T21:57:00 | 54.345435 | 7.935121 | 2.0 | 11.095 | 2 | 34.752 | 11.247 | 30.540 | 2 |
| 2025-05-04T21:58:00 | 54.348340 | 7.934589 | 2.0 | 11.097 | 2 | 34.701 | 11.261 | 30.479 | 2 |
| 2025-05-04T21:59:00 | 54.351211 | 7.934134 | 2.0 | 11.097 | 2 | 34.780 | 11.262 | 30.555 | 2 |
| 2025-05-04T22:00:00 | 54.354092 | 7.933648 | 2.0 | 11.075 | 2 | 34.773 | 11.264 | 30.546 | 2 |
| 2025-05-04T22:01:00 | 54.356943 | 7.933164 | 2.0 | 11.062 | 2 | 34.763 | 11.242 | 30.555 | 2 |
| 2025-05-04T22:02:00 | 54.359746 | 7.932619 | 2.0 | 10.955 | 2 | 34.768 | 11.214 | 30.583 | 2 |
| 2025-05-04T22:03:00 | 54.362551 | 7.932104 | 2.0 | 10.882 | 2 | 34.814 | 11.119 | 30.707 | 2 |
| 2025-05-04T22:04:00 | 54.365387 | 7.931585 | 2.0 | 10.840 | 2 | 34.823 | 11.048 | 30.775 | 2 |
| 2025-05-04T22:05:00 | 54.368226 | 7.930991 | 2.0 | 10.804 | 2 | 34.838 | 11.010 | 30.822 | 2 |
| 2025-05-04T22:06:00 | 54.371013 | 7.930554 | 2.0 | 10.785 | 2 | 34.435 | 10.975 | 30.455 | 2 |
| 2025-05-04T22:07:00 | 54.373848 | 7.930048 | 2.0 | 10.787 | 2 | 34.613 | 10.956 | 30.646 | 2 |
| 2025-05-04T22:08:00 | 54.376691 | 7.929546 | 2.0 | 10.780 | 2 | 34.884 | 10.957 | 30.911 | 2 |
| 2025-05-04T22:09:00 | 54.379545 | 7.929061 | 2.0 | 10.798 | 2 | 34.379 | 10.948 | 30.423 | 2 |
| 2025-05-04T22:10:00 | 54.382407 | 7.928499 | 2.0 | 10.823 | 2 | 34.514 | 10.974 | 30.534 | 2 |
| 2025-05-04T22:11:00 | 54.385286 | 7.928068 | 2.0 | 10.842 | 2 | 34.820 | 10.997 | 30.815 | 2 |
| 2025-05-04T22:12:00 | 54.388171 | 7.927623 | 2.0 | 10.876 | 2 | 34.808 | 11.015 | 30.788 | 2 |
| 2025-05-04T22:13:00 | 54.391027 | 7.927040 | 2.0 | 10.939 | 2 | 34.772 | 11.058 | 30.717 | 2 |
| 2025-05-04T22:14:00 | 54.393881 | 7.926507 | 2.0 | 10.963 | 2 | 34.724 | 11.111 | 30.625 | 2 |
| 2025-05-04T22:15:00 | 54.396738 | 7.926002 | 2.0 | 10.994 | 2 | 34.647 | 11.132 | 30.533 | 2 |
| 2025-05-04T22:16:00 | 54.399607 | 7.925492 | 2.0 | 11.035 | 2 | 34.685 | 11.164 | 30.543 | 2 |
| 2025-05-04T22:17:00 | 54.402449 | 7.925002 | 2.0 | 11.063 | 2 | 34.657 | 11.205 | 30.482 | 2 |
| 2025-05-04T22:18:00 | 54.405288 | 7.924485 | 2.0 | 11.082 | 2 | 34.443 | 11.232 | 30.251 | 2 |
| 2025-05-04T22:19:00 | 54.408092 | 7.923910 | 2.0 | 11.082 | 2 | 34.615 | 11.248 | 30.406 | 2 |
| 2025-05-04T22:20:00 | 54.410930 | 7.923494 | 2.0 | 11.046 | 2 | 34.608 | 11.245 | 30.401 | 2 |
| 2025-05-04T22:21:00 | 54.413722 | 7.922967 | 2.0 | 11.015 | 2 | 34.267 | 11.207 | 30.100 | 2 |
| 2025-05-04T22:22:00 | 54.416534 | 7.922432 | 2.0 | 10.967 | 2 | 34.632 | 11.174 | 30.483 | 2 |
| 2025-05-04T22:23:00 | 54.419369 | 7.921948 | 2.0 | 10.899 | 2 | 34.494 | 11.125 | 30.389 | 2 |
| 2025-05-04T22:24:00 | 54.422141 | 7.921477 | 2.0 | 10.736 | 2 | 34.518 | 11.043 | 30.480 | 2 |
| 2025-05-04T22:25:00 | 54.424880 | 7.921188 | 2.0 | 10.673 | 2 | 34.481 | 10.905 | 30.559 | 2 |
| 2025-05-04T22:26:00 | 54.427611 | 7.920673 | 2.0 | 10.674 | 2 | 34.447 | 10.851 | 30.570 | 2 |
| 2025-05-04T22:27:00 | 54.430328 | 7.920051 | 2.0 | 10.678 | 2 | 34.800 | 10.850 | 30.919 | 2 |
| 2025-05-04T22:28:00 | 54.433029 | 7.919446 | 2.0 | 10.675 | 2 | 34.776 | 10.851 | 30.894 | 2 |
| 2025-05-04T22:29:00 | 54.435710 | 7.918882 | 2.0 | 10.676 | 2 | 34.797 | 10.847 | 30.918 | 2 |
| 2025-05-04T22:30:00 | 54.438420 | 7.918398 | 2.0 | 10.679 | 2 | 34.645 | 10.849 | 30.767 | 2 |
| 2025-05-04T22:31:00 | 54.441161 | 7.917998 | 2.0 | 10.676 | 2 | 34.778 | 10.850 | 30.897 | 2 |
| 2025-05-04T22:32:00 | 54.443877 | 7.917557 | 2.0 | 10.670 | 2 | 34.529 | 10.847 | 30.654 | 2 |
| 2025-05-04T22:33:00 | 54.446599 | 7.916947 | 2.0 | 10.662 | 2 | 34.739 | 10.841 | 30.866 | 2 |
| 2025-05-04T22:34:00 | 54.449353 | 7.916479 | 2.0 | 10.648 | 2 | 34.736 | 10.832 | 30.871 | 2 |
| 2025-05-04T22:35:00 | 54.452059 | 7.915996 | 2.0 | 10.639 | 2 | 34.497 | 10.819 | 30.646 | 2 |
| 2025-05-04T22:36:00 | 54.454708 | 7.915576 | 2.0 | 10.636 | 2 | 34.551 | 10.810 | 30.707 | 2 |
| 2025-05-04T22:37:00 | 54.457367 | 7.915097 | 2.0 | 10.633 | 2 | 34.602 | 10.807 | 30.760 | 2 |
| 2025-05-04T22:38:00 | 54.460020 | 7.914668 | 2.0 | 10.638 | 2 | 34.471 | 10.805 | 30.632 | 2 |
| 2025-05-04T22:39:00 | 54.462670 | 7.914146 | 2.0 | 10.632 | 2 | 34.628 | 10.809 | 30.784 | 2 |
| 2025-05-04T22:40:00 | 54.465308 | 7.913690 | 2.0 | 10.629 | 2 | 34.604 | 10.805 | 30.763 | 2 |
| 2025-05-04T22:41:00 | 54.467918 | 7.913204 | 2.0 | 10.630 | 2 | 34.446 | 10.800 | 30.612 | 2 |
| 2025-05-04T22:42:00 | 54.470548 | 7.912727 | 2.0 | 10.643 | 2 | 34.643 | 10.803 | 30.804 | 2 |
| 2025-05-04T22:43:00 | 54.473182 | 7.912263 | 2.0 | 10.656 | 2 | 34.497 | 10.816 | 30.649 | 2 |
| 2025-05-04T22:44:00 | 54.475867 | 7.911814 | 2.0 | 10.662 | 2 | 34.619 | 10.827 | 30.760 | 2 |
| 2025-05-04T22:45:00 | 54.478543 | 7.911365 | 2.0 | 10.662 | 2 | 34.598 | 10.832 | 30.735 | 2 |
| 2025-05-04T22:46:00 | 54.481223 | 7.910817 | 2.0 | 10.655 | 2 | 34.706 | 10.833 | 30.840 | 2 |
| 2025-05-04T22:47:00 | 54.483868 | 7.910324 | 2.0 | 10.612 | 2 | 34.583 | 10.822 | 30.728 | 2 |
| 2025-05-04T22:48:00 | 54.486515 | 7.909942 | 2.0 | 10.595 | 2 | 34.446 | 10.780 | 30.628 | 2 |
| 2025-05-04T22:49:00 | 54.489148 | 7.909458 | 2.0 | 10.601 | 2 | 34.553 | 10.768 | 30.744 | 2 |
| 2025-05-04T22:50:00 | 54.491765 | 7.908957 | 2.0 | 10.613 | 2 | 34.513 | 10.774 | 30.700 | 2 |
| 2025-05-04T22:51:00 | 54.494382 | 7.908484 | 2.0 | 10.628 | 2 | 34.642 | 10.786 | 30.817 | 2 |
| 2025-05-04T22:52:00 | 54.496982 | 7.907995 | 2.0 | 10.640 | 2 | 34.628 | 10.800 | 30.791 | 2 |
| 2025-05-04T22:53:00 | 54.499554 | 7.907465 | 2.0 | 10.650 | 2 | 34.705 | 10.811 | 30.858 | 2 |
| 2025-05-04T22:54:00 | 54.502187 | 7.906965 | 2.0 | 10.657 | 2 | 34.471 | 10.821 | 30.619 | 2 |
| 2025-05-04T22:55:00 | 54.504823 | 7.906539 | 2.0 | 10.661 | 2 | 34.851 | 10.828 | 30.988 | 2 |
| 2025-05-04T22:56:00 | 54.507483 | 7.906115 | 2.0 | 10.659 | 2 | 34.852 | 10.832 | 30.985 | 2 |
| 2025-05-04T22:57:00 | 54.510100 | 7.905690 | 2.0 | 10.650 | 2 | 34.799 | 10.828 | 30.936 | 2 |
| 2025-05-04T22:58:00 | 54.512768 | 7.905213 | 2.0 | 10.634 | 2 | 34.953 | 10.819 | 31.096 | 2 |
| 2025-05-04T22:59:00 | 54.515447 | 7.904698 | 2.0 | 10.611 | 2 | 34.787 | 10.801 | 30.947 | 2 |
| 2025-05-04T23:00:00 | 54.518098 | 7.904215 | 2.0 | 10.583 | 2 | 34.814 | 10.778 | 30.993 | 2 |
| 2025-05-04T23:01:00 | 54.520762 | 7.903770 | 2.0 | 10.563 | 2 | 34.796 | 10.753 | 30.997 | 2 |
| 2025-05-04T23:02:00 | 54.523391 | 7.903259 | 2.0 | 10.542 | 2 | 34.836 | 10.733 | 31.053 | 2 |
| 2025-05-04T23:03:00 | 54.526041 | 7.902836 | 2.0 | 10.515 | 2 | 34.716 | 10.710 | 30.954 | 2 |
| 2025-05-04T23:04:00 | 54.528652 | 7.902377 | 2.0 | 10.491 | 2 | 34.726 | 10.685 | 30.985 | 2 |
| 2025-05-04T23:05:00 | 54.531267 | 7.901854 | 2.0 | 10.461 | 2 | 34.723 | 10.661 | 31.003 | 2 |
| 2025-05-04T23:06:00 | 54.533888 | 7.901329 | 2.0 | 10.434 | 2 | 34.625 | 10.630 | 30.932 | 2 |
| 2025-05-04T23:07:00 | 54.536495 | 7.900891 | 2.0 | 10.430 | 2 | 34.713 | 10.607 | 31.039 | 2 |
| 2025-05-04T23:08:00 | 54.539096 | 7.900406 | 2.0 | 10.456 | 2 | 34.689 | 10.608 | 31.014 | 2 |
| 2025-05-04T23:09:00 | 54.541700 | 7.899922 | 2.0 | 10.483 | 2 | 34.761 | 10.632 | 31.065 | 2 |
| 2025-05-04T23:10:00 | 54.544313 | 7.899482 | 2.0 | 10.472 | 2 | 34.806 | 10.653 | 31.092 | 2 |
| 2025-05-04T23:11:00 | 54.546946 | 7.899088 | 2.0 | 10.437 | 2 | 34.803 | 10.636 | 31.103 | 2 |
| 2025-05-04T23:12:00 | 54.549564 | 7.898700 | 2.0 | 10.437 | 2 | 34.792 | 10.608 | 31.116 | 2 |
| 2025-05-04T23:13:00 | 54.552193 | 7.898117 | 2.0 | 10.472 | 2 | 34.811 | 10.614 | 31.130 | 2 |
| 2025-05-04T23:14:00 | 54.554828 | 7.897594 | 2.0 | 10.511 | 2 | 34.841 | 10.648 | 31.131 | 2 |
| 2025-05-04T23:15:00 | 54.557460 | 7.897227 | 2.0 | 10.543 | 2 | 34.882 | 10.685 | 31.140 | 2 |
| 2025-05-04T23:16:00 | 54.560089 | 7.896610 | 2.0 | 10.653 | 2 | 34.893 | 10.725 | 31.117 | 2 |
| 2025-05-04T23:17:00 | 54.562710 | 7.896153 | 2.0 | 10.748 | 2 | 34.951 | 10.835 | 31.080 | 2 |
| 2025-05-04T23:18:00 | 54.565350 | 7.895752 | 2.0 | 10.773 | 2 | 34.987 | 10.917 | 31.046 | 2 |
| 2025-05-04T23:19:00 | 54.567959 | 7.895308 | 2.0 | 10.772 | 2 | 35.012 | 10.939 | 31.052 | 2 |
| 2025-05-04T23:20:00 | 54.570523 | 7.894785 | 2.0 | 10.795 | 2 | 35.005 | 10.942 | 31.043 | 2 |
| 2025-05-04T23:21:00 | 54.573097 | 7.894321 | 2.0 | 10.806 | 2 | 35.031 | 10.963 | 31.051 | 2 |
| 2025-05-04T23:22:00 | 54.575651 | 7.893772 | 2.0 | 10.807 | 2 | 35.057 | 10.973 | 31.068 | 2 |
| 2025-05-04T23:23:00 | 54.578236 | 7.893368 | 2.0 | 10.804 | 2 | 35.045 | 10.975 | 31.054 | 2 |
| 2025-05-04T23:24:00 | 54.580810 | 7.893032 | 2.0 | 10.799 | 2 | 35.062 | 10.972 | 31.074 | 2 |
| 2025-05-04T23:25:00 | 54.583367 | 7.892470 | 2.0 | 10.799 | 2 | 35.073 | 10.968 | 31.088 | 2 |
| 2025-05-04T23:26:00 | 54.585942 | 7.891946 | 2.0 | 10.783 | 2 | 35.076 | 10.965 | 31.093 | 2 |
| 2025-05-04T23:27:00 | 54.588530 | 7.891655 | 2.0 | 10.787 | 2 | 35.072 | 10.953 | 31.100 | 2 |
| 2025-05-04T23:28:00 | 54.591061 | 7.891159 | 2.0 | 10.802 | 2 | 35.045 | 10.959 | 31.068 | 2 |
| 2025-05-04T23:29:00 | 54.593563 | 7.890624 | 2.0 | 10.818 | 2 | 35.071 | 10.974 | 31.081 | 2 |
| 2025-05-04T23:30:00 | 54.596070 | 7.890186 | 2.0 | 10.826 | 2 | 35.066 | 10.988 | 31.064 | 2 |
| 2025-05-04T23:31:00 | 54.598587 | 7.889787 | 2.0 | 10.823 | 2 | 35.066 | 10.993 | 31.060 | 2 |
| 2025-05-04T23:32:00 | 54.601097 | 7.889317 | 2.0 | 10.837 | 2 | 35.058 | 10.995 | 31.050 | 2 |
| 2025-05-04T23:33:00 | 54.603582 | 7.888898 | 2.0 | 10.846 | 2 | 35.058 | 11.006 | 31.041 | 2 |
| 2025-05-04T23:34:00 | 54.606084 | 7.888493 | 2.0 | 10.855 | 2 | 35.054 | 11.015 | 31.030 | 2 |
| 2025-05-04T23:35:00 | 54.608606 | 7.888030 | 2.0 | 10.867 | 2 | 35.045 | 11.026 | 31.011 | 2 |
| 2025-05-04T23:36:00 | 54.611117 | 7.887484 | 2.0 | 10.890 | 2 | 35.035 | 11.041 | 30.989 | 2 |
| 2025-05-04T23:37:00 | 54.613609 | 7.886999 | 2.0 | 10.894 | 2 | 35.026 | 11.059 | 30.965 | 2 |
| 2025-05-04T23:38:00 | 54.616111 | 7.886641 | 2.0 | 10.905 | 2 | 35.023 | 11.066 | 30.956 | 2 |
| 2025-05-04T23:39:00 | 54.618629 | 7.886199 | 2.0 | 10.908 | 2 | 35.020 | 11.072 | 30.948 | 2 |
| 2025-05-04T23:40:00 | 54.621152 | 7.885702 | 2.0 | 10.907 | 2 | 35.014 | 11.074 | 30.940 | 2 |
| 2025-05-04T23:41:00 | 54.623696 | 7.885253 | 2.0 | 10.910 | 2 | 35.008 | 11.075 | 30.934 | 2 |
| 2025-05-04T23:42:00 | 54.626256 | 7.884882 | 2.0 | 10.913 | 2 | 35.003 | 11.077 | 30.927 | 2 |
| 2025-05-04T23:43:00 | 54.628806 | 7.884458 | 2.0 | 10.911 | 2 | 35.001 | 11.081 | 30.922 | 2 |
| 2025-05-04T23:44:00 | 54.631356 | 7.884435 | 2.0 | 10.908 | 2 | 35.003 | 11.080 | 30.925 | 2 |
| 2025-05-04T23:45:00 | 54.633898 | 7.884454 | 2.0 | 10.905 | 2 | 35.003 | 11.076 | 30.928 | 2 |
| 2025-05-04T23:46:00 | 54.636416 | 7.884465 | 2.0 | 10.898 | 2 | 35.003 | 11.074 | 30.930 | 2 |
| 2025-05-04T23:47:00 | 54.638909 | 7.884532 | 2.0 | 10.874 | 2 | 35.013 | 11.064 | 30.948 | 2 |
| 2025-05-04T23:48:00 | 54.641424 | 7.884533 | 2.0 | 10.860 | 2 | 35.031 | 11.041 | 30.985 | 2 |
| 2025-05-04T23:49:00 | 54.643926 | 7.884633 | 2.0 | 10.863 | 2 | 35.035 | 11.030 | 30.998 | 2 |
| 2025-05-04T23:50:00 | 54.646430 | 7.884836 | 2.0 | 10.860 | 2 | 35.031 | 11.032 | 30.993 | 2 |
| 2025-05-04T23:51:00 | 54.648894 | 7.884960 | 2.0 | 10.856 | 2 | 35.032 | 11.028 | 30.997 | 2 |
| 2025-05-04T23:52:00 | 54.651423 | 7.885128 | 2.0 | 10.858 | 2 | 35.032 | 11.025 | 30.999 | 2 |
| 2025-05-04T23:53:00 | 54.653976 | 7.885288 | 2.0 | 10.855 | 2 | 35.029 | 11.026 | 30.996 | 2 |
| 2025-05-04T23:54:00 | 54.656502 | 7.885395 | 2.0 | 10.856 | 2 | 35.028 | 11.024 | 30.996 | 2 |
| 2025-05-04T23:55:00 | 54.659032 | 7.885572 | 2.0 | 10.860 | 2 | 35.025 | 11.025 | 30.993 | 2 |
| 2025-05-04T23:56:00 | 54.661536 | 7.885744 | 2.0 | 10.862 | 2 | 35.024 | 11.029 | 30.988 | 2 |
| 2025-05-04T23:57:00 | 54.663954 | 7.885759 | 2.0 | 10.866 | 2 | 35.027 | 11.031 | 30.989 | 2 |
| 2025-05-04T23:58:00 | 54.666414 | 7.886034 | 2.0 | 10.865 | 2 | 35.031 | 11.034 | 30.991 | 2 |
| 2025-05-04T23:59:00 | 54.668938 | 7.886265 | 2.0 | 10.864 | 2 | 35.037 | 11.034 | 30.997 | 2 |
| 2025-05-05T00:00:00 | 54.671489 | 7.886360 | 2.0 | 10.860 | 2 | 35.042 | 11.032 | 31.003 | 2 |
| 2025-05-05T00:01:00 | 54.673991 | 7.886469 | 2.0 | 10.860 | 2 | 35.044 | 11.031 | 31.006 | 2 |
| 2025-05-05T00:02:00 | 54.676464 | 7.886637 | 2.0 | 10.855 | 2 | 35.045 | 11.028 | 31.010 | 2 |
| 2025-05-05T00:03:00 | 54.678860 | 7.887304 | 2.0 | 10.852 | 2 | 35.050 | 11.025 | 31.017 | 2 |
| 2025-05-05T00:04:00 | 54.681216 | 7.888244 | 2.0 | 10.851 | 2 | 35.062 | 11.022 | 31.031 | 2 |
| 2025-05-05T00:05:00 | 54.682936 | 7.889130 | 2.0 | 10.846 | 2 | 35.063 | 11.018 | 31.036 | 2 |
| 2025-05-05T00:06:00 | 54.684092 | 7.889621 | 2.0 | 10.845 | 2 | 35.067 | 11.013 | 31.044 | 2 |
| 2025-05-05T00:07:00 | 54.684921 | 7.889802 | 2.0 | 10.846 | 2 | 35.067 | 11.012 | 31.045 | 2 |
| 2025-05-05T00:08:00 | 54.685477 | 7.890073 | 2.0 | 10.849 | 2 | 35.066 | 11.012 | 31.044 | 2 |
| 2025-05-05T00:09:00 | 54.686114 | 7.890310 | 2.0 | 10.850 | 2 | 35.066 | 11.014 | 31.042 | 2 |
| 2025-05-05T00:10:00 | 54.686985 | 7.890678 | 2.0 | 10.852 | 2 | 35.070 | 11.016 | 31.044 | 2 |
| 2025-05-05T00:11:00 | 54.687988 | 7.891186 | 2.0 | 10.856 | 2 | 35.070 | 11.018 | 31.043 | 2 |
| 2025-05-05T00:12:00 | 54.689040 | 7.891795 | 2.0 | 10.858 | 2 | 35.072 | 11.022 | 31.041 | 2 |
| 2025-05-05T00:13:00 | 54.690104 | 7.892363 | 2.0 | 10.862 | 2 | 35.077 | 11.023 | 31.045 | 2 |
| 2025-05-05T00:14:00 | 54.691193 | 7.892867 | 2.0 | 10.862 | 2 | 35.083 | 11.027 | 31.048 | 2 |
| 2025-05-05T00:15:00 | 54.692288 | 7.893454 | 2.0 | 10.865 | 2 | 35.085 | 11.029 | 31.048 | 2 |
| 2025-05-05T00:16:00 | 54.693376 | 7.894147 | 2.0 | 10.869 | 2 | 35.086 | 11.032 | 31.047 | 2 |
| 2025-05-05T00:17:00 | 54.694444 | 7.894808 | 2.0 | 10.873 | 2 | 35.087 | 11.035 | 31.045 | 2 |
| 2025-05-05T00:18:00 | 54.695502 | 7.895447 | 2.0 | 10.877 | 2 | 35.087 | 11.039 | 31.042 | 2 |
| 2025-05-05T00:19:00 | 54.696540 | 7.896069 | 2.0 | 10.875 | 2 | 35.088 | 11.041 | 31.041 | 2 |
| 2025-05-05T00:20:00 | 54.697612 | 7.896771 | 2.0 | 10.880 | 2 | 35.092 | 11.042 | 31.044 | 2 |
| 2025-05-05T00:21:00 | 54.698678 | 7.897570 | 2.0 | 10.880 | 2 | 35.098 | 11.045 | 31.047 | 2 |
| 2025-05-05T00:22:00 | 54.699755 | 7.898307 | 2.0 | 10.875 | 2 | 35.096 | 11.043 | 31.047 | 2 |
| 2025-05-05T00:23:00 | 54.700810 | 7.898969 | 2.0 | 10.876 | 2 | 35.092 | 11.040 | 31.046 | 2 |
| 2025-05-05T00:24:00 | 54.701906 | 7.899605 | 2.0 | 10.875 | 2 | 35.090 | 11.042 | 31.042 | 2 |
| 2025-05-05T00:25:00 | 54.702978 | 7.900309 | 2.0 | 10.880 | 2 | 35.079 | 11.041 | 31.032 | 2 |
| 2025-05-05T00:26:00 | 54.704038 | 7.901078 | 2.0 | 10.886 | 2 | 35.071 | 11.046 | 31.020 | 2 |
| 2025-05-05T00:27:00 | 54.705064 | 7.901836 | 2.0 | 10.891 | 2 | 35.062 | 11.051 | 31.007 | 2 |
| 2025-05-05T00:28:00 | 54.706125 | 7.902478 | 2.0 | 10.895 | 2 | 35.054 | 11.056 | 30.995 | 2 |
| 2025-05-05T00:29:00 | 54.707226 | 7.903219 | 2.0 | 10.901 | 2 | 35.052 | 11.061 | 30.989 | 2 |
| 2025-05-05T00:30:00 | 54.708326 | 7.903988 | 2.0 | 10.903 | 2 | 35.045 | 11.065 | 30.978 | 2 |
| 2025-05-05T00:31:00 | 54.709414 | 7.904744 | 2.0 | 10.906 | 2 | 35.039 | 11.067 | 30.971 | 2 |
| 2025-05-05T00:32:00 | 54.710499 | 7.905512 | 2.0 | 10.907 | 2 | 35.033 | 11.072 | 30.961 | 2 |
| 2025-05-05T00:33:00 | 54.711617 | 7.906223 | 2.0 | 10.909 | 2 | 35.023 | 11.073 | 30.950 | 2 |
| 2025-05-05T00:34:00 | 54.712703 | 7.907002 | 2.0 | 10.909 | 2 | 35.014 | 11.074 | 30.940 | 2 |
| 2025-05-05T00:35:00 | 54.713847 | 7.907753 | 2.0 | 10.911 | 2 | 35.007 | 11.075 | 30.933 | 2 |
| 2025-05-05T00:36:00 | 54.715048 | 7.908505 | 2.0 | 10.913 | 2 | 35.000 | 11.076 | 30.925 | 2 |
| 2025-05-05T00:37:00 | 54.716255 | 7.909309 | 2.0 | 10.907 | 2 | 34.994 | 11.077 | 30.918 | 2 |
| 2025-05-05T00:38:00 | 54.717441 | 7.910101 | 2.0 | 10.905 | 2 | 34.981 | 11.071 | 30.911 | 2 |
| 2025-05-05T00:39:00 | 54.718660 | 7.910933 | 2.0 | 10.895 | 2 | 34.970 | 11.067 | 30.903 | 2 |
| 2025-05-05T00:40:00 | 54.719906 | 7.911781 | 2.0 | 10.892 | 2 | 34.957 | 11.062 | 30.895 | 2 |
| 2025-05-05T00:41:00 | 54.721149 | 7.912635 | 2.0 | 10.879 | 2 | 34.943 | 11.054 | 30.888 | 2 |
| 2025-05-05T00:42:00 | 54.722393 | 7.913487 | 2.0 | 10.859 | 2 | 34.924 | 11.041 | 30.880 | 2 |
| 2025-05-05T00:43:00 | 54.723626 | 7.914296 | 2.0 | 10.839 | 2 | 34.907 | 11.025 | 30.877 | 2 |
| 2025-05-05T00:44:00 | 54.724859 | 7.915122 | 2.0 | 10.833 | 2 | 34.889 | 11.007 | 30.874 | 2 |
| 2025-05-05T00:45:00 | 54.726092 | 7.915949 | 2.0 | 10.823 | 2 | 34.882 | 10.997 | 30.876 | 2 |
| 2025-05-05T00:46:00 | 54.727336 | 7.916763 | 2.0 | 10.805 | 2 | 34.874 | 10.987 | 30.876 | 2 |
| 2025-05-05T00:47:00 | 54.728593 | 7.917602 | 2.0 | 10.791 | 2 | 34.862 | 10.968 | 30.880 | 2 |
| 2025-05-05T00:48:00 | 54.729864 | 7.918422 | 2.0 | 10.788 | 2 | 34.857 | 10.958 | 30.884 | 2 |
| 2025-05-05T00:49:00 | 54.731092 | 7.919272 | 2.0 | 10.785 | 2 | 34.855 | 10.953 | 30.886 | 2 |
| 2025-05-05T00:50:00 | 54.732307 | 7.920077 | 2.0 | 10.781 | 2 | 34.857 | 10.952 | 30.889 | 2 |
| 2025-05-05T00:51:00 | 54.733553 | 7.920896 | 2.0 | 10.785 | 2 | 34.858 | 10.950 | 30.892 | 2 |
| 2025-05-05T00:52:00 | 54.734796 | 7.921816 | 2.0 | 10.782 | 2 | 34.862 | 10.950 | 30.896 | 2 |
| 2025-05-05T00:53:00 | 54.736041 | 7.922676 | 2.0 | 10.777 | 2 | 34.863 | 10.948 | 30.898 | 2 |
| 2025-05-05T00:54:00 | 54.737289 | 7.923521 | 2.0 | 10.771 | 2 | 34.832 | 10.941 | 30.874 | 2 |
| 2025-05-05T00:55:00 | 54.738558 | 7.924360 | 2.0 | 10.770 | 2 | 34.843 | 10.938 | 30.887 | 2 |
| 2025-05-05T00:56:00 | 54.739824 | 7.925168 | 2.0 | 10.771 | 2 | 34.851 | 10.937 | 30.896 | 2 |
| 2025-05-05T00:57:00 | 54.741069 | 7.925968 | 2.0 | 10.775 | 2 | 34.856 | 10.938 | 30.900 | 2 |
| 2025-05-05T00:58:00 | 54.742360 | 7.926780 | 2.0 | 10.776 | 2 | 34.852 | 10.941 | 30.893 | 2 |
| 2025-05-05T00:59:00 | 54.743656 | 7.927666 | 2.0 | 10.777 | 2 | 34.848 | 10.944 | 30.887 | 2 |
| 2025-05-05T01:00:00 | 54.744959 | 7.928547 | 2.0 | 10.774 | 2 | 34.877 | 10.944 | 30.915 | 2 |
| 2025-05-05T01:01:00 | 54.746221 | 7.929427 | 2.0 | 10.769 | 2 | 34.872 | 10.939 | 30.915 | 2 |
| 2025-05-05T01:02:00 | 54.747485 | 7.930267 | 2.0 | 10.764 | 2 | 34.877 | 10.933 | 30.925 | 2 |
| 2025-05-05T01:03:00 | 54.748743 | 7.931187 | 2.0 | 10.756 | 2 | 34.865 | 10.929 | 30.916 | 2 |
| 2025-05-05T01:04:00 | 54.750002 | 7.931990 | 2.0 | 10.746 | 2 | 34.883 | 10.921 | 30.941 | 2 |
| 2025-05-05T01:05:00 | 54.751278 | 7.932811 | 2.0 | 10.736 | 2 | 34.887 | 10.912 | 30.952 | 2 |
| 2025-05-05T01:06:00 | 54.752553 | 7.933699 | 2.0 | 10.731 | 2 | 34.885 | 10.903 | 30.958 | 2 |
| 2025-05-05T01:07:00 | 54.753833 | 7.934622 | 2.0 | 10.727 | 2 | 34.889 | 10.896 | 30.968 | 2 |
| 2025-05-05T01:08:00 | 54.755107 | 7.935443 | 2.0 | 10.725 | 2 | 34.895 | 10.894 | 30.975 | 2 |
| 2025-05-05T01:09:00 | 54.756371 | 7.936230 | 2.0 | 10.725 | 2 | 34.898 | 10.891 | 30.981 | 2 |
| 2025-05-05T01:10:00 | 54.757633 | 7.937062 | 2.0 | 10.729 | 2 | 34.902 | 10.892 | 30.984 | 2 |
| 2025-05-05T01:11:00 | 54.758886 | 7.937927 | 2.0 | 10.734 | 2 | 34.901 | 10.896 | 30.979 | 2 |
| 2025-05-05T01:12:00 | 54.760152 | 7.938813 | 2.0 | 10.733 | 2 | 34.906 | 10.900 | 30.981 | 2 |
| 2025-05-05T01:13:00 | 54.761435 | 7.939630 | 2.0 | 10.735 | 2 | 34.908 | 10.901 | 30.982 | 2 |
| 2025-05-05T01:14:00 | 54.762710 | 7.940490 | 2.0 | 10.729 | 2 | 34.915 | 10.901 | 30.989 | 2 |
| 2025-05-05T01:15:00 | 54.763998 | 7.941385 | 2.0 | 10.727 | 2 | 34.913 | 10.895 | 30.992 | 2 |
| 2025-05-05T01:16:00 | 54.765256 | 7.942290 | 2.0 | 10.727 | 2 | 34.923 | 10.894 | 31.003 | 2 |
| 2025-05-05T01:17:00 | 54.766499 | 7.943035 | 2.0 | 10.727 | 2 | 34.929 | 10.894 | 31.009 | 2 |
| 2025-05-05T01:18:00 | 54.767706 | 7.943816 | 2.0 | 10.731 | 2 | 34.931 | 10.894 | 31.011 | 2 |
| 2025-05-05T01:19:00 | 54.768890 | 7.944605 | 2.0 | 10.735 | 2 | 34.937 | 10.899 | 31.012 | 2 |
| 2025-05-05T01:20:00 | 54.770045 | 7.945346 | 2.0 | 10.735 | 2 | 34.938 | 10.901 | 31.012 | 2 |
| 2025-05-05T01:21:00 | 54.771191 | 7.946104 | 2.0 | 10.735 | 2 | 34.938 | 10.902 | 31.011 | 2 |
| 2025-05-05T01:22:00 | 54.772332 | 7.946941 | 2.0 | 10.729 | 2 | 34.942 | 10.900 | 31.016 | 2 |
| 2025-05-05T01:23:00 | 54.773491 | 7.947750 | 2.0 | 10.726 | 2 | 34.942 | 10.897 | 31.019 | 2 |
| 2025-05-05T01:24:00 | 54.774642 | 7.948543 | 2.0 | 10.722 | 2 | 34.946 | 10.892 | 31.027 | 2 |
| 2025-05-05T01:25:00 | 54.775795 | 7.949262 | 2.0 | 10.714 | 2 | 34.949 | 10.887 | 31.034 | 2 |
| 2025-05-05T01:26:00 | 54.776966 | 7.950062 | 2.0 | 10.708 | 2 | 34.951 | 10.879 | 31.043 | 2 |
| 2025-05-05T01:27:00 | 54.778115 | 7.950870 | 2.0 | 10.697 | 2 | 34.954 | 10.873 | 31.051 | 2 |
| 2025-05-05T01:28:00 | 54.779183 | 7.951600 | 2.0 | 10.690 | 2 | 34.955 | 10.863 | 31.061 | 2 |
| 2025-05-05T01:29:00 | 54.780278 | 7.952215 | 2.0 | 10.684 | 2 | 34.957 | 10.856 | 31.069 | 2 |
| 2025-05-05T01:30:00 | 54.781409 | 7.952999 | 2.0 | 10.677 | 2 | 34.957 | 10.850 | 31.074 | 2 |
| 2025-05-05T01:31:00 | 54.782535 | 7.953792 | 2.0 | 10.660 | 2 | 34.958 | 10.839 | 31.084 | 2 |
| 2025-05-05T01:32:00 | 54.783684 | 7.954530 | 2.0 | 10.606 | 2 | 34.955 | 10.819 | 31.098 | 2 |
| 2025-05-05T01:33:00 | 54.784831 | 7.955316 | 2.0 | 10.606 | 2 | 34.937 | 10.778 | 31.115 | 2 |
| 2025-05-05T01:34:00 | 54.785966 | 7.956053 | 2.0 | 10.599 | 2 | 34.938 | 10.773 | 31.120 | 2 |
| 2025-05-05T01:35:00 | 54.787081 | 7.956824 | 2.0 | 10.588 | 2 | 34.940 | 10.768 | 31.126 | 2 |
| 2025-05-05T01:36:00 | 54.788209 | 7.957609 | 2.0 | 10.576 | 2 | 34.938 | 10.754 | 31.136 | 2 |
| 2025-05-05T01:37:00 | 54.789347 | 7.958338 | 2.0 | 10.575 | 2 | 34.935 | 10.743 | 31.143 | 2 |
| 2025-05-05T01:38:00 | 54.790436 | 7.959073 | 2.0 | 10.571 | 2 | 34.942 | 10.745 | 31.148 | 2 |
| 2025-05-05T01:39:00 | 54.791566 | 7.959800 | 2.0 | 10.569 | 2 | 34.947 | 10.736 | 31.161 | 2 |
| 2025-05-05T01:40:00 | 54.792660 | 7.960534 | 2.0 | 10.570 | 2 | 34.955 | 10.738 | 31.167 | 2 |
| 2025-05-05T01:41:00 | 54.793758 | 7.961285 | 2.0 | 10.559 | 2 | 34.962 | 10.736 | 31.175 | 2 |
| 2025-05-05T01:42:00 | 54.794892 | 7.962062 | 2.0 | 10.559 | 2 | 34.968 | 10.727 | 31.189 | 2 |
| 2025-05-05T01:43:00 | 54.796086 | 7.962842 | 2.0 | 10.558 | 2 | 34.974 | 10.725 | 31.197 | 2 |
| 2025-05-05T01:44:00 | 54.797283 | 7.963680 | 2.0 | 10.548 | 2 | 34.980 | 10.724 | 31.204 | 2 |
| 2025-05-05T01:45:00 | 54.798444 | 7.964480 | 2.0 | 10.540 | 2 | 34.981 | 10.715 | 31.212 | 2 |
| 2025-05-05T01:46:00 | 54.799601 | 7.965206 | 2.0 | 10.533 | 2 | 34.978 | 10.705 | 31.218 | 2 |
| 2025-05-05T01:47:00 | 54.800727 | 7.965947 | 2.0 | 10.551 | 2 | 34.953 | 10.701 | 31.196 | 2 |
| 2025-05-05T01:48:00 | 54.801860 | 7.966720 | 2.0 | 10.577 | 2 | 34.928 | 10.723 | 31.153 | 2 |
| 2025-05-05T01:49:00 | 54.802991 | 7.967485 | 2.0 | 10.606 | 2 | 34.931 | 10.748 | 31.135 | 2 |
| 2025-05-05T01:50:00 | 54.804112 | 7.968263 | 2.0 | 10.621 | 2 | 34.939 | 10.774 | 31.120 | 2 |
| 2025-05-05T01:51:00 | 54.805231 | 7.968991 | 2.0 | 10.641 | 2 | 34.947 | 10.790 | 31.115 | 2 |
| 2025-05-05T01:52:00 | 54.806370 | 7.969716 | 2.0 | 10.652 | 2 | 34.955 | 10.808 | 31.107 | 2 |
| 2025-05-05T01:53:00 | 54.807507 | 7.970515 | 2.0 | 10.656 | 2 | 34.963 | 10.817 | 31.108 | 2 |
| 2025-05-05T01:54:00 | 54.808650 | 7.971268 | 2.0 | 10.692 | 2 | 34.972 | 10.831 | 31.105 | 2 |
| 2025-05-05T01:55:00 | 54.809778 | 7.972054 | 2.0 | 10.704 | 2 | 34.983 | 10.857 | 31.093 | 2 |
| 2025-05-05T01:56:00 | 54.810921 | 7.972839 | 2.0 | 10.697 | 2 | 34.993 | 10.865 | 31.096 | 2 |
| 2025-05-05T01:57:00 | 54.812064 | 7.973596 | 2.0 | 10.727 | 2 | 35.005 | 10.866 | 31.107 | 2 |
| 2025-05-05T01:58:00 | 54.813196 | 7.974311 | 2.0 | 10.775 | 2 | 35.015 | 10.900 | 31.088 | 2 |
| 2025-05-05T01:59:00 | 54.814347 | 7.975015 | 2.0 | 10.803 | 2 | 35.028 | 10.942 | 31.066 | 2 |
| 2025-05-05T02:00:00 | 54.815453 | 7.975767 | 2.0 | 10.821 | 2 | 35.036 | 10.968 | 31.052 | 2 |
| 2025-05-05T02:01:00 | 54.816600 | 7.976566 | 2.0 | 10.838 | 2 | 35.040 | 10.988 | 31.039 | 2 |
| 2025-05-05T02:02:00 | 54.817770 | 7.977373 | 2.0 | 10.844 | 2 | 35.039 | 11.001 | 31.027 | 2 |
| 2025-05-05T02:03:00 | 54.818944 | 7.978196 | 2.0 | 10.839 | 2 | 35.033 | 11.008 | 31.015 | 2 |
| 2025-05-05T02:04:00 | 54.820100 | 7.979003 | 2.0 | 10.830 | 2 | 35.026 | 11.005 | 31.010 | 2 |
| 2025-05-05T02:05:00 | 54.821283 | 7.979759 | 2.0 | 10.811 | 2 | 35.016 | 10.992 | 31.012 | 2 |
| 2025-05-05T02:06:00 | 54.822427 | 7.980528 | 2.0 | 10.801 | 2 | 35.003 | 10.974 | 31.014 | 2 |
| 2025-05-05T02:07:00 | 54.823589 | 7.981285 | 2.0 | 10.785 | 2 | 34.992 | 10.966 | 31.010 | 2 |
| 2025-05-05T02:08:00 | 54.824719 | 7.982126 | 2.0 | 10.765 | 2 | 34.985 | 10.949 | 31.017 | 2 |
| 2025-05-05T02:09:00 | 54.825883 | 7.982902 | 2.0 | 10.753 | 2 | 34.977 | 10.930 | 31.026 | 2 |
| 2025-05-05T02:10:00 | 54.827060 | 7.983688 | 2.0 | 10.744 | 2 | 34.973 | 10.919 | 31.031 | 2 |
| 2025-05-05T02:11:00 | 54.828223 | 7.984490 | 2.0 | 10.730 | 2 | 34.965 | 10.908 | 31.032 | 2 |
| 2025-05-05T02:12:00 | 54.829385 | 7.985231 | 2.0 | 10.714 | 2 | 34.963 | 10.895 | 31.041 | 2 |
| 2025-05-05T02:13:00 | 54.830520 | 7.985997 | 2.0 | 10.710 | 2 | 34.956 | 10.881 | 31.046 | 2 |
| 2025-05-05T02:14:00 | 54.831665 | 7.986755 | 2.0 | 10.700 | 2 | 34.952 | 10.875 | 31.048 | 2 |
| 2025-05-05T02:15:00 | 54.832810 | 7.987509 | 2.0 | 10.695 | 2 | 34.828 | 10.867 | 30.932 | 2 |
| 2025-05-05T02:16:00 | 54.833953 | 7.988280 | 2.0 | 10.691 | 2 | 34.637 | 10.861 | 30.749 | 2 |
| 2025-05-05T02:17:00 | 54.835094 | 7.989048 | 2.0 | 10.691 | 2 | 34.800 | 10.859 | 30.911 | 2 |
| 2025-05-05T02:18:00 | 54.836258 | 7.989797 | 2.0 | 10.693 | 2 | 34.758 | 10.855 | 30.873 | 2 |
| 2025-05-05T02:19:00 | 54.837406 | 7.990606 | 2.0 | 10.682 | 2 | 34.724 | 10.857 | 30.838 | 2 |
| 2025-05-05T02:20:00 | 54.838541 | 7.991319 | 2.0 | 10.692 | 2 | 34.802 | 10.850 | 30.921 | 2 |
| 2025-05-05T02:21:00 | 54.839680 | 7.992091 | 2.0 | 10.686 | 2 | 34.853 | 10.856 | 30.966 | 2 |
| 2025-05-05T02:22:00 | 54.840821 | 7.992881 | 2.0 | 10.687 | 2 | 34.696 | 10.853 | 30.814 | 2 |
| 2025-05-05T02:23:00 | 54.841957 | 7.993703 | 2.0 | 10.688 | 2 | 34.796 | 10.850 | 30.915 | 2 |
| 2025-05-05T02:24:00 | 54.843099 | 7.994468 | 2.0 | 10.686 | 2 | 34.934 | 10.855 | 31.047 | 2 |
| 2025-05-05T02:25:00 | 54.844257 | 7.995227 | 2.0 | 10.684 | 2 | 34.929 | 10.850 | 31.046 | 2 |
| 2025-05-05T02:26:00 | 54.845426 | 7.996009 | 2.0 | 10.682 | 2 | 34.906 | 10.851 | 31.022 | 2 |
| 2025-05-05T02:27:00 | 54.846578 | 7.996812 | 2.0 | 10.677 | 2 | 34.807 | 10.848 | 30.927 | 2 |
| 2025-05-05T02:28:00 | 54.847707 | 7.997622 | 2.0 | 10.673 | 2 | 34.784 | 10.843 | 30.909 | 2 |
| 2025-05-05T02:29:00 | 54.848833 | 7.998424 | 2.0 | 10.664 | 2 | 34.919 | 10.838 | 31.046 | 2 |
| 2025-05-05T02:30:00 | 54.849969 | 7.999149 | 2.0 | 10.654 | 2 | 34.821 | 10.830 | 30.956 | 2 |
| 2025-05-05T02:31:00 | 54.851076 | 7.999897 | 2.0 | 10.648 | 2 | 34.898 | 10.822 | 31.039 | 2 |
| 2025-05-05T02:32:00 | 54.852210 | 8.000588 | 2.0 | 10.645 | 2 | 34.829 | 10.815 | 30.977 | 2 |
| 2025-05-05T02:33:00 | 54.853355 | 8.001330 | 2.0 | 10.632 | 2 | 34.839 | 10.810 | 30.991 | 2 |
| 2025-05-05T02:34:00 | 54.854464 | 8.002107 | 2.0 | 10.625 | 2 | 34.802 | 10.799 | 30.964 | 2 |
| 2025-05-05T02:35:00 | 54.855589 | 8.002836 | 2.0 | 10.616 | 2 | 34.783 | 10.789 | 30.954 | 2 |
| 2025-05-05T02:36:00 | 54.856718 | 8.003588 | 2.0 | 10.609 | 2 | 34.726 | 10.782 | 30.903 | 2 |
| 2025-05-05T02:37:00 | 54.857879 | 8.004355 | 2.0 | 10.603 | 2 | 34.722 | 10.776 | 30.904 | 2 |
| 2025-05-05T02:38:00 | 54.859034 | 8.005104 | 2.0 | 10.594 | 2 | 34.747 | 10.768 | 30.936 | 2 |
| 2025-05-05T02:39:00 | 54.860181 | 8.005890 | 2.0 | 10.591 | 2 | 34.703 | 10.760 | 30.899 | 2 |
| 2025-05-05T02:40:00 | 54.861347 | 8.006708 | 2.0 | 10.590 | 2 | 34.791 | 10.759 | 30.987 | 2 |
| 2025-05-05T02:41:00 | 54.862479 | 8.007498 | 2.0 | 10.590 | 2 | 34.754 | 10.757 | 30.952 | 2 |
| 2025-05-05T02:42:00 | 54.863600 | 8.008167 | 2.0 | 10.589 | 2 | 34.794 | 10.757 | 30.991 | 2 |
| 2025-05-05T02:43:00 | 54.864764 | 8.008883 | 2.0 | 10.577 | 2 | 34.759 | 10.753 | 30.960 | 2 |
| 2025-05-05T02:44:00 | 54.865892 | 8.009700 | 2.0 | 10.562 | 2 | 34.787 | 10.743 | 30.996 | 2 |
| 2025-05-05T02:45:00 | 54.867008 | 8.010475 | 2.0 | 10.556 | 2 | 34.712 | 10.729 | 30.934 | 2 |
| 2025-05-05T02:46:00 | 54.868159 | 8.011207 | 2.0 | 10.539 | 2 | 34.743 | 10.719 | 30.973 | 2 |
| 2025-05-05T02:47:00 | 54.869322 | 8.011986 | 2.0 | 10.512 | 2 | 34.787 | 10.702 | 31.031 | 2 |
| 2025-05-05T02:48:00 | 54.870481 | 8.012802 | 2.0 | 10.491 | 2 | 34.796 | 10.677 | 31.061 | 2 |
| 2025-05-05T02:49:00 | 54.871649 | 8.013637 | 2.0 | 10.519 | 2 | 34.864 | 10.664 | 31.140 | 2 |
| 2025-05-05T02:50:00 | 54.872812 | 8.014411 | 2.0 | 10.541 | 2 | 34.879 | 10.690 | 31.132 | 2 |
| 2025-05-05T02:51:00 | 54.873986 | 8.015133 | 2.0 | 10.547 | 2 | 34.889 | 10.708 | 31.127 | 2 |
| 2025-05-05T02:52:00 | 54.875143 | 8.015951 | 2.0 | 10.551 | 2 | 34.874 | 10.714 | 31.107 | 2 |
| 2025-05-05T02:53:00 | 54.876314 | 8.016727 | 2.0 | 10.549 | 2 | 34.859 | 10.716 | 31.091 | 2 |
| 2025-05-05T02:54:00 | 54.877508 | 8.017519 | 2.0 | 10.541 | 2 | 34.843 | 10.714 | 31.076 | 2 |
| 2025-05-05T02:55:00 | 54.878674 | 8.018360 | 2.0 | 10.535 | 2 | 34.834 | 10.707 | 31.073 | 2 |
| 2025-05-05T02:56:00 | 54.879813 | 8.019173 | 2.0 | 10.522 | 2 | 34.848 | 10.699 | 31.094 | 2 |
| 2025-05-05T02:57:00 | 54.881000 | 8.019887 | 2.0 | 10.519 | 2 | 34.799 | 10.689 | 31.054 | 2 |
| 2025-05-05T02:58:00 | 54.882163 | 8.020603 | 2.0 | 10.524 | 2 | 34.845 | 10.687 | 31.101 | 2 |
| 2025-05-05T02:59:00 | 54.883309 | 8.021383 | 2.0 | 10.526 | 2 | 34.838 | 10.692 | 31.090 | 2 |
| 2025-05-05T03:00:00 | 54.884465 | 8.022208 | 2.0 | 10.525 | 2 | 34.830 | 10.693 | 31.081 | 2 |
| 2025-05-05T03:01:00 | 54.885617 | 8.023027 | 2.0 | 10.523 | 2 | 34.823 | 10.692 | 31.075 | 2 |
| 2025-05-05T03:02:00 | 54.886795 | 8.023786 | 2.0 | 10.528 | 2 | 34.819 | 10.689 | 31.074 | 2 |
| 2025-05-05T03:03:00 | 54.888009 | 8.024517 | 2.0 | 10.545 | 2 | 34.810 | 10.700 | 31.056 | 2 |
| 2025-05-05T03:04:00 | 54.889202 | 8.025349 | 2.0 | 10.543 | 2 | 34.804 | 10.711 | 31.040 | 2 |
| 2025-05-05T03:05:00 | 54.890401 | 8.026235 | 2.0 | 10.541 | 2 | 34.792 | 10.710 | 31.029 | 2 |
| 2025-05-05T03:06:00 | 54.891609 | 8.027104 | 2.0 | 10.531 | 2 | 34.791 | 10.706 | 31.032 | 2 |
| 2025-05-05T03:07:00 | 54.892844 | 8.027953 | 2.0 | 10.515 | 2 | 34.786 | 10.696 | 31.035 | 2 |
| 2025-05-05T03:08:00 | 54.894069 | 8.028813 | 2.0 | 10.487 | 2 | 34.782 | 10.678 | 31.047 | 2 |
| 2025-05-05T03:09:00 | 54.895281 | 8.029625 | 2.0 | 10.443 | 2 | 34.776 | 10.650 | 31.064 | 2 |
| 2025-05-05T03:10:00 | 54.896450 | 8.030393 | 2.0 | 10.422 | 2 | 34.740 | 10.607 | 31.065 | 2 |
| 2025-05-05T03:11:00 | 54.897634 | 8.031112 | 2.0 | 10.439 | 2 | 34.795 | 10.593 | 31.132 | 2 |
| 2025-05-05T03:12:00 | 54.898836 | 8.031874 | 2.0 | 10.458 | 2 | 34.758 | 10.609 | 31.081 | 2 |
| 2025-05-05T03:13:00 | 54.900028 | 8.032718 | 2.0 | 10.465 | 2 | 34.754 | 10.626 | 31.063 | 2 |
| 2025-05-05T03:14:00 | 54.901252 | 8.033509 | 2.0 | 10.470 | 2 | 34.740 | 10.634 | 31.042 | 2 |
| 2025-05-05T03:15:00 | 54.902462 | 8.034335 | 2.0 | 10.472 | 2 | 34.762 | 10.638 | 31.061 | 2 |
| 2025-05-05T03:16:00 | 54.903669 | 8.035158 | 2.0 | 10.478 | 2 | 34.732 | 10.639 | 31.030 | 2 |
| 2025-05-05T03:17:00 | 54.904882 | 8.035970 | 2.0 | 10.486 | 2 | 34.695 | 10.647 | 30.987 | 2 |
| 2025-05-05T03:18:00 | 54.906028 | 8.036750 | 2.0 | 10.489 | 2 | 34.577 | 10.653 | 30.865 | 2 |
| 2025-05-05T03:19:00 | 54.907129 | 8.037480 | 2.0 | 10.501 | 2 | 34.657 | 10.658 | 30.940 | 2 |
| 2025-05-05T03:20:00 | 54.908196 | 8.038166 | 2.0 | 10.523 | 2 | 34.692 | 10.670 | 30.964 | 2 |
| 2025-05-05T03:21:00 | 54.909237 | 8.038890 | 2.0 | 10.537 | 2 | 34.692 | 10.691 | 30.946 | 2 |
| 2025-05-05T03:22:00 | 54.910296 | 8.039572 | 2.0 | 10.543 | 2 | 34.671 | 10.705 | 30.914 | 2 |
| 2025-05-05T03:23:00 | 54.911352 | 8.040309 | 2.0 | 10.548 | 2 | 34.625 | 10.710 | 30.864 | 2 |
| 2025-05-05T03:24:00 | 54.912416 | 8.041013 | 2.0 | 10.555 | 2 | 34.700 | 10.715 | 30.934 | 2 |
| 2025-05-05T03:25:00 | 54.913475 | 8.041757 | 2.0 | 10.562 | 2 | 34.693 | 10.722 | 30.921 | 2 |
| 2025-05-05T03:26:00 | 54.914438 | 8.042447 | 2.0 | 10.570 | 2 | 34.627 | 10.728 | 30.851 | 2 |
| 2025-05-05T03:27:00 | 54.915411 | 8.042941 | 2.0 | 10.582 | 2 | 34.639 | 10.738 | 30.854 | 2 |
| 2025-05-05T03:28:00 | 54.916398 | 8.043538 | 2.0 | 10.589 | 2 | 34.613 | 10.749 | 30.819 | 2 |
| 2025-05-05T03:29:00 | 54.917402 | 8.044300 | 2.0 | 10.592 | 2 | 34.606 | 10.755 | 30.807 | 2 |
| 2025-05-05T03:30:00 | 54.918359 | 8.045109 | 2.0 | 10.585 | 2 | 34.638 | 10.756 | 30.838 | 2 |
| 2025-05-05T03:31:00 | 54.919349 | 8.045773 | 2.0 | 10.581 | 2 | 34.633 | 10.751 | 30.837 | 2 |
| 2025-05-05T03:32:00 | 54.920369 | 8.046408 | 2.0 | 10.577 | 2 | 34.603 | 10.746 | 30.812 | 2 |
| 2025-05-05T03:33:00 | 54.921380 | 8.047113 | 2.0 | 10.563 | 2 | 34.616 | 10.741 | 30.829 | 2 |
| 2025-05-05T03:34:00 | 54.922406 | 8.047844 | 2.0 | 10.541 | 2 | 34.590 | 10.728 | 30.814 | 2 |
| 2025-05-05T03:35:00 | 54.923443 | 8.048554 | 2.0 | 10.522 | 2 | 34.547 | 10.704 | 30.792 | 2 |
| 2025-05-05T03:36:00 | 54.924501 | 8.049233 | 2.0 | 10.503 | 2 | 34.576 | 10.685 | 30.837 | 2 |
| 2025-05-05T03:37:00 | 54.925551 | 8.049942 | 2.0 | 10.490 | 2 | 34.594 | 10.669 | 30.868 | 2 |
| 2025-05-05T03:38:00 | 54.926602 | 8.050609 | 2.0 | 10.480 | 2 | 34.582 | 10.657 | 30.866 | 2 |
| 2025-05-05T03:39:00 | 54.927627 | 8.051289 | 2.0 | 10.467 | 2 | 34.600 | 10.645 | 30.894 | 2 |
| 2025-05-05T03:40:00 | 54.928632 | 8.051975 | 2.0 | 10.462 | 2 | 34.645 | 10.634 | 30.948 | 2 |
| 2025-05-05T03:41:00 | 54.929611 | 8.052670 | 2.0 | 10.459 | 2 | 34.642 | 10.629 | 30.949 | 2 |
| 2025-05-05T03:42:00 | 54.930608 | 8.053324 | 2.0 | 10.453 | 2 | 34.634 | 10.626 | 30.944 | 2 |
| 2025-05-05T03:43:00 | 54.931609 | 8.053972 | 2.0 | 10.452 | 2 | 34.641 | 10.621 | 30.955 | 2 |
| 2025-05-05T03:44:00 | 54.932623 | 8.054591 | 2.0 | 10.450 | 2 | 34.642 | 10.619 | 30.958 | 2 |
| 2025-05-05T03:45:00 | 54.933644 | 8.055305 | 2.0 | 10.456 | 2 | 34.612 | 10.619 | 30.928 | 2 |
| 2025-05-05T03:46:00 | 54.934666 | 8.055955 | 2.0 | 10.456 | 2 | 34.619 | 10.623 | 30.932 | 2 |
| 2025-05-05T03:47:00 | 54.935692 | 8.056580 | 2.0 | 10.458 | 2 | 34.631 | 10.623 | 30.944 | 2 |
| 2025-05-05T03:48:00 | 54.936717 | 8.057301 | 2.0 | 10.454 | 2 | 34.636 | 10.624 | 30.948 | 2 |
| 2025-05-05T03:49:00 | 54.937738 | 8.058076 | 2.0 | 10.454 | 2 | 34.640 | 10.622 | 30.953 | 2 |
| 2025-05-05T03:50:00 | 54.938785 | 8.058770 | 2.0 | 10.457 | 2 | 34.633 | 10.622 | 30.946 | 2 |
| 2025-05-05T03:51:00 | 54.939857 | 8.059516 | 2.0 | 10.460 | 2 | 34.629 | 10.626 | 30.939 | 2 |
| 2025-05-05T03:52:00 | 54.940919 | 8.060246 | 2.0 | 10.465 | 2 | 34.621 | 10.629 | 30.929 | 2 |
| 2025-05-05T03:53:00 | 54.941895 | 8.060858 | 2.0 | 10.467 | 2 | 34.614 | 10.632 | 30.919 | 2 |
| 2025-05-05T03:54:00 | 54.942790 | 8.061414 | 2.0 | 10.472 | 2 | 34.618 | 10.636 | 30.920 | 2 |
| 2025-05-05T03:55:00 | 54.943602 | 8.061955 | 2.0 | 10.477 | 2 | 34.616 | 10.640 | 30.914 | 2 |
| 2025-05-05T03:56:00 | 54.944327 | 8.062444 | 2.0 | 10.473 | 2 | 34.607 | 10.643 | 30.903 | 2 |
| 2025-05-05T03:57:00 | 54.945018 | 8.062896 | 2.0 | 10.481 | 2 | 34.595 | 10.642 | 30.892 | 2 |
| 2025-05-05T03:58:00 | 54.945691 | 8.063323 | 2.0 | 10.482 | 2 | 34.596 | 10.648 | 30.888 | 2 |
| 2025-05-05T03:59:00 | 54.946403 | 8.063760 | 2.0 | 10.477 | 2 | 34.583 | 10.647 | 30.876 | 2 |
| 2025-05-05T04:00:00 | 54.947123 | 8.064250 | 2.0 | 10.486 | 2 | 34.569 | 10.647 | 30.862 | 2 |
| 2025-05-05T04:01:00 | 54.947812 | 8.064729 | 2.0 | 10.486 | 2 | 34.569 | 10.652 | 30.858 | 2 |
| 2025-05-05T04:02:00 | 54.948473 | 8.065202 | 2.0 | 10.492 | 2 | 34.570 | 10.653 | 30.858 | 2 |
| 2025-05-05T04:03:00 | 54.949164 | 8.065674 | 2.0 | 10.491 | 2 | 34.571 | 10.656 | 30.856 | 2 |
| 2025-05-05T04:04:00 | 54.949850 | 8.066149 | 2.0 | 10.490 | 2 | 34.569 | 10.658 | 30.853 | 2 |
| 2025-05-05T04:05:00 | 54.950563 | 8.066570 | 2.0 | 10.493 | 2 | 34.561 | 10.657 | 30.846 | 2 |
| 2025-05-05T04:06:00 | 54.951307 | 8.067027 | 2.0 | 10.495 | 2 | 34.560 | 10.660 | 30.842 | 2 |
| 2025-05-05T04:07:00 | 54.952003 | 8.067521 | 2.0 | 10.495 | 2 | 34.555 | 10.661 | 30.836 | 2 |
| 2025-05-05T04:08:00 | 54.952694 | 8.068011 | 2.0 | 10.492 | 2 | 34.548 | 10.661 | 30.829 | 2 |
| 2025-05-05T04:09:00 | 54.953381 | 8.068487 | 2.0 | 10.496 | 2 | 34.542 | 10.659 | 30.825 | 2 |
| 2025-05-05T04:10:00 | 54.954061 | 8.068978 | 2.0 | 10.501 | 2 | 34.543 | 10.663 | 30.823 | 2 |
| 2025-05-05T04:11:00 | 54.954752 | 8.069469 | 2.0 | 10.496 | 2 | 34.548 | 10.667 | 30.824 | 2 |
| 2025-05-05T04:12:00 | 54.955459 | 8.069949 | 2.0 | 10.491 | 2 | 34.548 | 10.662 | 30.828 | 2 |
| 2025-05-05T04:13:00 | 54.956183 | 8.070390 | 2.0 | 10.490 | 2 | 34.549 | 10.657 | 30.834 | 2 |
| 2025-05-05T04:14:00 | 54.956918 | 8.070820 | 2.0 | 10.494 | 2 | 34.554 | 10.659 | 30.837 | 2 |
| 2025-05-05T04:15:00 | 54.957695 | 8.071275 | 2.0 | 10.496 | 2 | 34.557 | 10.661 | 30.838 | 2 |
| 2025-05-05T04:16:00 | 54.958479 | 8.071726 | 2.0 | 10.500 | 2 | 34.560 | 10.664 | 30.839 | 2 |
| 2025-05-05T04:17:00 | 54.959195 | 8.072233 | 2.0 | 10.502 | 2 | 34.566 | 10.668 | 30.841 | 2 |
| 2025-05-05T04:18:00 | 54.959914 | 8.072630 | 2.0 | 10.504 | 2 | 34.571 | 10.669 | 30.845 | 2 |
| 2025-05-05T04:19:00 | 54.960591 | 8.073071 | 2.0 | 10.496 | 2 | 34.581 | 10.669 | 30.855 | 2 |
| 2025-05-05T04:20:00 | 54.961226 | 8.073480 | 2.0 | 10.509 | 2 | 34.597 | 10.665 | 30.874 | 2 |
| 2025-05-05T04:21:00 | 54.961863 | 8.073881 | 2.0 | 10.512 | 2 | 34.613 | 10.675 | 30.882 | 2 |
| 2025-05-05T04:22:00 | 54.962479 | 8.074260 | 2.0 | 10.520 | 2 | 34.622 | 10.681 | 30.886 | 2 |
| 2025-05-05T04:23:00 | 54.963065 | 8.074656 | 2.0 | 10.532 | 2 | 34.632 | 10.690 | 30.888 | 2 |
| 2025-05-05T04:24:00 | 54.963651 | 8.075019 | 2.0 | 10.536 | 2 | 34.644 | 10.699 | 30.892 | 2 |
| 2025-05-05T04:25:00 | 54.964252 | 8.075346 | 2.0 | 10.537 | 2 | 34.649 | 10.702 | 30.895 | 2 |
| 2025-05-05T04:26:00 | 54.964859 | 8.075659 | 2.0 | 10.540 | 2 | 34.652 | 10.703 | 30.897 | 2 |
| 2025-05-05T04:27:00 | 54.965479 | 8.076028 | 2.0 | 10.544 | 2 | 34.656 | 10.707 | 30.897 | 2 |
| 2025-05-05T04:28:00 | 54.966079 | 8.076393 | 2.0 | 10.548 | 2 | 34.658 | 10.710 | 30.897 | 2 |
| 2025-05-05T04:29:00 | 54.966660 | 8.076735 | 2.0 | 10.552 | 2 | 34.660 | 10.714 | 30.895 | 2 |
| 2025-05-05T04:30:00 | 54.967265 | 8.077085 | 2.0 | 10.551 | 2 | 34.663 | 10.718 | 30.895 | 2 |
| 2025-05-05T04:31:00 | 54.967883 | 8.077457 | 2.0 | 10.556 | 2 | 34.660 | 10.719 | 30.891 | 2 |
| 2025-05-05T04:32:00 | 54.968458 | 8.077751 | 2.0 | 10.562 | 2 | 34.663 | 10.724 | 30.890 | 2 |
| 2025-05-05T04:33:00 | 54.969045 | 8.078018 | 2.0 | 10.563 | 2 | 34.665 | 10.727 | 30.889 | 2 |
| 2025-05-05T04:34:00 | 54.969650 | 8.078361 | 2.0 | 10.568 | 2 | 34.666 | 10.731 | 30.887 | 2 |
| 2025-05-05T04:35:00 | 54.970287 | 8.078775 | 2.0 | 10.571 | 2 | 34.668 | 10.734 | 30.886 | 2 |
| 2025-05-05T04:36:00 | 54.970938 | 8.079190 | 2.0 | 10.570 | 2 | 34.671 | 10.738 | 30.886 | 2 |
| 2025-05-05T04:37:00 | 54.971577 | 8.079606 | 2.0 | 10.570 | 2 | 34.671 | 10.735 | 30.888 | 2 |
| 2025-05-05T04:38:00 | 54.972209 | 8.079986 | 2.0 | 10.561 | 2 | 34.674 | 10.734 | 30.892 | 2 |
| 2025-05-05T04:39:00 | 54.972853 | 8.080357 | 2.0 | 10.568 | 2 | 34.674 | 10.729 | 30.897 | 2 |
| 2025-05-05T04:40:00 | 54.973490 | 8.080726 | 2.0 | 10.568 | 2 | 34.678 | 10.733 | 30.897 | 2 |
| 2025-05-05T04:41:00 | 54.974111 | 8.081116 | 2.0 | 10.568 | 2 | 34.679 | 10.736 | 30.896 | 2 |
| 2025-05-05T04:42:00 | 54.974736 | 8.081494 | 2.0 | 10.565 | 2 | 34.681 | 10.734 | 30.899 | 2 |
| 2025-05-05T04:43:00 | 54.975362 | 8.081864 | 2.0 | 10.561 | 2 | 34.681 | 10.731 | 30.902 | 2 |
| 2025-05-05T04:44:00 | 54.975982 | 8.082292 | 2.0 | 10.556 | 2 | 34.678 | 10.726 | 30.903 | 2 |
| 2025-05-05T04:45:00 | 54.976600 | 8.082702 | 2.0 | 10.555 | 2 | 34.670 | 10.722 | 30.898 | 2 |
| 2025-05-05T04:46:00 | 54.977217 | 8.083084 | 2.0 | 10.556 | 2 | 34.669 | 10.721 | 30.898 | 2 |
| 2025-05-05T04:47:00 | 54.977803 | 8.083494 | 2.0 | 10.546 | 2 | 34.667 | 10.722 | 30.896 | 2 |
| 2025-05-05T04:48:00 | 54.978353 | 8.083846 | 2.0 | 10.539 | 2 | 34.655 | 10.709 | 30.895 | 2 |
| 2025-05-05T04:49:00 | 54.978896 | 8.084193 | 2.0 | 10.539 | 2 | 34.650 | 10.706 | 30.892 | 2 |
| 2025-05-05T04:50:00 | 54.979434 | 8.084576 | 2.0 | 10.531 | 2 | 34.646 | 10.705 | 30.889 | 2 |
| 2025-05-05T04:51:00 | 54.979995 | 8.084928 | 2.0 | 10.525 | 2 | 34.640 | 10.699 | 30.888 | 2 |
| 2025-05-05T04:52:00 | 54.980563 | 8.085275 | 2.0 | 10.524 | 2 | 34.632 | 10.693 | 30.885 | 2 |
| 2025-05-05T04:53:00 | 54.981120 | 8.085661 | 2.0 | 10.515 | 2 | 34.628 | 10.689 | 30.885 | 2 |
| 2025-05-05T04:54:00 | 54.981690 | 8.086006 | 2.0 | 10.514 | 2 | 34.622 | 10.683 | 30.884 | 2 |
| 2025-05-05T04:55:00 | 54.982269 | 8.086326 | 2.0 | 10.510 | 2 | 34.616 | 10.680 | 30.881 | 2 |
| 2025-05-05T04:56:00 | 54.982826 | 8.086667 | 2.0 | 10.512 | 2 | 34.612 | 10.677 | 30.879 | 2 |
| 2025-05-05T04:57:00 | 54.983388 | 8.086967 | 2.0 | 10.504 | 2 | 34.612 | 10.679 | 30.877 | 2 |
| 2025-05-05T04:58:00 | 54.983893 | 8.087419 | 2.0 | 10.496 | 2 | 34.605 | 10.668 | 30.880 | 2 |
| 2025-05-05T04:59:00 | 54.984433 | 8.087630 | 2.0 | 10.490 | 2 | 34.600 | 10.662 | 30.880 | 2 |
| 2025-05-05T05:00:00 | 54.984917 | 8.088045 | 2.0 | 10.493 | 2 | 34.595 | 10.658 | 30.878 | 2 |
| 2025-05-05T05:01:00 | 54.985430 | 8.088336 | 2.0 | 10.493 | 2 | 34.594 | 10.659 | 30.876 | 2 |
| 2025-05-05T05:02:00 | 54.985974 | 8.088689 | 2.0 | 10.488 | 2 | 34.594 | 10.659 | 30.876 | 2 |
| 2025-05-05T05:03:00 | 54.986549 | 8.089083 | 2.0 | 10.479 | 2 | 34.588 | 10.652 | 30.876 | 2 |
| 2025-05-05T05:04:00 | 54.987131 | 8.089453 | 2.0 | 10.476 | 2 | 34.582 | 10.647 | 30.875 | 2 |
| 2025-05-05T05:05:00 | 54.987701 | 8.089883 | 2.0 | 10.461 | 2 | 34.577 | 10.642 | 30.874 | 2 |
| 2025-05-05T05:06:00 | 54.988300 | 8.090267 | 2.0 | 10.461 | 2 | 34.566 | 10.629 | 30.874 | 2 |
| 2025-05-05T05:07:00 | 54.988846 | 8.090710 | 2.0 | 10.454 | 2 | 34.564 | 10.628 | 30.873 | 2 |
| 2025-05-05T05:08:00 | 54.989433 | 8.091099 | 2.0 | 10.442 | 2 | 34.555 | 10.618 | 30.873 | 2 |
| 2025-05-05T05:09:00 | 54.990016 | 8.091522 | 2.0 | 10.438 | 2 | 34.544 | 10.608 | 30.870 | 2 |
| 2025-05-05T05:10:00 | 54.990628 | 8.091940 | 2.0 | 10.435 | 2 | 34.541 | 10.605 | 30.870 | 2 |
| 2025-05-05T05:11:00 | 54.991191 | 8.092460 | 2.0 | 10.425 | 2 | 34.537 | 10.601 | 30.869 | 2 |
| 2025-05-05T05:12:00 | 54.991757 | 8.092906 | 2.0 | 10.422 | 2 | 34.530 | 10.592 | 30.870 | 2 |
| 2025-05-05T05:13:00 | 54.992302 | 8.093405 | 2.0 | 10.420 | 2 | 34.527 | 10.591 | 30.868 | 2 |
| 2025-05-05T05:14:00 | 54.992846 | 8.093909 | 2.0 | 10.419 | 2 | 34.526 | 10.587 | 30.870 | 2 |
| 2025-05-05T05:15:00 | 54.993382 | 8.094413 | 2.0 | 10.417 | 2 | 34.527 | 10.587 | 30.871 | 2 |
| 2025-05-05T05:16:00 | 54.993888 | 8.094959 | 2.0 | 10.412 | 2 | 34.526 | 10.583 | 30.873 | 2 |
| 2025-05-05T05:17:00 | 54.994443 | 8.095356 | 2.0 | 10.408 | 2 | 34.523 | 10.579 | 30.874 | 2 |
| 2025-05-05T05:18:00 | 54.994966 | 8.095878 | 2.0 | 10.403 | 2 | 34.520 | 10.576 | 30.873 | 2 |
| 2025-05-05T05:19:00 | 54.995461 | 8.096434 | 2.0 | 10.396 | 2 | 34.516 | 10.569 | 30.875 | 2 |
| 2025-05-05T05:20:00 | 54.995958 | 8.096944 | 2.0 | 10.392 | 2 | 34.511 | 10.563 | 30.875 | 2 |
| 2025-05-05T05:21:00 | 54.996504 | 8.097415 | 2.0 | 10.390 | 2 | 34.505 | 10.559 | 30.873 | 2 |
| 2025-05-05T05:22:00 | 54.997026 | 8.097927 | 2.0 | 10.382 | 2 | 34.502 | 10.557 | 30.872 | 2 |
| 2025-05-05T05:23:00 | 54.997478 | 8.098318 | 2.0 | 10.382 | 2 | 34.500 | 10.551 | 30.875 | 2 |
| 2025-05-05T05:24:00 | 54.997841 | 8.098691 | 2.0 | 10.381 | 2 | 34.501 | 10.550 | 30.876 | 2 |
| 2025-05-05T05:25:00 | 54.998159 | 8.098885 | 2.0 | 10.382 | 2 | 34.500 | 10.549 | 30.876 | 2 |
| 2025-05-05T05:26:00 | 54.998455 | 8.098917 | 2.0 | 10.381 | 2 | 34.499 | 10.548 | 30.876 | 2 |
| 2025-05-05T05:27:00 | 54.998703 | 8.099050 | 2.0 | 10.379 | 2 | 34.499 | 10.547 | 30.877 | 2 |
| 2025-05-05T05:28:00 | 54.998953 | 8.099039 | 2.0 | 10.385 | 2 | 34.502 | 10.548 | 30.879 | 2 |
| 2025-05-05T05:29:00 | 54.999189 | 8.098955 | 2.0 | 10.383 | 2 | 34.509 | 10.552 | 30.883 | 2 |
| 2025-05-05T05:30:00 | 54.999356 | 8.098950 | 2.0 | 10.382 | 2 | 34.504 | 10.550 | 30.879 | 2 |
| 2025-05-05T05:31:00 | 54.999329 | 8.099111 | 2.0 | 10.375 | 2 | 34.502 | 10.549 | 30.878 | 2 |
| 2025-05-05T05:32:00 | 54.999276 | 8.099321 | 2.0 | 10.368 | 2 | 34.496 | 10.541 | 30.879 | 2 |
| 2025-05-05T05:33:00 | 54.999401 | 8.099642 | 2.0 | 10.359 | 2 | 34.490 | 10.536 | 30.877 | 2 |
| 2025-05-05T05:34:00 | 54.999586 | 8.099888 | 2.0 | 10.357 | 2 | 34.480 | 10.526 | 30.876 | 2 |
| 2025-05-05T05:35:00 | 54.999713 | 8.100015 | 2.0 | 10.358 | 2 | 34.479 | 10.525 | 30.876 | 2 |
| 2025-05-05T05:36:00 | 54.999762 | 8.099923 | 2.0 | 10.359 | 2 | 34.479 | 10.525 | 30.876 | 2 |
| 2025-05-05T05:37:00 | 54.999811 | 8.099528 | 2.0 | 10.356 | 2 | 34.479 | 10.524 | 30.877 | 2 |
| 2025-05-05T05:38:00 | 54.999891 | 8.099030 | 2.0 | 10.359 | 2 | 34.478 | 10.524 | 30.876 | 2 |
| 2025-05-05T05:39:00 | 55.000025 | 8.098634 | 2.0 | 10.369 | 2 | 34.481 | 10.527 | 30.876 | 2 |
| 2025-05-05T05:40:00 | 55.000163 | 8.098596 | 2.0 | 10.377 | 2 | 34.491 | 10.537 | 30.878 | 2 |
| 2025-05-05T05:41:00 | 55.000213 | 8.098728 | 2.0 | 10.380 | 2 | 34.499 | 10.545 | 30.879 | 2 |
| 2025-05-05T05:42:00 | 55.000218 | 8.098899 | 2.0 | 10.373 | 2 | 34.501 | 10.546 | 30.880 | 2 |
| 2025-05-05T05:43:00 | 55.000210 | 8.099062 | 2.0 | 10.369 | 2 | 34.494 | 10.539 | 30.879 | 2 |
| 2025-05-05T05:44:00 | 55.000140 | 8.099244 | 2.0 | 10.358 | 2 | 34.488 | 10.533 | 30.878 | 2 |
| 2025-05-05T05:45:00 | 55.000047 | 8.099358 | 2.0 | 10.359 | 2 | 34.480 | 10.526 | 30.876 | 2 |
| 2025-05-05T05:46:00 | 54.999963 | 8.099403 | 2.0 | 10.364 | 2 | 34.480 | 10.527 | 30.875 | 2 |
| 2025-05-05T05:47:00 | 54.999918 | 8.099412 | 2.0 | 10.366 | 2 | 34.482 | 10.530 | 30.875 | 2 |
| 2025-05-05T05:48:00 | 54.999907 | 8.099470 | 2.0 | 10.369 | 2 | 34.485 | 10.536 | 30.872 | 2 |
| 2025-05-05T05:49:00 | 54.999911 | 8.099560 | 2.0 | 10.373 | 2 | 34.494 | 10.548 | 30.871 | 2 |
| 2025-05-05T05:50:00 | 54.999989 | 8.099672 | 2.0 | 10.375 | 2 | 34.501 | 10.557 | 30.871 | 2 |
| 2025-05-05T05:51:00 | 55.000073 | 8.099636 | 2.0 | 10.373 | 2 | 34.503 | 10.560 | 30.870 | 2 |
| 2025-05-05T05:52:00 | 55.000004 | 8.099429 | 2.0 | 10.374 | 2 | 34.504 | 10.561 | 30.870 | 2 |
| 2025-05-05T05:53:00 | 54.999968 | 8.099123 | 2.0 | 10.379 | 2 | 34.507 | 10.564 | 30.871 | 2 |
| 2025-05-05T05:54:00 | 55.000008 | 8.098949 | 2.0 | 10.374 | 2 | 34.512 | 10.569 | 30.871 | 2 |
| 2025-05-05T05:55:00 | 54.999996 | 8.098761 | 2.0 | 10.370 | 2 | 34.510 | 10.565 | 30.873 | 2 |
| 2025-05-05T05:56:00 | 54.999973 | 8.098285 | 2.0 | 10.370 | 2 | 34.509 | 10.563 | 30.873 | 2 |
| 2025-05-05T05:57:00 | 54.999897 | 8.097772 | 2.0 | 10.372 | 2 | 34.509 | 10.564 | 30.873 | 2 |
| 2025-05-05T05:58:00 | 54.999868 | 8.097193 | 2.0 | 10.373 | 2 | 34.512 | 10.566 | 30.874 | 2 |
| 2025-05-05T05:59:00 | 54.999925 | 8.096624 | 2.0 | 10.377 | 2 | 34.514 | 10.568 | 30.874 | 2 |
| 2025-05-05T06:00:00 | 54.999960 | 8.096126 | 2.0 | 10.384 | 2 | 34.519 | 10.573 | 30.875 | 2 |
| 2025-05-05T06:01:00 | 55.000022 | 8.095649 | 2.0 | 10.387 | 2 | 34.526 | 10.578 | 30.878 | 2 |
| 2025-05-05T06:02:00 | 55.000232 | 8.095399 | 2.0 | 10.390 | 2 | 34.528 | 10.583 | 30.875 | 2 |
| 2025-05-05T06:03:00 | 55.000320 | 8.095427 | 2.0 | 10.392 | 2 | 34.533 | 10.585 | 30.879 | 2 |
| 2025-05-05T06:04:00 | 55.000312 | 8.095394 | 2.0 | 10.396 | 2 | 34.536 | 10.587 | 30.880 | 2 |
| 2025-05-05T06:05:00 | 55.000312 | 8.095202 | 2.0 | 10.396 | 2 | 34.539 | 10.591 | 30.879 | 2 |
| 2025-05-05T06:06:00 | 55.000346 | 8.094919 | 2.0 | 10.399 | 2 | 34.541 | 10.591 | 30.881 | 2 |
| 2025-05-05T06:07:00 | 55.000544 | 8.094923 | 2.0 | 10.396 | 2 | 34.544 | 10.594 | 30.882 | 2 |
| 2025-05-05T06:08:00 | 55.000774 | 8.095160 | 2.0 | 10.395 | 2 | 34.544 | 10.594 | 30.882 | 2 |
| 2025-05-05T06:09:00 | 55.000823 | 8.095248 | 2.0 | 10.395 | 2 | 34.544 | 10.591 | 30.884 | 2 |
| 2025-05-05T06:10:00 | 55.000790 | 8.094952 | 2.0 | 10.393 | 2 | 34.545 | 10.592 | 30.885 | 2 |
| 2025-05-05T06:11:00 | 55.000733 | 8.094436 | 2.0 | 10.394 | 2 | 34.544 | 10.592 | 30.884 | 2 |
| 2025-05-05T06:12:00 | 55.000689 | 8.093886 | 2.0 | 10.396 | 2 | 34.545 | 10.593 | 30.884 | 2 |
| 2025-05-05T06:13:00 | 55.000669 | 8.093321 | 2.0 | 10.397 | 2 | 34.547 | 10.595 | 30.884 | 2 |
| 2025-05-05T06:14:00 | 55.000691 | 8.092776 | 2.0 | 10.397 | 2 | 34.548 | 10.596 | 30.884 | 2 |
| 2025-05-05T06:15:00 | 55.000755 | 8.092231 | 2.0 | 10.395 | 2 | 34.549 | 10.596 | 30.885 | 2 |
| 2025-05-05T06:16:00 | 55.000855 | 8.091680 | 2.0 | 10.394 | 2 | 34.550 | 10.594 | 30.888 | 2 |
| 2025-05-05T06:17:00 | 55.001024 | 8.091248 | 2.0 | 10.397 | 2 | 34.553 | 10.593 | 30.892 | 2 |
| 2025-05-05T06:18:00 | 55.001058 | 8.091117 | 2.0 | 10.399 | 2 | 34.560 | 10.598 | 30.894 | 2 |
| 2025-05-05T06:19:00 | 55.001088 | 8.091057 | 2.0 | 10.400 | 2 | 34.564 | 10.600 | 30.897 | 2 |
| 2025-05-05T06:20:00 | 55.001124 | 8.090907 | 2.0 | 10.402 | 2 | 34.566 | 10.601 | 30.898 | 2 |
| 2025-05-05T06:21:00 | 55.001195 | 8.090869 | 2.0 | 10.404 | 2 | 34.567 | 10.601 | 30.899 | 2 |
| 2025-05-05T06:22:00 | 55.001482 | 8.091271 | 2.0 | 10.398 | 2 | 34.570 | 10.604 | 30.899 | 2 |
| 2025-05-05T06:23:00 | 55.002041 | 8.092212 | 2.0 | 10.392 | 2 | 34.563 | 10.599 | 30.897 | 2 |
| 2025-05-05T06:24:00 | 55.002701 | 8.093407 | 2.0 | 10.390 | 2 | 34.557 | 10.594 | 30.895 | 2 |
| 2025-05-05T06:25:00 | 55.003210 | 8.094355 | 2.0 | 10.388 | 2 | 34.551 | 10.591 | 30.891 | 2 |
| 2025-05-05T06:26:00 | 55.003599 | 8.094841 | 2.0 | 10.390 | 2 | 34.548 | 10.591 | 30.888 | 2 |
| 2025-05-05T06:27:00 | 55.003873 | 8.094943 | 2.0 | 10.386 | 2 | 34.547 | 10.592 | 30.887 | 2 |
| 2025-05-05T06:28:00 | 55.004066 | 8.094696 | 2.0 | 10.382 | 2 | 34.546 | 10.590 | 30.887 | 2 |
| 2025-05-05T06:29:00 | 55.004239 | 8.094270 | 2.0 | 10.380 | 2 | 34.545 | 10.584 | 30.891 | 2 |
| 2025-05-05T06:30:00 | 55.004298 | 8.093998 | 2.0 | 10.381 | 2 | 34.543 | 10.582 | 30.891 | 2 |
| 2025-05-05T06:31:00 | 55.004357 | 8.093954 | 2.0 | 10.381 | 2 | 34.537 | 10.574 | 30.892 | 2 |
| 2025-05-05T06:32:00 | 55.004440 | 8.093949 | 2.0 | 10.381 | 2 | 34.533 | 10.569 | 30.892 | 2 |
| 2025-05-05T06:33:00 | 55.004507 | 8.093968 | 2.0 | 10.383 | 2 | 34.532 | 10.567 | 30.893 | 2 |
| 2025-05-05T06:34:00 | 55.004569 | 8.093972 | 2.0 | 10.383 | 2 | 34.532 | 10.566 | 30.894 | 2 |
| 2025-05-05T06:35:00 | 55.004625 | 8.093960 | 2.0 | 10.386 | 2 | 34.530 | 10.564 | 30.893 | 2 |
| 2025-05-05T06:36:00 | 55.004644 | 8.093997 | 2.0 | 10.391 | 2 | 34.530 | 10.566 | 30.892 | 2 |
| 2025-05-05T06:37:00 | 55.004639 | 8.094031 | 2.0 | 10.391 | 2 | 34.532 | 10.571 | 30.889 | 2 |
| 2025-05-05T06:38:00 | 55.004607 | 8.094054 | 2.0 | 10.388 | 2 | 34.531 | 10.568 | 30.891 | 2 |
| 2025-05-05T06:39:00 | 55.004567 | 8.094021 | 2.0 | 10.397 | 2 | 34.531 | 10.569 | 30.890 | 2 |
| 2025-05-05T06:40:00 | 55.004542 | 8.093897 | 2.0 | 10.396 | 2 | 34.532 | 10.574 | 30.887 | 2 |
| 2025-05-05T06:41:00 | 55.004528 | 8.093794 | 2.0 | 10.404 | 2 | 34.532 | 10.574 | 30.887 | 2 |
| 2025-05-05T06:42:00 | 55.004529 | 8.093757 | 2.0 | 10.405 | 2 | 34.537 | 10.581 | 30.886 | 2 |
| 2025-05-05T06:43:00 | 55.004647 | 8.093776 | 2.0 | 10.405 | 2 | 34.539 | 10.582 | 30.887 | 2 |
| 2025-05-05T06:44:00 | 55.004805 | 8.093756 | 2.0 | 10.399 | 2 | 34.537 | 10.579 | 30.888 | 2 |
| 2025-05-05T06:45:00 | 55.004927 | 8.093665 | 2.0 | 10.398 | 2 | 34.532 | 10.575 | 30.886 | 2 |
| 2025-05-05T06:46:00 | 55.005000 | 8.093504 | 2.0 | 10.404 | 2 | 34.532 | 10.575 | 30.886 | 2 |
| 2025-05-05T06:47:00 | 55.005021 | 8.093346 | 2.0 | 10.403 | 2 | 34.537 | 10.579 | 30.888 | 2 |
| 2025-05-05T06:48:00 | 55.005108 | 8.093188 | 2.0 | 10.398 | 2 | 34.536 | 10.576 | 30.889 | 2 |
| 2025-05-05T06:49:00 | 55.005382 | 8.093240 | 2.0 | 10.394 | 2 | 34.533 | 10.572 | 30.890 | 2 |
| 2025-05-05T06:50:00 | 55.005711 | 8.093428 | 2.0 | 10.392 | 2 | 34.530 | 10.570 | 30.888 | 2 |
| 2025-05-05T06:51:00 | 55.006027 | 8.093556 | 2.0 | 10.393 | 2 | 34.529 | 10.567 | 30.890 | 2 |
| 2025-05-05T06:52:00 | 55.006210 | 8.093613 | 2.0 | 10.394 | 2 | 34.530 | 10.567 | 30.891 | 2 |
| 2025-05-05T06:53:00 | 55.006630 | 8.093796 | 2.0 | 10.390 | 2 | 34.529 | 10.567 | 30.890 | 2 |
| 2025-05-05T06:54:00 | 55.007384 | 8.094129 | 2.0 | 10.382 | 2 | 34.526 | 10.565 | 30.889 | 2 |
| 2025-05-05T06:55:00 | 55.008207 | 8.094510 | 2.0 | 10.377 | 2 | 34.521 | 10.556 | 30.891 | 2 |
| 2025-05-05T06:56:00 | 55.009044 | 8.094855 | 2.0 | 10.376 | 2 | 34.519 | 10.551 | 30.893 | 2 |
| 2025-05-05T06:57:00 | 55.009855 | 8.095179 | 2.0 | 10.366 | 2 | 34.519 | 10.548 | 30.896 | 2 |
| 2025-05-05T06:58:00 | 55.010653 | 8.095437 | 2.0 | 10.361 | 2 | 34.518 | 10.540 | 30.902 | 2 |
| 2025-05-05T06:59:00 | 55.011420 | 8.095845 | 2.0 | 10.358 | 2 | 34.517 | 10.536 | 30.904 | 2 |
| 2025-05-05T07:00:00 | 55.012133 | 8.096301 | 2.0 | 10.350 | 2 | 34.515 | 10.532 | 30.906 | 2 |
| 2025-05-05T07:01:00 | 55.012733 | 8.096652 | 2.0 | 10.344 | 2 | 34.510 | 10.523 | 30.908 | 2 |
| 2025-05-05T07:02:00 | 55.013224 | 8.096885 | 2.0 | 10.339 | 2 | 34.506 | 10.518 | 30.909 | 2 |
| 2025-05-05T07:03:00 | 55.013615 | 8.097060 | 2.0 | 10.336 | 2 | 34.501 | 10.513 | 30.908 | 2 |
| 2025-05-05T07:04:00 | 55.013977 | 8.097145 | 2.0 | 10.336 | 2 | 34.500 | 10.510 | 30.909 | 2 |
| 2025-05-05T07:05:00 | 55.014288 | 8.097223 | 2.0 | 10.334 | 2 | 34.500 | 10.509 | 30.910 | 2 |
| 2025-05-05T07:06:00 | 55.014554 | 8.097252 | 2.0 | 10.335 | 2 | 34.499 | 10.508 | 30.910 | 2 |
| 2025-05-05T07:07:00 | 55.014789 | 8.097280 | 2.0 | 10.335 | 2 | 34.500 | 10.509 | 30.910 | 2 |
| 2025-05-05T07:08:00 | 55.014993 | 8.097283 | 2.0 | 10.331 | 2 | 34.500 | 10.509 | 30.910 | 2 |
| 2025-05-05T07:09:00 | 55.015125 | 8.097161 | 2.0 | 10.332 | 2 | 34.497 | 10.504 | 30.911 | 2 |
| 2025-05-05T07:10:00 | 55.015190 | 8.096961 | 2.0 | 10.335 | 2 | 34.498 | 10.505 | 30.912 | 2 |
| 2025-05-05T07:11:00 | 55.015190 | 8.096713 | 2.0 | 10.337 | 2 | 34.502 | 10.510 | 30.911 | 2 |
| 2025-05-05T07:12:00 | 55.015233 | 8.096367 | 2.0 | 10.335 | 2 | 34.502 | 10.509 | 30.912 | 2 |
| 2025-05-05T07:13:00 | 55.015411 | 8.096129 | 2.0 | 10.332 | 2 | 34.501 | 10.507 | 30.913 | 2 |
| 2025-05-05T07:14:00 | 55.015631 | 8.096187 | 2.0 | 10.336 | 2 | 34.499 | 10.505 | 30.913 | 2 |
| 2025-05-05T07:15:00 | 55.015828 | 8.096304 | 2.0 | 10.340 | 2 | 34.502 | 10.508 | 30.913 | 2 |
| 2025-05-05T07:16:00 | 55.015971 | 8.096433 | 2.0 | 10.340 | 2 | 34.505 | 10.511 | 30.913 | 2 |
| 2025-05-05T07:17:00 | 55.016099 | 8.096500 | 2.0 | 10.339 | 2 | 34.505 | 10.510 | 30.914 | 2 |
| 2025-05-05T07:18:00 | 55.016196 | 8.096531 | 2.0 | 10.338 | 2 | 34.505 | 10.511 | 30.913 | 2 |
| 2025-05-05T07:19:00 | 55.016258 | 8.096613 | 2.0 | 10.337 | 2 | 34.502 | 10.508 | 30.913 | 2 |
| 2025-05-05T07:20:00 | 55.016581 | 8.096832 | 2.0 | 10.331 | 2 | 34.501 | 10.508 | 30.912 | 2 |
| 2025-05-05T07:21:00 | 55.017299 | 8.097146 | 2.0 | 10.325 | 2 | 34.498 | 10.503 | 30.913 | 2 |
| 2025-05-05T07:22:00 | 55.018060 | 8.097474 | 2.0 | 10.321 | 2 | 34.495 | 10.497 | 30.915 | 2 |
| 2025-05-05T07:23:00 | 55.018763 | 8.097732 | 2.0 | 10.318 | 2 | 34.493 | 10.492 | 30.918 | 2 |
| 2025-05-05T07:24:00 | 55.019399 | 8.097965 | 2.0 | 10.311 | 2 | 34.493 | 10.488 | 30.921 | 2 |
| 2025-05-05T07:25:00 | 55.019984 | 8.098145 | 2.0 | 10.309 | 2 | 34.490 | 10.483 | 30.922 | 2 |
| 2025-05-05T07:26:00 | 55.020587 | 8.098290 | 2.0 | 10.305 | 2 | 34.489 | 10.480 | 30.924 | 2 |
| 2025-05-05T07:27:00 | 55.021276 | 8.098500 | 2.0 | 10.301 | 2 | 34.488 | 10.477 | 30.925 | 2 |
| 2025-05-05T07:28:00 | 55.022016 | 8.098747 | 2.0 | 10.297 | 2 | 34.485 | 10.473 | 30.926 | 2 |
| 2025-05-05T07:29:00 | 55.022710 | 8.098983 | 2.0 | 10.290 | 2 | 34.483 | 10.468 | 30.928 | 2 |
| 2025-05-05T07:30:00 | 55.023276 | 8.099071 | 2.0 | 10.285 | 2 | 34.479 | 10.460 | 30.931 | 2 |
| 2025-05-05T07:31:00 | 55.023731 | 8.099049 | 2.0 | 10.281 | 2 | 34.475 | 10.455 | 30.931 | 2 |
| 2025-05-05T07:32:00 | 55.024091 | 8.098990 | 2.0 | 10.284 | 2 | 34.475 | 10.454 | 30.932 | 2 |
| 2025-05-05T07:33:00 | 55.024375 | 8.098988 | 2.0 | 10.286 | 2 | 34.478 | 10.457 | 30.932 | 2 |
| 2025-05-05T07:34:00 | 55.024607 | 8.099097 | 2.0 | 10.281 | 2 | 34.480 | 10.457 | 30.934 | 2 |
| 2025-05-05T07:35:00 | 55.024783 | 8.099218 | 2.0 | 10.282 | 2 | 34.476 | 10.452 | 30.935 | 2 |
| 2025-05-05T07:36:00 | 55.024936 | 8.099324 | 2.0 | 10.283 | 2 | 34.475 | 10.453 | 30.933 | 2 |
| 2025-05-05T07:37:00 | 55.025130 | 8.099478 | 2.0 | 10.283 | 2 | 34.476 | 10.455 | 30.932 | 2 |
| 2025-05-05T07:38:00 | 55.025635 | 8.099645 | 2.0 | 10.276 | 2 | 34.474 | 10.453 | 30.932 | 2 |
| 2025-05-05T07:39:00 | 55.026305 | 8.099810 | 2.0 | 10.273 | 2 | 34.470 | 10.449 | 30.931 | 2 |
| 2025-05-05T07:40:00 | 55.027080 | 8.100067 | 2.0 | 10.270 | 2 | 34.468 | 10.445 | 30.933 | 2 |
| 2025-05-05T07:41:00 | 55.027912 | 8.100359 | 2.0 | 10.270 | 2 | 34.466 | 10.443 | 30.932 | 2 |
| 2025-05-05T07:42:00 | 55.028768 | 8.100623 | 2.0 | 10.266 | 2 | 34.467 | 10.440 | 30.936 | 2 |
| 2025-05-05T07:43:00 | 55.029609 | 8.100911 | 2.0 | 10.241 | 2 | 34.466 | 10.437 | 30.938 | 2 |
| 2025-05-05T07:44:00 | 55.030411 | 8.101174 | 2.0 | 10.216 | 2 | 34.430 | 10.410 | 30.925 | 2 |
| 2025-05-05T07:45:00 | 55.031188 | 8.101441 | 2.0 | 10.192 | 2 | 34.392 | 10.387 | 30.906 | 2 |
| 2025-05-05T07:46:00 | 55.031992 | 8.101677 | 2.0 | 10.179 | 2 | 34.338 | 10.363 | 30.873 | 2 |
| 2025-05-05T07:47:00 | 55.032790 | 8.101931 | 2.0 | 10.177 | 2 | 34.314 | 10.352 | 30.858 | 2 |
| 2025-05-05T07:48:00 | 55.033573 | 8.102202 | 2.0 | 10.175 | 2 | 34.301 | 10.349 | 30.848 | 2 |
| 2025-05-05T07:49:00 | 55.034350 | 8.102495 | 2.0 | 10.169 | 2 | 34.296 | 10.345 | 30.846 | 2 |
| 2025-05-05T07:50:00 | 55.035114 | 8.102713 | 2.0 | 10.168 | 2 | 34.286 | 10.340 | 30.840 | 2 |
| 2025-05-05T07:51:00 | 55.035744 | 8.102717 | 2.0 | 10.168 | 2 | 34.276 | 10.340 | 30.830 | 2 |
| 2025-05-05T07:52:00 | 55.036245 | 8.102636 | 2.0 | 10.169 | 2 | 34.268 | 10.340 | 30.822 | 2 |
| 2025-05-05T07:53:00 | 55.036288 | 8.102905 | 2.0 | 10.173 | 2 | 34.268 | 10.341 | 30.822 | 2 |
| 2025-05-05T07:54:00 | 55.035784 | 8.103262 | 2.0 | 10.177 | 2 | 34.269 | 10.345 | 30.819 | 2 |
| 2025-05-05T07:55:00 | 55.034946 | 8.103351 | 2.0 | 10.177 | 2 | 34.283 | 10.347 | 30.832 | 2 |
| 2025-05-05T07:56:00 | 55.033653 | 8.103196 | 2.0 | 10.187 | 2 | 34.297 | 10.351 | 30.842 | 2 |
| 2025-05-05T07:57:00 | 55.032067 | 8.102978 | 2.0 | 10.438 | 2 | 34.275 | 10.411 | 30.769 | 2 |
| 2025-05-05T07:58:00 | 55.030353 | 8.102717 | 2.0 | 10.452 | 2 | 34.161 | 10.594 | 30.502 | 2 |
| 2025-05-05T07:59:00 | 55.028564 | 8.102458 | 2.0 | 10.487 | 2 | 34.163 | 10.620 | 30.483 | 2 |
| 2025-05-05T08:00:00 | 55.026735 | 8.102187 | 2.0 | 10.525 | 2 | 34.166 | 10.660 | 30.452 | 2 |
| 2025-05-05T08:01:00 | 55.024884 | 8.101936 | 2.0 | 10.527 | 2 | 34.169 | 10.694 | 30.427 | 2 |
| 2025-05-05T08:02:00 | 55.023028 | 8.101668 | 2.0 | 10.527 | 2 | 34.177 | 10.695 | 30.434 | 2 |
| 2025-05-05T08:03:00 | 55.021164 | 8.101429 | 2.0 | 10.496 | 2 | 34.185 | 10.695 | 30.442 | 2 |
| 2025-05-05T08:04:00 | 55.019292 | 8.101194 | 2.0 | 10.457 | 2 | 34.191 | 10.662 | 30.475 | 2 |
| 2025-05-05T08:05:00 | 55.017412 | 8.100963 | 2.0 | 10.382 | 2 | 34.195 | 10.617 | 30.517 | 2 |
| 2025-05-05T08:06:00 | 55.015532 | 8.100756 | 2.0 | 10.343 | 2 | 34.223 | 10.546 | 30.604 | 2 |
| 2025-05-05T08:07:00 | 55.013645 | 8.100565 | 2.0 | 10.324 | 2 | 34.231 | 10.514 | 30.639 | 2 |
| 2025-05-05T08:08:00 | 55.011754 | 8.100397 | 2.0 | 10.328 | 2 | 34.247 | 10.500 | 30.666 | 2 |
| 2025-05-05T08:09:00 | 55.009863 | 8.100253 | 2.0 | 10.335 | 2 | 34.274 | 10.500 | 30.693 | 2 |
| 2025-05-05T08:10:00 | 55.007961 | 8.100102 | 2.0 | 10.348 | 2 | 34.283 | 10.509 | 30.695 | 2 |
| 2025-05-05T08:11:00 | 55.006060 | 8.099955 | 2.0 | 10.371 | 2 | 34.295 | 10.523 | 30.695 | 2 |
| 2025-05-05T08:12:00 | 55.004234 | 8.099806 | 2.0 | 10.386 | 2 | 34.332 | 10.544 | 30.714 | 2 |
| 2025-05-05T08:13:00 | 55.002650 | 8.099636 | 2.0 | 10.425 | 2 | 34.375 | 10.562 | 30.741 | 2 |
| 2025-05-05T08:14:00 | 55.002046 | 8.098401 | 2.0 | 10.445 | 2 | 34.444 | 10.599 | 30.779 | 2 |
| 2025-05-05T08:15:00 | 55.002098 | 8.097042 | 2.0 | 10.450 | 2 | 34.477 | 10.617 | 30.796 | 2 |
| 2025-05-05T08:16:00 | 55.002207 | 8.095756 | 2.0 | 10.456 | 2 | 34.485 | 10.619 | 30.802 | 2 |
| 2025-05-05T08:17:00 | 55.002309 | 8.094434 | 2.0 | 10.455 | 2 | 34.493 | 10.624 | 30.806 | 2 |
| 2025-05-05T08:18:00 | 55.002584 | 8.093476 | 2.0 | 10.461 | 2 | 34.499 | 10.626 | 30.810 | 2 |
| 2025-05-05T08:19:00 | 55.002895 | 8.092934 | 2.0 | 10.465 | 2 | 34.505 | 10.630 | 30.813 | 2 |
| 2025-05-05T08:20:00 | 55.003207 | 8.092535 | 2.0 | 10.448 | 2 | 34.497 | 10.629 | 30.806 | 2 |
| 2025-05-05T08:21:00 | 55.003506 | 8.092263 | 2.0 | 10.439 | 2 | 34.474 | 10.616 | 30.794 | 2 |
| 2025-05-05T08:22:00 | 55.003794 | 8.092140 | 2.0 | 10.438 | 2 | 34.454 | 10.609 | 30.780 | 2 |
| 2025-05-05T08:23:00 | 55.004078 | 8.092133 | 2.0 | 10.434 | 2 | 34.446 | 10.608 | 30.773 | 2 |
| 2025-05-05T08:24:00 | 55.004358 | 8.092162 | 2.0 | 10.427 | 2 | 34.434 | 10.603 | 30.765 | 2 |
| 2025-05-05T08:25:00 | 55.004608 | 8.092199 | 2.0 | 10.425 | 2 | 34.423 | 10.596 | 30.760 | 2 |
| 2025-05-05T08:26:00 | 55.004829 | 8.092237 | 2.0 | 10.420 | 2 | 34.414 | 10.593 | 30.754 | 2 |
| 2025-05-05T08:27:00 | 55.005023 | 8.092271 | 2.0 | 10.418 | 2 | 34.410 | 10.589 | 30.753 | 2 |
| 2025-05-05T08:28:00 | 55.005177 | 8.092304 | 2.0 | 10.424 | 2 | 34.407 | 10.589 | 30.750 | 2 |
| 2025-05-05T08:29:00 | 55.005288 | 8.092275 | 2.0 | 10.423 | 2 | 34.406 | 10.592 | 30.747 | 2 |
| 2025-05-05T08:30:00 | 55.005381 | 8.092213 | 2.0 | 10.426 | 2 | 34.400 | 10.592 | 30.741 | 2 |
| 2025-05-05T08:31:00 | 55.005462 | 8.092128 | 2.0 | 10.426 | 2 | 34.399 | 10.594 | 30.738 | 2 |
| 2025-05-05T08:32:00 | 55.005528 | 8.092055 | 2.0 | 10.425 | 2 | 34.400 | 10.596 | 30.737 | 2 |
| 2025-05-05T08:33:00 | 55.005567 | 8.091972 | 2.0 | 10.418 | 2 | 34.395 | 10.592 | 30.736 | 2 |
| 2025-05-05T08:34:00 | 55.005588 | 8.091910 | 2.0 | 10.424 | 2 | 34.394 | 10.587 | 30.739 | 2 |
| 2025-05-05T08:35:00 | 55.005612 | 8.091842 | 2.0 | 10.428 | 2 | 34.395 | 10.592 | 30.736 | 2 |
| 2025-05-05T08:36:00 | 55.005633 | 8.091727 | 2.0 | 10.426 | 2 | 34.408 | 10.596 | 30.745 | 2 |
| 2025-05-05T08:37:00 | 55.005647 | 8.091555 | 2.0 | 10.429 | 2 | 34.410 | 10.595 | 30.748 | 2 |
| 2025-05-05T08:38:00 | 55.005650 | 8.091358 | 2.0 | 10.429 | 2 | 34.413 | 10.597 | 30.749 | 2 |
| 2025-05-05T08:39:00 | 55.005627 | 8.091205 | 2.0 | 10.436 | 2 | 34.417 | 10.599 | 30.752 | 2 |
| 2025-05-05T08:40:00 | 55.005582 | 8.091085 | 2.0 | 10.443 | 2 | 34.424 | 10.606 | 30.753 | 2 |
| 2025-05-05T08:41:00 | 55.005579 | 8.091009 | 2.0 | 10.443 | 2 | 34.431 | 10.610 | 30.756 | 2 |
| 2025-05-05T08:42:00 | 55.005613 | 8.090981 | 2.0 | 10.448 | 2 | 34.437 | 10.613 | 30.760 | 2 |
| 2025-05-05T08:43:00 | 55.005696 | 8.090986 | 2.0 | 10.449 | 2 | 34.442 | 10.617 | 30.761 | 2 |
| 2025-05-05T08:44:00 | 55.005799 | 8.090988 | 2.0 | 10.447 | 2 | 34.433 | 10.615 | 30.754 | 2 |
| 2025-05-05T08:45:00 | 55.005889 | 8.090999 | 2.0 | 10.440 | 2 | 34.435 | 10.615 | 30.756 | 2 |
| 2025-05-05T08:46:00 | 55.005967 | 8.091030 | 2.0 | 10.444 | 2 | 34.434 | 10.609 | 30.760 | 2 |
| 2025-05-05T08:47:00 | 55.006042 | 8.091049 | 2.0 | 10.450 | 2 | 34.437 | 10.615 | 30.758 | 2 |
| 2025-05-05T08:48:00 | 55.006135 | 8.090999 | 2.0 | 10.449 | 2 | 34.435 | 10.616 | 30.755 | 2 |
| 2025-05-05T08:49:00 | 55.006214 | 8.090945 | 2.0 | 10.451 | 2 | 34.435 | 10.618 | 30.754 | 2 |
| 2025-05-05T08:50:00 | 55.006229 | 8.090940 | 2.0 | 10.450 | 2 | 34.438 | 10.619 | 30.756 | 2 |
| 2025-05-05T08:51:00 | 55.006247 | 8.090920 | 2.0 | 10.457 | 2 | 34.440 | 10.619 | 30.758 | 2 |
| 2025-05-05T08:52:00 | 55.006261 | 8.090889 | 2.0 | 10.456 | 2 | 34.444 | 10.625 | 30.757 | 2 |
| 2025-05-05T08:53:00 | 55.006289 | 8.090815 | 2.0 | 10.457 | 2 | 34.446 | 10.626 | 30.758 | 2 |
| 2025-05-05T08:54:00 | 55.006335 | 8.090675 | 2.0 | 10.451 | 2 | 34.447 | 10.623 | 30.761 | 2 |
| 2025-05-05T08:55:00 | 55.006397 | 8.090518 | 2.0 | 10.459 | 2 | 34.446 | 10.622 | 30.761 | 2 |
| 2025-05-05T08:56:00 | 55.006480 | 8.090490 | 2.0 | 10.456 | 2 | 34.451 | 10.626 | 30.763 | 2 |
| 2025-05-05T08:57:00 | 55.006588 | 8.090510 | 2.0 | 10.462 | 2 | 34.450 | 10.626 | 30.762 | 2 |
| 2025-05-05T08:58:00 | 55.006691 | 8.090527 | 2.0 | 10.456 | 2 | 34.449 | 10.629 | 30.758 | 2 |
| 2025-05-05T08:59:00 | 55.006826 | 8.090537 | 2.0 | 10.456 | 2 | 34.445 | 10.623 | 30.759 | 2 |
| 2025-05-05T09:00:00 | 55.006955 | 8.090548 | 2.0 | 10.529 | 2 | 34.443 | 10.626 | 30.755 | 2 |
| 2025-05-05T09:01:00 | 55.007067 | 8.090567 | 2.0 | 10.872 | 2 | 34.358 | 10.796 | 30.528 | 2 |
| 2025-05-05T09:02:00 | 55.007176 | 8.090531 | 2.0 | 10.891 | 2 | 34.257 | 11.022 | 30.242 | 2 |
| 2025-05-05T09:03:00 | 55.007272 | 8.090455 | 2.0 | 10.909 | 2 | 34.257 | 11.055 | 30.215 | 2 |
| 2025-05-05T09:04:00 | 55.007367 | 8.090409 | 2.0 | 10.910 | 2 | 34.258 | 11.069 | 30.204 | 2 |
| 2025-05-05T09:05:00 | 55.007316 | 8.090570 | 2.0 | 10.915 | 2 | 34.257 | 11.073 | 30.200 | 2 |
| 2025-05-05T09:06:00 | 55.006791 | 8.090611 | 2.0 | 10.916 | 2 | 34.254 | 11.077 | 30.194 | 2 |
| 2025-05-05T09:07:00 | 55.006039 | 8.090958 | 2.0 | 10.929 | 2 | 34.254 | 11.084 | 30.188 | 2 |
| 2025-05-05T09:08:00 | 55.005124 | 8.091565 | 2.0 | 10.910 | 2 | 34.262 | 11.082 | 30.198 | 2 |
| 2025-05-05T09:09:00 | 55.004185 | 8.092213 | 2.0 | 10.915 | 2 | 34.272 | 11.078 | 30.211 | 2 |
| 2025-05-05T09:10:00 | 55.003423 | 8.092743 | 2.0 | 10.906 | 2 | 34.280 | 11.075 | 30.221 | 2 |
| 2025-05-05T09:11:00 | 55.003275 | 8.093131 | 2.0 | 10.927 | 2 | 34.285 | 11.075 | 30.226 | 2 |
| 2025-05-05T09:12:00 | 55.003310 | 8.093213 | 2.0 | 10.941 | 2 | 34.293 | 11.093 | 30.219 | 2 |
| 2025-05-05T09:13:00 | 55.003384 | 8.093228 | 2.0 | 10.937 | 2 | 34.299 | 11.102 | 30.217 | 2 |
| 2025-05-05T09:14:00 | 55.003440 | 8.093211 | 2.0 | 10.946 | 2 | 34.301 | 11.102 | 30.219 | 2 |
| 2025-05-05T09:15:00 | 55.003464 | 8.093163 | 2.0 | 10.948 | 2 | 34.305 | 11.110 | 30.217 | 2 |
| 2025-05-05T09:16:00 | 55.003462 | 8.093081 | 2.0 | 10.953 | 2 | 34.307 | 11.114 | 30.215 | 2 |
| 2025-05-05T09:17:00 | 55.003430 | 8.092975 | 2.0 | 10.945 | 2 | 34.309 | 11.117 | 30.215 | 2 |
| 2025-05-05T09:18:00 | 55.003384 | 8.092849 | 2.0 | 10.943 | 2 | 34.306 | 11.106 | 30.221 | 2 |
| 2025-05-05T09:19:00 | 55.003356 | 8.092759 | 2.0 | 10.941 | 2 | 34.310 | 11.108 | 30.223 | 2 |
| 2025-05-05T09:20:00 | 55.003427 | 8.092739 | 2.0 | 10.947 | 2 | 34.311 | 11.107 | 30.225 | 2 |
| 2025-05-05T09:21:00 | 55.003539 | 8.092654 | 2.0 | 10.944 | 2 | 34.314 | 11.112 | 30.224 | 2 |
| 2025-05-05T09:22:00 | 55.003727 | 8.092586 | 2.0 | 10.932 | 2 | 34.313 | 11.108 | 30.226 | 2 |
| 2025-05-05T09:23:00 | 55.004280 | 8.092780 | 2.0 | 10.938 | 2 | 34.304 | 11.098 | 30.225 | 2 |
| 2025-05-05T09:24:00 | 55.005093 | 8.093117 | 2.0 | 10.940 | 2 | 34.300 | 11.102 | 30.218 | 2 |
| 2025-05-05T09:25:00 | 55.005938 | 8.093482 | 2.0 | 10.948 | 2 | 34.297 | 11.108 | 30.210 | 2 |
| 2025-05-05T09:26:00 | 55.006741 | 8.093827 | 2.0 | 10.942 | 2 | 34.296 | 11.111 | 30.207 | 2 |
| 2025-05-05T09:27:00 | 55.007537 | 8.094171 | 2.0 | 10.929 | 2 | 34.293 | 11.105 | 30.209 | 2 |
| 2025-05-05T09:28:00 | 55.008339 | 8.094503 | 2.0 | 10.956 | 2 | 34.289 | 11.104 | 30.206 | 2 |
| 2025-05-05T09:29:00 | 55.009095 | 8.094815 | 2.0 | 10.950 | 2 | 34.300 | 11.120 | 30.203 | 2 |
| 2025-05-05T09:30:00 | 55.009703 | 8.095011 | 2.0 | 10.937 | 2 | 34.298 | 11.113 | 30.207 | 2 |
| 2025-05-05T09:31:00 | 55.010170 | 8.095107 | 2.0 | 10.927 | 2 | 34.282 | 11.100 | 30.202 | 2 |
| 2025-05-05T09:32:00 | 55.010537 | 8.095129 | 2.0 | 10.951 | 2 | 34.283 | 11.098 | 30.205 | 2 |
| 2025-05-05T09:33:00 | 55.010827 | 8.095019 | 2.0 | 10.958 | 2 | 34.296 | 11.117 | 30.202 | 2 |
| 2025-05-05T09:34:00 | 55.011099 | 8.094905 | 2.0 | 10.956 | 2 | 34.298 | 11.120 | 30.202 | 2 |
| 2025-05-05T09:35:00 | 55.011387 | 8.095057 | 2.0 | 10.956 | 2 | 34.297 | 11.120 | 30.201 | 2 |
| 2025-05-05T09:36:00 | 55.011630 | 8.095355 | 2.0 | 10.961 | 2 | 34.299 | 11.123 | 30.200 | 2 |
| 2025-05-05T09:37:00 | 55.011800 | 8.095565 | 2.0 | 10.961 | 2 | 34.302 | 11.125 | 30.201 | 2 |
| 2025-05-05T09:38:00 | 55.012042 | 8.095644 | 2.0 | 10.984 | 2 | 34.306 | 11.131 | 30.200 | 2 |
| 2025-05-05T09:39:00 | 55.012405 | 8.095598 | 2.0 | 10.966 | 2 | 34.317 | 11.145 | 30.200 | 2 |
| 2025-05-05T09:40:00 | 55.012883 | 8.095575 | 2.0 | 10.956 | 2 | 34.304 | 11.127 | 30.202 | 2 |
| 2025-05-05T09:41:00 | 55.013420 | 8.095620 | 2.0 | 10.961 | 2 | 34.301 | 11.122 | 30.203 | 2 |
| 2025-05-05T09:42:00 | 55.014005 | 8.095672 | 2.0 | 10.958 | 2 | 34.304 | 11.123 | 30.205 | 2 |
| 2025-05-05T09:43:00 | 55.014609 | 8.095765 | 2.0 | 10.947 | 2 | 34.304 | 11.119 | 30.208 | 2 |
| 2025-05-05T09:44:00 | 55.015239 | 8.095871 | 2.0 | 10.923 | 2 | 34.307 | 11.105 | 30.223 | 2 |
| 2025-05-05T09:45:00 | 55.015880 | 8.095980 | 2.0 | 10.905 | 2 | 34.301 | 11.084 | 30.234 | 2 |
| 2025-05-05T09:46:00 | 55.016507 | 8.096071 | 2.0 | 10.919 | 2 | 34.296 | 11.076 | 30.236 | 2 |
| 2025-05-05T09:47:00 | 55.017138 | 8.096176 | 2.0 | 10.923 | 2 | 34.308 | 11.086 | 30.239 | 2 |
| 2025-05-05T09:48:00 | 55.017694 | 8.096324 | 2.0 | 10.934 | 2 | 34.316 | 11.088 | 30.245 | 2 |
| 2025-05-05T09:49:00 | 55.018076 | 8.096508 | 2.0 | 10.966 | 2 | 34.324 | 11.101 | 30.243 | 2 |
| 2025-05-05T09:50:00 | 55.018428 | 8.096657 | 2.0 | 10.989 | 2 | 34.340 | 11.137 | 30.229 | 2 |
| 2025-05-05T09:51:00 | 55.018782 | 8.096787 | 2.0 | 10.993 | 2 | 34.343 | 11.149 | 30.222 | 2 |
| 2025-05-05T09:52:00 | 55.019117 | 8.096969 | 2.0 | 10.999 | 2 | 34.346 | 11.159 | 30.216 | 2 |
| 2025-05-05T09:53:00 | 55.019454 | 8.097170 | 2.0 | 11.006 | 2 | 34.345 | 11.163 | 30.212 | 2 |
| 2025-05-05T09:54:00 | 55.019782 | 8.097411 | 2.0 | 11.041 | 2 | 34.347 | 11.172 | 30.207 | 2 |
| 2025-05-05T09:55:00 | 55.020051 | 8.097661 | 2.0 | 11.124 | 2 | 34.373 | 11.225 | 30.189 | 2 |
| 2025-05-05T09:56:00 | 55.020405 | 8.097807 | 2.0 | 11.127 | 2 | 34.400 | 11.283 | 30.167 | 2 |
| 2025-05-05T09:57:00 | 55.020934 | 8.097926 | 2.0 | 11.091 | 2 | 34.405 | 11.290 | 30.167 | 2 |
| 2025-05-05T09:58:00 | 55.021594 | 8.098093 | 2.0 | 11.054 | 2 | 34.395 | 11.244 | 30.195 | 2 |
| 2025-05-05T09:59:00 | 55.022424 | 8.098382 | 2.0 | 11.021 | 2 | 34.389 | 11.225 | 30.204 | 2 |
| 2025-05-05T10:00:00 | 55.023328 | 8.098713 | 2.0 | 10.971 | 2 | 34.381 | 11.173 | 30.239 | 2 |
| 2025-05-05T10:01:00 | 55.024151 | 8.098975 | 2.0 | 10.922 | 2 | 34.368 | 11.144 | 30.250 | 2 |
| 2025-05-05T10:02:00 | 55.024956 | 8.099239 | 2.0 | 10.902 | 2 | 34.350 | 11.080 | 30.285 | 2 |
| 2025-05-05T10:03:00 | 55.025746 | 8.099507 | 2.0 | 10.923 | 2 | 34.342 | 11.078 | 30.279 | 2 |
| 2025-05-05T10:04:00 | 55.026528 | 8.099790 | 2.0 | 10.945 | 2 | 34.345 | 11.094 | 30.269 | 2 |
| 2025-05-05T10:05:00 | 55.027326 | 8.100060 | 2.0 | 10.980 | 2 | 34.350 | 11.115 | 30.256 | 2 |
| 2025-05-05T10:06:00 | 55.028078 | 8.100300 | 2.0 | 10.977 | 2 | 34.366 | 11.143 | 30.249 | 2 |
| 2025-05-05T10:07:00 | 55.028685 | 8.100450 | 2.0 | 10.959 | 2 | 34.369 | 11.137 | 30.257 | 2 |
| 2025-05-05T10:08:00 | 55.029089 | 8.100770 | 2.0 | 10.979 | 2 | 34.367 | 11.128 | 30.262 | 2 |
| 2025-05-05T10:09:00 | 55.029103 | 8.101347 | 2.0 | 11.013 | 2 | 34.376 | 11.150 | 30.253 | 2 |
| 2025-05-05T10:10:00 | 55.028719 | 8.101551 | 2.0 | 10.961 | 2 | 34.382 | 11.172 | 30.241 | 2 |
| 2025-05-05T10:11:00 | 55.027931 | 8.101412 | 2.0 | 10.968 | 2 | 34.349 | 11.130 | 30.243 | 2 |
| 2025-05-05T10:12:00 | 55.026681 | 8.101414 | 2.0 | 11.006 | 2 | 34.351 | 11.138 | 30.239 | 2 |
| 2025-05-05T10:13:00 | 55.025195 | 8.101446 | 2.0 | 11.097 | 2 | 34.369 | 11.180 | 30.222 | 2 |
| 2025-05-05T10:14:00 | 55.023656 | 8.101484 | 2.0 | 11.190 | 2 | 34.398 | 11.277 | 30.170 | 2 |
| 2025-05-05T10:15:00 | 55.022102 | 8.101540 | 2.0 | 11.209 | 2 | 34.410 | 11.359 | 30.115 | 2 |
| 2025-05-05T10:16:00 | 55.020526 | 8.101547 | 2.0 | 11.206 | 2 | 34.409 | 11.372 | 30.104 | 2 |
| 2025-05-05T10:17:00 | 55.018933 | 8.101494 | 2.0 | 11.183 | 2 | 34.407 | 11.365 | 30.107 | 2 |
| 2025-05-05T10:18:00 | 55.017343 | 8.101449 | 2.0 | 11.171 | 2 | 34.401 | 11.350 | 30.114 | 2 |
| 2025-05-05T10:19:00 | 55.015746 | 8.101413 | 2.0 | 11.159 | 2 | 34.397 | 11.337 | 30.120 | 2 |
| 2025-05-05T10:20:00 | 55.014153 | 8.101376 | 2.0 | 11.165 | 2 | 34.396 | 11.329 | 30.126 | 2 |
| 2025-05-05T10:21:00 | 55.012545 | 8.101253 | 2.0 | 11.187 | 2 | 34.401 | 11.331 | 30.129 | 2 |
| 2025-05-05T10:22:00 | 55.010931 | 8.101141 | 2.0 | 11.192 | 2 | 34.408 | 11.356 | 30.116 | 2 |
| 2025-05-05T10:23:00 | 55.009310 | 8.101022 | 2.0 | 11.204 | 2 | 34.408 | 11.357 | 30.115 | 2 |
| 2025-05-05T10:24:00 | 55.007688 | 8.100902 | 2.0 | 11.197 | 2 | 34.412 | 11.368 | 30.110 | 2 |
| 2025-05-05T10:25:00 | 55.006396 | 8.100354 | 2.0 | 11.173 | 2 | 34.404 | 11.360 | 30.109 | 2 |
| 2025-05-05T10:26:00 | 55.006029 | 8.099044 | 2.0 | 11.142 | 2 | 34.381 | 11.331 | 30.110 | 2 |
| 2025-05-05T10:27:00 | 55.005913 | 8.097835 | 2.0 | 11.146 | 2 | 34.359 | 11.303 | 30.111 | 2 |
| 2025-05-05T10:28:00 | 55.005725 | 8.096545 | 2.0 | 11.158 | 2 | 34.358 | 11.304 | 30.109 | 2 |
| 2025-05-05T10:29:00 | 55.005448 | 8.095014 | 2.0 | 11.166 | 2 | 34.374 | 11.326 | 30.107 | 2 |
| 2025-05-05T10:30:00 | 55.005131 | 8.093403 | 2.0 | 11.160 | 2 | 34.379 | 11.328 | 30.110 | 2 |
| 2025-05-05T10:31:00 | 55.005196 | 8.092421 | 2.0 | 11.049 | 2 | 34.367 | 11.300 | 30.121 | 2 |
| 2025-05-05T10:32:00 | 55.005365 | 8.091963 | 2.0 | 11.128 | 2 | 34.329 | 11.240 | 30.134 | 2 |
| 2025-05-05T10:33:00 | 55.005545 | 8.091790 | 2.0 | 11.186 | 2 | 34.351 | 11.289 | 30.115 | 2 |
| 2025-05-05T10:34:00 | 55.005757 | 8.091790 | 2.0 | 11.200 | 2 | 34.392 | 11.348 | 30.107 | 2 |
| 2025-05-05T10:35:00 | 55.005922 | 8.091852 | 2.0 | 11.208 | 2 | 34.407 | 11.366 | 30.107 | 2 |
| 2025-05-05T10:36:00 | 55.005976 | 8.091939 | 2.0 | 11.222 | 2 | 34.412 | 11.369 | 30.109 | 2 |
| 2025-05-05T10:37:00 | 55.005985 | 8.092155 | 2.0 | 11.224 | 2 | 34.424 | 11.386 | 30.107 | 2 |
| 2025-05-05T10:38:00 | 55.006050 | 8.092387 | 2.0 | 11.224 | 2 | 34.426 | 11.389 | 30.106 | 2 |
| 2025-05-05T10:39:00 | 55.006087 | 8.092500 | 2.0 | 11.241 | 2 | 34.430 | 11.395 | 30.105 | 2 |
| 2025-05-05T10:40:00 | 55.006116 | 8.092525 | 2.0 | 11.219 | 2 | 34.434 | 11.397 | 30.107 | 2 |
| 2025-05-05T10:41:00 | 55.006180 | 8.092540 | 2.0 | 11.231 | 2 | 34.426 | 11.389 | 30.106 | 2 |
| 2025-05-05T10:42:00 | 55.006272 | 8.092583 | 2.0 | 11.233 | 2 | 34.431 | 11.395 | 30.106 | 2 |
| 2025-05-05T10:43:00 | 55.006394 | 8.092622 | 2.0 | 11.243 | 2 | 34.434 | 11.400 | 30.105 | 2 |
| 2025-05-05T10:44:00 | 55.006500 | 8.092666 | 2.0 | 11.248 | 2 | 34.437 | 11.405 | 30.104 | 2 |
| 2025-05-05T10:45:00 | 55.006588 | 8.092712 | 2.0 | 11.262 | 2 | 34.444 | 11.413 | 30.104 | 2 |
| 2025-05-05T10:46:00 | 55.006681 | 8.092748 | 2.0 | 11.236 | 2 | 34.392 | 11.424 | 30.045 | 2 |
| 2025-05-05T10:47:00 | 55.006749 | 8.092810 | 2.0 | 11.246 | 2 | 34.274 | 11.400 | 29.950 | 2 |
| 2025-05-05T10:48:00 | 55.006812 | 8.092873 | 2.0 | 11.253 | 2 | 34.445 | 11.412 | 30.106 | 2 |
| 2025-05-05T10:49:00 | 55.006874 | 8.092941 | 2.0 | 11.269 | 2 | 34.290 | 11.418 | 29.951 | 2 |
| 2025-05-05T10:50:00 | 55.006927 | 8.093010 | 2.0 | 11.316 | 2 | 34.459 | 11.435 | 30.101 | 2 |
| 2025-05-05T10:51:00 | 55.006988 | 8.093051 | 2.0 | 11.299 | 2 | 34.199 | 11.477 | 29.815 | 2 |
| 2025-05-05T10:52:00 | 55.007031 | 8.093129 | 2.0 | 11.274 | 2 | 34.488 | 11.456 | 30.112 | 2 |
| 2025-05-05T10:53:00 | 55.007067 | 8.093212 | 2.0 | 11.296 | 2 | 34.254 | 11.446 | 29.893 | 2 |
| 2025-05-05T10:54:00 | 55.007107 | 8.093271 | 2.0 | 11.302 | 2 | 34.459 | 11.460 | 30.080 | 2 |
| 2025-05-05T10:55:00 | 55.007131 | 8.093339 | 2.0 | 11.274 | 2 | 34.479 | 11.465 | 30.096 | 2 |
| 2025-05-05T10:56:00 | 55.007148 | 8.093405 | 2.0 | 11.239 | 2 | 34.468 | 11.428 | 30.115 | 2 |
| 2025-05-05T10:57:00 | 55.007160 | 8.093486 | 2.0 | 11.294 | 2 | 34.460 | 11.420 | 30.114 | 2 |
| 2025-05-05T10:58:00 | 55.007265 | 8.093602 | 2.0 | 11.297 | 2 | 34.362 | 11.454 | 29.991 | 2 |
| 2025-05-05T10:59:00 | 55.007602 | 8.093676 | 2.0 | 11.296 | 2 | 34.455 | 11.457 | 30.079 | 2 |
| 2025-05-05T11:00:00 | 55.008092 | 8.093380 | 2.0 | 11.344 | 2 | 34.496 | 11.471 | 30.107 | 2 |
| 2025-05-05T11:01:00 | 55.008774 | 8.092832 | 2.0 | 11.304 | 2 | 34.193 | 11.502 | 29.789 | 2 |
| 2025-05-05T11:02:00 | 55.009525 | 8.092243 | 2.0 | 11.283 | 2 | 34.276 | 11.466 | 29.899 | 2 |
| 2025-05-05T11:03:00 | 55.010257 | 8.091667 | 2.0 | 11.324 | 2 | 34.477 | 11.452 | 30.104 | 2 |
| 2025-05-05T11:04:00 | 55.010948 | 8.091132 | 2.0 | 11.333 | 2 | 34.303 | 11.487 | 29.908 | 2 |
| 2025-05-05T11:05:00 | 55.011609 | 8.090600 | 2.0 | 11.345 | 2 | 34.289 | 11.497 | 29.886 | 2 |
| 2025-05-05T11:06:00 | 55.012270 | 8.090063 | 2.0 | 11.210 | 2 | 34.442 | 11.471 | 30.055 | 2 |
| 2025-05-05T11:07:00 | 55.012899 | 8.089546 | 2.0 | 11.239 | 2 | 34.435 | 11.398 | 30.108 | 2 |
| 2025-05-05T11:08:00 | 55.013401 | 8.089153 | 2.0 | 11.236 | 2 | 34.240 | 11.407 | 29.911 | 2 |
| 2025-05-05T11:09:00 | 55.013709 | 8.089218 | 2.0 | 11.297 | 2 | 34.257 | 11.409 | 29.926 | 2 |
| 2025-05-05T11:10:00 | 55.013910 | 8.089338 | 2.0 | 11.306 | 2 | 34.478 | 11.461 | 30.098 | 2 |
| 2025-05-05T11:11:00 | 55.014030 | 8.089436 | 2.0 | 11.321 | 2 | 34.416 | 11.472 | 30.029 | 2 |
| 2025-05-05T11:12:00 | 55.014227 | 8.089609 | 2.0 | 11.304 | 2 | 34.341 | 11.480 | 29.950 | 2 |
| 2025-05-05T11:13:00 | 55.014636 | 8.089900 | 2.0 | 11.300 | 2 | 34.436 | 11.462 | 30.057 | 2 |
| 2025-05-05T11:14:00 | 55.015197 | 8.090234 | 2.0 | 11.310 | 2 | 34.308 | 11.466 | 29.929 | 2 |
| 2025-05-05T11:15:00 | 55.015807 | 8.090590 | 2.0 | 11.332 | 2 | 34.382 | 11.478 | 29.991 | 2 |
| 2025-05-05T11:16:00 | 55.016345 | 8.090913 | 2.0 | 11.337 | 2 | 34.519 | 11.493 | 30.112 | 2 |
| 2025-05-05T11:17:00 | 55.016914 | 8.091246 | 2.0 | 11.337 | 2 | 34.503 | 11.501 | 30.090 | 2 |
| 2025-05-05T11:18:00 | 55.017441 | 8.091582 | 2.0 | 11.342 | 2 | 34.403 | 11.502 | 29.992 | 2 |
| 2025-05-05T11:19:00 | 55.017879 | 8.091872 | 2.0 | 11.362 | 2 | 34.284 | 11.509 | 29.872 | 2 |
| 2025-05-05T11:20:00 | 55.018227 | 8.092144 | 2.0 | 11.386 | 2 | 34.322 | 11.531 | 29.891 | 2 |
| 2025-05-05T11:21:00 | 55.018499 | 8.092355 | 2.0 | 11.384 | 2 | 34.470 | 11.546 | 30.021 | 2 |
| 2025-05-05T11:22:00 | 55.018725 | 8.092382 | 2.0 | 11.382 | 2 | 34.481 | 11.546 | 30.032 | 2 |
| 2025-05-05T11:23:00 | 55.018915 | 8.092384 | 2.0 | 11.387 | 2 | 34.417 | 11.546 | 29.970 | 2 |
| 2025-05-05T11:24:00 | 55.019060 | 8.092389 | 2.0 | 11.401 | 2 | 34.388 | 11.553 | 29.936 | 2 |
| 2025-05-05T11:25:00 | 55.019136 | 8.092440 | 2.0 | 11.406 | 2 | 34.429 | 11.563 | 29.968 | 2 |
| 2025-05-05T11:26:00 | 55.019415 | 8.092351 | 2.0 | 11.399 | 2 | 34.426 | 11.565 | 29.963 | 2 |
| 2025-05-05T11:27:00 | 55.020074 | 8.091913 | 2.0 | 11.392 | 2 | 34.463 | 11.559 | 30.004 | 2 |
| 2025-05-05T11:28:00 | 55.020705 | 8.091466 | 2.0 | 11.413 | 2 | 34.460 | 11.558 | 30.002 | 2 |
| 2025-05-05T11:29:00 | 55.021179 | 8.091064 | 2.0 | 11.397 | 2 | 34.480 | 11.565 | 30.016 | 2 |
| 2025-05-05T11:30:00 | 55.021797 | 8.090584 | 2.0 | 11.400 | 2 | 34.472 | 11.560 | 30.012 | 2 |
| 2025-05-05T11:31:00 | 55.022487 | 8.090079 | 2.0 | 11.406 | 2 | 34.444 | 11.568 | 29.978 | 2 |
| 2025-05-05T11:32:00 | 55.023240 | 8.089540 | 2.0 | 11.386 | 2 | 34.474 | 11.564 | 30.011 | 2 |
| 2025-05-05T11:33:00 | 55.024029 | 8.088981 | 2.0 | 11.314 | 2 | 34.534 | 11.542 | 30.086 | 2 |
| 2025-05-05T11:34:00 | 55.024836 | 8.088415 | 2.0 | 11.254 | 2 | 34.537 | 11.468 | 30.149 | 2 |
| 2025-05-05T11:35:00 | 55.025634 | 8.087869 | 2.0 | 11.218 | 2 | 34.514 | 11.417 | 30.169 | 2 |
| 2025-05-05T11:36:00 | 55.026330 | 8.087372 | 2.0 | 11.244 | 2 | 34.516 | 11.395 | 30.189 | 2 |
| 2025-05-05T11:37:00 | 55.026879 | 8.086935 | 2.0 | 11.237 | 2 | 34.504 | 11.402 | 30.171 | 2 |
| 2025-05-05T11:38:00 | 55.027269 | 8.086725 | 2.0 | 11.248 | 2 | 34.525 | 11.402 | 30.192 | 2 |
| 2025-05-05T11:39:00 | 55.027372 | 8.087246 | 2.0 | 11.236 | 2 | 34.560 | 11.410 | 30.219 | 2 |
| 2025-05-05T11:40:00 | 55.026903 | 8.088328 | 2.0 | 11.234 | 2 | 34.540 | 11.397 | 30.210 | 2 |
| 2025-05-05T11:41:00 | 55.026074 | 8.089651 | 2.0 | 11.254 | 2 | 34.532 | 11.403 | 30.198 | 2 |
| 2025-05-05T11:42:00 | 55.025054 | 8.090826 | 2.0 | 11.285 | 2 | 34.535 | 11.422 | 30.185 | 2 |
| 2025-05-05T11:43:00 | 55.023930 | 8.091870 | 2.0 | 11.321 | 2 | 34.554 | 11.451 | 30.180 | 2 |
| 2025-05-05T11:44:00 | 55.022760 | 8.092912 | 2.0 | 11.376 | 2 | 34.559 | 11.493 | 30.150 | 2 |
| 2025-05-05T11:45:00 | 55.021416 | 8.093851 | 2.0 | 11.408 | 2 | 34.563 | 11.541 | 30.115 | 2 |
| 2025-05-05T11:46:00 | 55.019880 | 8.094766 | 2.0 | 11.425 | 2 | 34.577 | 11.568 | 30.107 | 2 |
| 2025-05-05T11:47:00 | 55.018251 | 8.095745 | 2.0 | 11.427 | 2 | 34.567 | 11.586 | 30.083 | 2 |
| 2025-05-05T11:48:00 | 55.016562 | 8.096763 | 2.0 | 11.452 | 2 | 34.572 | 11.594 | 30.081 | 2 |
| 2025-05-05T11:49:00 | 55.014848 | 8.097806 | 2.0 | 11.497 | 2 | 34.592 | 11.622 | 30.078 | 2 |
| 2025-05-05T11:50:00 | 55.013121 | 8.098857 | 2.0 | 11.522 | 2 | 34.620 | 11.660 | 30.074 | 2 |
| 2025-05-05T11:51:00 | 55.011379 | 8.099919 | 2.0 | 11.529 | 2 | 34.621 | 11.680 | 30.058 | 2 |
| 2025-05-05T11:52:00 | 55.009637 | 8.100992 | 2.0 | 11.542 | 2 | 34.611 | 11.695 | 30.037 | 2 |
| 2025-05-05T11:53:00 | 55.008100 | 8.100839 | 2.0 | 11.514 | 2 | 34.621 | 11.699 | 30.043 | 2 |
| 2025-05-05T11:54:00 | 55.007428 | 8.098959 | 2.0 | 11.481 | 2 | 34.606 | 11.667 | 30.055 | 2 |
| 2025-05-05T11:55:00 | 55.007056 | 8.096863 | 2.0 | 11.499 | 2 | 34.592 | 11.649 | 30.056 | 2 |
| 2025-05-05T11:56:00 | 55.006691 | 8.094824 | 2.0 | 11.477 | 2 | 34.603 | 11.657 | 30.060 | 2 |
| 2025-05-05T11:57:00 | 55.006359 | 8.093126 | 2.0 | 11.451 | 2 | 34.586 | 11.633 | 30.063 | 2 |
| 2025-05-05T11:58:00 | 55.005947 | 8.091679 | 2.0 | 11.442 | 2 | 34.582 | 11.619 | 30.070 | 2 |
| 2025-05-05T11:59:00 | 55.005574 | 8.090411 | 2.0 | 11.451 | 2 | 34.566 | 11.591 | 30.078 | 2 |
| 2025-05-05T12:00:00 | 55.005195 | 8.089259 | 2.0 | 11.424 | 2 | 34.581 | 11.610 | 30.077 | 2 |
| 2025-05-05T12:01:00 | 55.004824 | 8.088208 | 2.0 | 11.397 | 2 | 34.557 | 11.567 | 30.088 | 2 |
| 2025-05-05T12:02:00 | 55.004454 | 8.087257 | 2.0 | 11.350 | 2 | 34.547 | 11.551 | 30.092 | 2 |
| 2025-05-05T12:03:00 | 55.004088 | 8.086407 | 2.0 | 11.379 | 2 | 34.531 | 11.525 | 30.097 | 2 |
| 2025-05-05T12:04:00 | 55.003763 | 8.085716 | 2.0 | 11.354 | 2 | 34.539 | 11.530 | 30.101 | 2 |
| 2025-05-05T12:05:00 | 55.003483 | 8.085181 | 2.0 | 11.437 | 2 | 34.550 | 11.544 | 30.100 | 2 |
| 2025-05-05T12:06:00 | 55.003202 | 8.084769 | 2.0 | 11.486 | 2 | 34.596 | 11.610 | 30.091 | 2 |
| 2025-05-05T12:07:00 | 55.002896 | 8.084471 | 2.0 | 11.484 | 2 | 34.625 | 11.646 | 30.090 | 2 |
| 2025-05-05T12:08:00 | 55.002549 | 8.084262 | 2.0 | 11.487 | 2 | 34.629 | 11.648 | 30.092 | 2 |
| 2025-05-05T12:09:00 | 55.002180 | 8.084139 | 2.0 | 11.498 | 2 | 34.633 | 11.653 | 30.092 | 2 |
| 2025-05-05T12:10:00 | 55.001816 | 8.084081 | 2.0 | 11.498 | 2 | 34.641 | 11.663 | 30.092 | 2 |
| 2025-05-05T12:11:00 | 55.001456 | 8.084061 | 2.0 | 11.494 | 2 | 34.641 | 11.660 | 30.094 | 2 |
| 2025-05-05T12:12:00 | 55.001090 | 8.084058 | 2.0 | 11.494 | 2 | 34.641 | 11.659 | 30.095 | 2 |
| 2025-05-05T12:13:00 | 55.000721 | 8.084066 | 2.0 | 11.494 | 2 | 34.641 | 11.659 | 30.095 | 2 |
| 2025-05-05T12:14:00 | 55.000323 | 8.083994 | 2.0 | 11.476 | 2 | 34.641 | 11.654 | 30.099 | 2 |
| 2025-05-05T12:15:00 | 54.999902 | 8.083702 | 2.0 | 11.483 | 2 | 34.634 | 11.643 | 30.101 | 2 |
| 2025-05-05T12:16:00 | 54.999458 | 8.083176 | 2.0 | 11.409 | 2 | 34.637 | 11.642 | 30.105 | 2 |
| 2025-05-05T12:17:00 | 54.998934 | 8.082192 | 2.0 | 11.440 | 2 | 34.598 | 11.566 | 30.129 | 2 |
| 2025-05-05T12:18:00 | 54.998352 | 8.080854 | 2.0 | 11.400 | 2 | 34.620 | 11.601 | 30.122 | 2 |
| 2025-05-05T12:19:00 | 54.997668 | 8.079041 | 2.0 | 11.387 | 2 | 34.596 | 11.554 | 30.137 | 2 |
| 2025-05-05T12:20:00 | 54.996905 | 8.076782 | 2.0 | 11.408 | 2 | 34.583 | 11.558 | 30.121 | 2 |
| 2025-05-05T12:21:00 | 54.996048 | 8.074116 | 2.0 | 11.386 | 2 | 34.596 | 11.572 | 30.122 | 2 |
| 2025-05-05T12:22:00 | 54.995022 | 8.070955 | 2.0 | 11.394 | 2 | 34.581 | 11.551 | 30.125 | 2 |
| 2025-05-05T12:23:00 | 54.993874 | 8.067528 | 2.0 | 11.382 | 2 | 34.592 | 11.556 | 30.131 | 2 |
| 2025-05-05T12:24:00 | 54.992610 | 8.063674 | 2.0 | 11.284 | 2 | 34.588 | 11.525 | 30.152 | 2 |
| 2025-05-05T12:25:00 | 54.991297 | 8.059643 | 2.0 | 11.366 | 2 | 34.562 | 11.465 | 30.176 | 2 |
| 2025-05-05T12:26:00 | 54.989741 | 8.055451 | 2.0 | 11.334 | 2 | 34.610 | 11.522 | 30.176 | 2 |
| 2025-05-05T12:27:00 | 54.988005 | 8.051113 | 2.0 | 11.329 | 2 | 34.642 | 11.510 | 30.217 | 2 |
| 2025-05-05T12:28:00 | 54.986184 | 8.046521 | 2.0 | 10.929 | 2 | 34.686 | 11.436 | 30.320 | 2 |
| 2025-05-05T12:29:00 | 54.984238 | 8.041647 | 2.0 | 10.911 | 2 | 34.735 | 11.122 | 30.627 | 2 |
| 2025-05-05T12:30:00 | 54.982259 | 8.036706 | 2.0 | 10.977 | 2 | 34.831 | 11.101 | 30.739 | 2 |
| 2025-05-05T12:31:00 | 54.980255 | 8.031764 | 2.0 | 10.988 | 2 | 34.957 | 11.164 | 30.809 | 2 |
| 2025-05-05T12:32:00 | 54.978291 | 8.026973 | 2.0 | 11.001 | 2 | 35.020 | 11.166 | 30.869 | 2 |
| 2025-05-05T12:33:00 | 54.976987 | 8.023059 | 2.0 | 10.995 | 2 | 35.046 | 11.170 | 30.891 | 2 |
| 2025-05-05T12:34:00 | 54.977304 | 8.020326 | 2.0 | 10.991 | 2 | 35.061 | 11.161 | 30.913 | 2 |
| 2025-05-05T12:35:00 | 54.978210 | 8.019842 | 2.0 | 10.985 | 2 | 35.072 | 11.160 | 30.925 | 2 |
| 2025-05-05T12:36:00 | 54.979042 | 8.020204 | 2.0 | 10.975 | 2 | 35.069 | 11.151 | 30.930 | 2 |
| 2025-05-05T12:37:00 | 54.979555 | 8.021522 | 2.0 | 10.974 | 2 | 35.061 | 11.143 | 30.929 | 2 |
| 2025-05-05T12:38:00 | 54.980016 | 8.023045 | 2.0 | 10.976 | 2 | 35.055 | 11.141 | 30.924 | 2 |
| 2025-05-05T12:39:00 | 54.980612 | 8.024639 | 2.0 | 10.991 | 2 | 35.056 | 11.149 | 30.919 | 2 |
| 2025-05-05T12:40:00 | 54.981682 | 8.027405 | 2.0 | 10.974 | 2 | 35.046 | 11.155 | 30.904 | 2 |
| 2025-05-05T12:41:00 | 54.983128 | 8.030879 | 2.0 | 11.035 | 2 | 35.024 | 11.149 | 30.887 | 2 |
| 2025-05-05T12:42:00 | 54.984775 | 8.034420 | 2.0 | 11.006 | 2 | 34.973 | 11.198 | 30.796 | 2 |
| 2025-05-05T12:43:00 | 54.986486 | 8.038012 | 2.0 | 10.922 | 2 | 34.888 | 11.164 | 30.742 | 2 |
| 2025-05-05T12:44:00 | 54.988261 | 8.041700 | 2.0 | 11.154 | 2 | 34.792 | 11.111 | 30.692 | 2 |
| 2025-05-05T12:45:00 | 54.990061 | 8.045427 | 2.0 | 11.336 | 2 | 34.729 | 11.367 | 30.418 | 2 |
| 2025-05-05T12:46:00 | 54.991814 | 8.049262 | 2.0 | 11.352 | 2 | 34.703 | 11.486 | 30.296 | 2 |
| 2025-05-05T12:47:00 | 54.993473 | 8.053277 | 2.0 | 11.369 | 2 | 34.668 | 11.509 | 30.243 | 2 |
| 2025-05-05T12:48:00 | 54.995133 | 8.057293 | 2.0 | 11.366 | 2 | 34.645 | 11.528 | 30.205 | 2 |
| 2025-05-05T12:49:00 | 54.996790 | 8.061321 | 2.0 | 11.345 | 2 | 34.620 | 11.518 | 30.189 | 2 |
| 2025-05-05T12:50:00 | 54.998443 | 8.065373 | 2.0 | 11.442 | 2 | 34.603 | 11.520 | 30.171 | 2 |
| 2025-05-05T12:51:00 | 55.000084 | 8.069428 | 2.0 | 11.450 | 2 | 34.641 | 11.605 | 30.139 | 2 |
| 2025-05-05T12:52:00 | 55.001572 | 8.073701 | 2.0 | 11.406 | 2 | 34.646 | 11.607 | 30.142 | 2 |
| 2025-05-05T12:53:00 | 55.002971 | 8.078072 | 2.0 | 11.401 | 2 | 34.618 | 11.561 | 30.152 | 2 |
| 2025-05-05T12:54:00 | 55.004349 | 8.082400 | 2.0 | 11.481 | 2 | 34.633 | 11.591 | 30.142 | 2 |
| 2025-05-05T12:55:00 | 55.005448 | 8.085643 | 2.0 | 11.492 | 2 | 34.659 | 11.637 | 30.130 | 2 |
| 2025-05-05T12:56:00 | 55.005896 | 8.087758 | 2.0 | 11.494 | 2 | 34.663 | 11.655 | 30.119 | 2 |
| 2025-05-05T12:57:00 | 55.005276 | 8.088335 | 2.0 | 11.479 | 2 | 34.660 | 11.654 | 30.117 | 2 |
| 2025-05-05T12:58:00 | 55.004761 | 8.088034 | 2.0 | 11.483 | 2 | 34.652 | 11.643 | 30.118 | 2 |
| 2025-05-05T12:59:00 | 55.004489 | 8.087344 | 2.0 | 11.476 | 2 | 34.650 | 11.637 | 30.121 | 2 |
| 2025-05-05T13:00:00 | 55.004647 | 8.086604 | 2.0 | 11.417 | 2 | 34.650 | 11.635 | 30.123 | 2 |
| 2025-05-05T13:01:00 | 55.005029 | 8.085760 | 2.0 | 11.488 | 2 | 34.628 | 11.578 | 30.148 | 2 |
| 2025-05-05T13:02:00 | 55.005462 | 8.084794 | 2.0 | 11.465 | 2 | 34.668 | 11.641 | 30.135 | 2 |
| 2025-05-05T13:03:00 | 55.005949 | 8.083980 | 2.0 | 11.467 | 2 | 34.656 | 11.627 | 30.135 | 2 |
| 2025-05-05T13:04:00 | 55.006477 | 8.083203 | 2.0 | 11.484 | 2 | 34.655 | 11.634 | 30.129 | 2 |
| 2025-05-05T13:05:00 | 55.006994 | 8.082440 | 2.0 | 11.504 | 2 | 34.664 | 11.649 | 30.125 | 2 |
| 2025-05-05T13:06:00 | 55.007496 | 8.081694 | 2.0 | 11.516 | 2 | 34.675 | 11.663 | 30.124 | 2 |
| 2025-05-05T13:07:00 | 55.007979 | 8.080988 | 2.0 | 11.521 | 2 | 34.686 | 11.677 | 30.124 | 2 |
| 2025-05-05T13:08:00 | 55.008454 | 8.080298 | 2.0 | 11.522 | 2 | 34.695 | 11.683 | 30.127 | 2 |
| 2025-05-05T13:09:00 | 55.008931 | 8.079607 | 2.0 | 11.516 | 2 | 34.703 | 11.685 | 30.133 | 2 |
| 2025-05-05T13:10:00 | 55.009311 | 8.079028 | 2.0 | 11.483 | 2 | 34.707 | 11.673 | 30.147 | 2 |
| 2025-05-05T13:11:00 | 55.009523 | 8.078603 | 2.0 | 11.483 | 2 | 34.699 | 11.650 | 30.158 | 2 |
| 2025-05-05T13:12:00 | 55.009810 | 8.078115 | 2.0 | 11.459 | 2 | 34.704 | 11.642 | 30.169 | 2 |
| 2025-05-05T13:13:00 | 55.010192 | 8.077534 | 2.0 | 11.408 | 2 | 34.700 | 11.612 | 30.190 | 2 |
| 2025-05-05T13:14:00 | 55.010500 | 8.077016 | 2.0 | 11.376 | 2 | 34.694 | 11.571 | 30.217 | 2 |
| 2025-05-05T13:15:00 | 55.010726 | 8.076605 | 2.0 | 11.351 | 2 | 34.690 | 11.540 | 30.239 | 2 |
| 2025-05-05T13:16:00 | 55.010878 | 8.076297 | 2.0 | 11.313 | 2 | 34.687 | 11.505 | 30.265 | 2 |
| 2025-05-05T13:17:00 | 55.011001 | 8.076149 | 2.0 | 11.306 | 2 | 34.670 | 11.477 | 30.271 | 2 |
| 2025-05-05T13:18:00 | 55.011251 | 8.075956 | 2.0 | 11.288 | 2 | 34.667 | 11.468 | 30.275 | 2 |
| 2025-05-05T13:19:00 | 55.011586 | 8.075695 | 2.0 | 11.276 | 2 | 34.664 | 11.452 | 30.286 | 2 |
| 2025-05-05T13:20:00 | 55.011970 | 8.075369 | 2.0 | 11.265 | 2 | 34.660 | 11.439 | 30.292 | 2 |
| 2025-05-05T13:21:00 | 55.012392 | 8.074993 | 2.0 | 11.247 | 2 | 34.656 | 11.427 | 30.298 | 2 |
| 2025-05-05T13:22:00 | 55.012806 | 8.074647 | 2.0 | 11.241 | 2 | 34.648 | 11.411 | 30.304 | 2 |
| 2025-05-05T13:23:00 | 55.013194 | 8.074311 | 2.0 | 11.239 | 2 | 34.645 | 11.404 | 30.306 | 2 |
| 2025-05-05T13:24:00 | 55.013660 | 8.073913 | 2.0 | 11.242 | 2 | 34.646 | 11.403 | 30.308 | 2 |
| 2025-05-05T13:25:00 | 55.014225 | 8.073435 | 2.0 | 11.243 | 2 | 34.650 | 11.405 | 30.310 | 2 |
| 2025-05-05T13:26:00 | 55.014804 | 8.072949 | 2.0 | 11.228 | 2 | 34.650 | 11.402 | 30.313 | 2 |
| 2025-05-05T13:27:00 | 55.015351 | 8.072488 | 2.0 | 11.233 | 2 | 34.647 | 11.394 | 30.317 | 2 |
| 2025-05-05T13:28:00 | 55.015825 | 8.072123 | 2.0 | 11.222 | 2 | 34.654 | 11.395 | 30.323 | 2 |
| 2025-05-05T13:29:00 | 55.016239 | 8.071798 | 2.0 | 11.218 | 2 | 34.654 | 11.386 | 30.330 | 2 |
| 2025-05-05T13:30:00 | 55.016609 | 8.071501 | 2.0 | 11.202 | 2 | 34.656 | 11.381 | 30.336 | 2 |
| 2025-05-05T13:31:00 | 55.016949 | 8.071252 | 2.0 | 11.202 | 2 | 34.648 | 11.361 | 30.345 | 2 |
| 2025-05-05T13:32:00 | 55.017273 | 8.070997 | 2.0 | 11.193 | 2 | 34.650 | 11.362 | 30.346 | 2 |
| 2025-05-05T13:33:00 | 55.017512 | 8.070709 | 2.0 | 11.199 | 2 | 34.649 | 11.360 | 30.346 | 2 |
| 2025-05-05T13:34:00 | 55.017615 | 8.070336 | 2.0 | 11.193 | 2 | 34.649 | 11.360 | 30.346 | 2 |
| 2025-05-05T13:35:00 | 55.017686 | 8.069976 | 2.0 | 11.203 | 2 | 34.651 | 11.360 | 30.348 | 2 |
| 2025-05-05T13:36:00 | 55.017890 | 8.069448 | 2.0 | 11.205 | 2 | 34.656 | 11.367 | 30.347 | 2 |
| 2025-05-05T13:37:00 | 55.018339 | 8.068561 | 2.0 | 11.205 | 2 | 34.658 | 11.369 | 30.348 | 2 |
| 2025-05-05T13:38:00 | 55.018902 | 8.067507 | 2.0 | 11.211 | 2 | 34.661 | 11.372 | 30.348 | 2 |
| 2025-05-05T13:39:00 | 55.019441 | 8.066492 | 2.0 | 11.199 | 2 | 34.667 | 11.375 | 30.352 | 2 |
| 2025-05-05T13:40:00 | 55.019956 | 8.065534 | 2.0 | 11.191 | 2 | 34.668 | 11.362 | 30.363 | 2 |
| 2025-05-05T13:41:00 | 55.020445 | 8.064626 | 2.0 | 11.161 | 2 | 34.673 | 11.353 | 30.376 | 2 |
| 2025-05-05T13:42:00 | 55.020964 | 8.063704 | 2.0 | 11.113 | 2 | 34.675 | 11.324 | 30.401 | 2 |
| 2025-05-05T13:43:00 | 55.021509 | 8.062772 | 2.0 | 11.047 | 2 | 34.674 | 11.269 | 30.446 | 2 |
| 2025-05-05T13:44:00 | 55.022062 | 8.061855 | 2.0 | 10.993 | 2 | 34.672 | 11.215 | 30.488 | 2 |
| 2025-05-05T13:45:00 | 55.022613 | 8.060932 | 2.0 | 10.972 | 2 | 34.675 | 11.163 | 30.534 | 2 |
| 2025-05-05T13:46:00 | 55.022994 | 8.060103 | 2.0 | 10.867 | 2 | 34.684 | 11.115 | 30.583 | 2 |
| 2025-05-05T13:47:00 | 55.023240 | 8.059418 | 2.0 | 10.854 | 2 | 34.690 | 11.034 | 30.656 | 2 |
| 2025-05-05T13:48:00 | 55.023444 | 8.059017 | 2.0 | 10.920 | 2 | 34.718 | 11.039 | 30.680 | 2 |
| 2025-05-05T13:49:00 | 55.023517 | 8.059550 | 2.0 | 10.918 | 2 | 34.759 | 11.080 | 30.686 | 2 |
| 2025-05-05T13:50:00 | 55.022991 | 8.061104 | 2.0 | 10.951 | 2 | 34.743 | 11.086 | 30.665 | 2 |
| 2025-05-05T13:51:00 | 55.021976 | 8.063768 | 2.0 | 11.000 | 2 | 34.711 | 11.124 | 30.602 | 2 |
| 2025-05-05T13:52:00 | 55.020479 | 8.067293 | 2.0 | 11.034 | 2 | 34.669 | 11.170 | 30.523 | 2 |
| 2025-05-05T13:53:00 | 55.018771 | 8.071120 | 2.0 | 11.123 | 2 | 34.625 | 11.222 | 30.437 | 2 |
| 2025-05-05T13:54:00 | 55.016854 | 8.074845 | 2.0 | 11.162 | 2 | 34.623 | 11.286 | 30.382 | 2 |
| 2025-05-05T13:55:00 | 55.014936 | 8.078632 | 2.0 | 11.218 | 2 | 34.633 | 11.338 | 30.349 | 2 |
| 2025-05-05T13:56:00 | 55.013010 | 8.082408 | 2.0 | 11.245 | 2 | 34.654 | 11.383 | 30.332 | 2 |
| 2025-05-05T13:57:00 | 55.011082 | 8.086173 | 2.0 | 11.254 | 2 | 34.655 | 11.410 | 30.311 | 2 |
| 2025-05-05T13:58:00 | 55.009160 | 8.089948 | 2.0 | 11.273 | 2 | 34.649 | 11.422 | 30.296 | 2 |
| 2025-05-05T13:59:00 | 55.007224 | 8.093741 | 2.0 | 11.333 | 2 | 34.649 | 11.453 | 30.270 | 2 |
| 2025-05-05T14:00:00 | 55.005276 | 8.097541 | 2.0 | 11.381 | 2 | 34.665 | 11.513 | 30.237 | 2 |
| 2025-05-05T14:01:00 | 55.003269 | 8.101225 | 2.0 | 11.405 | 2 | 34.656 | 11.560 | 30.190 | 2 |
| 2025-05-05T14:02:00 | 55.001020 | 8.104436 | 2.0 | 11.440 | 2 | 34.677 | 11.590 | 30.186 | 2 |
| 2025-05-05T14:03:00 | 54.998538 | 8.105522 | 2.0 | 11.464 | 2 | 34.676 | 11.625 | 30.156 | 2 |
| 2025-05-05T14:04:00 | 54.996448 | 8.105130 | 2.0 | 11.495 | 2 | 34.588 | 11.650 | 30.051 | 2 |
| 2025-05-05T14:05:00 | 54.995497 | 8.103603 | 2.0 | 11.534 | 2 | 34.588 | 11.687 | 30.021 | 2 |
| 2025-05-05T14:06:00 | 54.995480 | 8.101741 | 2.0 | 11.538 | 2 | 34.670 | 11.715 | 30.077 | 2 |
| 2025-05-05T14:07:00 | 54.995834 | 8.099519 | 2.0 | 11.537 | 2 | 34.690 | 11.723 | 30.090 | 2 |
| 2025-05-05T14:08:00 | 54.996418 | 8.097173 | 2.0 | 11.533 | 2 | 34.610 | 11.721 | 30.015 | 2 |
| 2025-05-05T14:09:00 | 54.997384 | 8.095200 | 2.0 | 11.487 | 2 | 34.589 | 11.709 | 30.004 | 2 |
| 2025-05-05T14:10:00 | 54.998242 | 8.093798 | 2.0 | 11.494 | 2 | 34.543 | 11.678 | 29.985 | 2 |
| 2025-05-05T14:11:00 | 54.998938 | 8.092995 | 2.0 | 11.478 | 2 | 34.558 | 11.677 | 30.000 | 2 |
| 2025-05-05T14:12:00 | 54.999435 | 8.092556 | 2.0 | 11.465 | 2 | 34.636 | 11.666 | 30.084 | 2 |
| 2025-05-05T14:13:00 | 54.999749 | 8.092185 | 2.0 | 11.457 | 2 | 34.630 | 11.648 | 30.093 | 2 |
| 2025-05-05T14:14:00 | 55.000039 | 8.091791 | 2.0 | 11.449 | 2 | 34.665 | 11.653 | 30.123 | 2 |
| 2025-05-05T14:15:00 | 55.000335 | 8.091419 | 2.0 | 11.444 | 2 | 34.684 | 11.637 | 30.154 | 2 |
| 2025-05-05T14:16:00 | 55.000537 | 8.091227 | 2.0 | 11.435 | 2 | 34.628 | 11.632 | 30.104 | 2 |
| 2025-05-05T14:17:00 | 55.000666 | 8.091087 | 2.0 | 11.428 | 2 | 34.641 | 11.625 | 30.122 | 2 |
| 2025-05-05T14:18:00 | 55.000871 | 8.090916 | 2.0 | 11.414 | 2 | 34.667 | 11.615 | 30.156 | 2 |
| 2025-05-05T14:19:00 | 55.000929 | 8.090896 | 2.0 | 11.396 | 2 | 34.682 | 11.600 | 30.182 | 2 |
| 2025-05-05T14:20:00 | 55.000843 | 8.091007 | 2.0 | 11.396 | 2 | 34.700 | 11.584 | 30.213 | 2 |
| 2025-05-05T14:21:00 | 55.000619 | 8.091316 | 2.0 | 11.401 | 2 | 34.694 | 11.589 | 30.203 | 2 |
| 2025-05-05T14:22:00 | 55.000405 | 8.091747 | 2.0 | 11.396 | 2 | 34.701 | 11.591 | 30.208 | 2 |
| 2025-05-05T14:23:00 | 55.000160 | 8.092439 | 2.0 | 11.401 | 2 | 34.695 | 11.588 | 30.205 | 2 |
| 2025-05-05T14:24:00 | 54.999833 | 8.093315 | 2.0 | 11.399 | 2 | 34.704 | 11.597 | 30.206 | 2 |
| 2025-05-05T14:25:00 | 54.999536 | 8.094136 | 2.0 | 11.403 | 2 | 34.699 | 11.593 | 30.204 | 2 |
| 2025-05-05T14:26:00 | 54.999231 | 8.094855 | 2.0 | 11.405 | 2 | 34.686 | 11.595 | 30.190 | 2 |
| 2025-05-05T14:27:00 | 54.998941 | 8.095422 | 2.0 | 11.380 | 2 | 34.703 | 11.593 | 30.208 | 2 |
| 2025-05-05T14:28:00 | 54.998689 | 8.096009 | 2.0 | 11.407 | 2 | 34.707 | 11.570 | 30.231 | 2 |
| 2025-05-05T14:29:00 | 54.998661 | 8.096552 | 2.0 | 11.394 | 2 | 34.723 | 11.597 | 30.224 | 2 |
| 2025-05-05T14:30:00 | 54.998903 | 8.096609 | 2.0 | 11.409 | 2 | 34.715 | 11.593 | 30.220 | 2 |
| 2025-05-05T14:31:00 | 54.999314 | 8.096191 | 2.0 | 11.391 | 2 | 34.728 | 11.602 | 30.225 | 2 |
| 2025-05-05T14:32:00 | 54.999585 | 8.095927 | 2.0 | 11.389 | 2 | 34.726 | 11.589 | 30.234 | 2 |
| 2025-05-05T14:33:00 | 54.999742 | 8.095792 | 2.0 | 11.373 | 2 | 34.726 | 11.577 | 30.243 | 2 |
| 2025-05-05T14:34:00 | 54.999926 | 8.095480 | 2.0 | 11.382 | 2 | 34.724 | 11.573 | 30.245 | 2 |
| 2025-05-05T14:35:00 | 55.000079 | 8.095206 | 2.0 | 11.376 | 2 | 34.730 | 11.573 | 30.251 | 2 |
| 2025-05-05T14:36:00 | 55.000180 | 8.095075 | 2.0 | 11.358 | 2 | 34.731 | 11.568 | 30.256 | 2 |
| 2025-05-05T14:37:00 | 55.000222 | 8.095235 | 2.0 | 11.360 | 2 | 34.729 | 11.558 | 30.262 | 2 |
| 2025-05-05T14:38:00 | 55.000621 | 8.095785 | 2.0 | 11.336 | 2 | 34.726 | 11.550 | 30.265 | 2 |
| 2025-05-05T14:39:00 | 55.001316 | 8.096770 | 2.0 | 11.304 | 2 | 34.714 | 11.527 | 30.273 | 2 |
| 2025-05-05T14:40:00 | 55.001643 | 8.098442 | 2.0 | 11.274 | 2 | 34.697 | 11.500 | 30.278 | 2 |
| 2025-05-05T14:41:00 | 55.000961 | 8.100250 | 2.0 | 11.304 | 2 | 34.686 | 11.477 | 30.286 | 2 |
| 2025-05-05T14:42:00 | 54.999863 | 8.101417 | 2.0 | 11.318 | 2 | 34.691 | 11.500 | 30.272 | 2 |
| 2025-05-05T14:43:00 | 54.998866 | 8.101517 | 2.0 | 11.363 | 2 | 34.689 | 11.528 | 30.248 | 2 |
| 2025-05-05T14:44:00 | 54.998301 | 8.100986 | 2.0 | 11.373 | 2 | 34.708 | 11.558 | 30.242 | 2 |
| 2025-05-05T14:45:00 | 54.998258 | 8.100498 | 2.0 | 11.371 | 2 | 34.715 | 11.566 | 30.242 | 2 |
| 2025-05-05T14:46:00 | 54.998750 | 8.100102 | 2.0 | 11.358 | 2 | 34.719 | 11.564 | 30.247 | 2 |
| 2025-05-05T14:47:00 | 54.999060 | 8.100133 | 2.0 | 11.347 | 2 | 34.719 | 11.554 | 30.255 | 2 |
| 2025-05-05T14:48:00 | 54.999315 | 8.099937 | 2.0 | 11.341 | 2 | 34.717 | 11.544 | 30.262 | 2 |
| 2025-05-05T14:49:00 | 54.999511 | 8.099657 | 2.0 | 11.323 | 2 | 34.718 | 11.538 | 30.268 | 2 |
| 2025-05-05T14:50:00 | 54.999637 | 8.099448 | 2.0 | 11.310 | 2 | 34.712 | 11.522 | 30.275 | 2 |
| 2025-05-05T14:51:00 | 54.999817 | 8.099167 | 2.0 | 11.251 | 2 | 34.697 | 11.488 | 30.288 | 2 |
| 2025-05-05T14:52:00 | 54.999834 | 8.099150 | 2.0 | 11.277 | 2 | 34.679 | 11.457 | 30.296 | 2 |
| 2025-05-05T14:53:00 | 54.999787 | 8.099173 | 2.0 | 11.267 | 2 | 34.688 | 11.474 | 30.291 | 2 |
| 2025-05-05T14:54:00 | 54.999706 | 8.099134 | 2.0 | 11.265 | 2 | 34.686 | 11.466 | 30.295 | 2 |
| 2025-05-05T14:55:00 | 54.999651 | 8.099086 | 2.0 | 11.249 | 2 | 34.686 | 11.464 | 30.297 | 2 |
| 2025-05-05T14:56:00 | 54.999642 | 8.099039 | 2.0 | 11.256 | 2 | 34.680 | 11.452 | 30.301 | 2 |
| 2025-05-05T14:57:00 | 54.999655 | 8.099057 | 2.0 | 11.256 | 2 | 34.685 | 11.458 | 30.301 | 2 |
| 2025-05-05T14:58:00 | 54.999666 | 8.099139 | 2.0 | 11.254 | 2 | 34.688 | 11.456 | 30.306 | 2 |
| 2025-05-05T14:59:00 | 54.999671 | 8.099287 | 2.0 | 11.247 | 2 | 34.683 | 11.447 | 30.308 | 2 |
| 2025-05-05T15:00:00 | 54.999659 | 8.099457 | 2.0 | 11.246 | 2 | 34.674 | 11.432 | 30.312 | 2 |
| 2025-05-05T15:01:00 | 54.999671 | 8.099541 | 2.0 | 11.242 | 2 | 34.582 | 11.429 | 30.225 | 2 |
| 2025-05-05T15:02:00 | 54.999716 | 8.099504 | 2.0 | 11.233 | 2 | 34.669 | 11.421 | 30.316 | 2 |
| 2025-05-05T15:03:00 | 54.999772 | 8.099448 | 2.0 | 11.235 | 2 | 34.667 | 11.418 | 30.316 | 2 |
| 2025-05-05T15:04:00 | 54.999759 | 8.099501 | 2.0 | 11.220 | 2 | 34.664 | 11.409 | 30.321 | 2 |
| 2025-05-05T15:05:00 | 54.999706 | 8.099601 | 2.0 | 11.210 | 2 | 34.657 | 11.398 | 30.323 | 2 |
| 2025-05-05T15:06:00 | 54.999676 | 8.099672 | 2.0 | 11.186 | 2 | 34.649 | 11.384 | 30.327 | 2 |
| 2025-05-05T15:07:00 | 54.999697 | 8.099726 | 2.0 | 11.166 | 2 | 34.636 | 11.361 | 30.333 | 2 |
| 2025-05-05T15:08:00 | 54.999727 | 8.099784 | 2.0 | 11.160 | 2 | 34.625 | 11.341 | 30.339 | 2 |
| 2025-05-05T15:10:00 | 54.999871 | 8.099858 | 2.0 | 11.164 | 2 | 34.435 | 11.352 | 30.145 | 2 |
| 2025-05-05T15:11:00 | 54.999939 | 8.099890 | 2.0 | 11.188 | 2 | 34.630 | 11.344 | 30.341 | 2 |
| 2025-05-05T15:12:00 | 54.999980 | 8.099952 | 2.0 | 11.198 | 2 | 34.643 | 11.366 | 30.336 | 2 |
| 2025-05-05T15:13:00 | 54.999949 | 8.099999 | 2.0 | 11.177 | 2 | 34.647 | 11.366 | 30.340 | 2 |
| 2025-05-05T15:14:00 | 54.999876 | 8.100092 | 2.0 | 11.176 | 2 | 34.638 | 11.352 | 30.342 | 2 |
| 2025-05-05T15:15:00 | 54.999839 | 8.100317 | 2.0 | 11.174 | 2 | 34.637 | 11.349 | 30.344 | 2 |
| 2025-05-05T15:16:00 | 54.999831 | 8.100503 | 2.0 | 11.168 | 2 | 34.635 | 11.348 | 30.343 | 2 |
| 2025-05-05T15:17:00 | 54.999717 | 8.100561 | 2.0 | 11.173 | 2 | 34.481 | 11.343 | 30.197 | 2 |
| 2025-05-05T15:18:00 | 54.999562 | 8.100527 | 2.0 | 11.165 | 2 | 34.574 | 11.345 | 30.286 | 2 |
| 2025-05-05T15:19:00 | 54.999530 | 8.100469 | 2.0 | 11.137 | 2 | 34.630 | 11.335 | 30.349 | 2 |
| 2025-05-05T15:20:00 | 54.999544 | 8.100452 | 2.0 | 11.136 | 2 | 34.617 | 11.312 | 30.355 | 2 |
| 2025-05-05T15:21:00 | 54.999565 | 8.100467 | 2.0 | 11.141 | 2 | 34.615 | 11.309 | 30.355 | 2 |
| 2025-05-05T15:22:00 | 54.999572 | 8.100497 | 2.0 | 11.145 | 2 | 34.622 | 11.318 | 30.355 | 2 |
| 2025-05-05T15:23:00 | 54.999573 | 8.100516 | 2.0 | 11.134 | 2 | 34.485 | 11.315 | 30.224 | 2 |
| 2025-05-05T15:24:00 | 54.999570 | 8.100578 | 2.0 | 11.128 | 2 | 34.620 | 11.308 | 30.361 | 2 |
| 2025-05-05T15:25:00 | 54.999572 | 8.100607 | 2.0 | 11.138 | 2 | 34.592 | 11.301 | 30.339 | 2 |
| 2025-05-05T15:26:00 | 54.999551 | 8.100599 | 2.0 | 11.139 | 2 | 34.587 | 11.308 | 30.329 | 2 |
| 2025-05-05T15:27:00 | 54.999512 | 8.100577 | 2.0 | 11.077 | 2 | 34.495 | 11.301 | 30.245 | 2 |
| 2025-05-05T15:28:00 | 54.999476 | 8.100600 | 2.0 | 11.112 | 2 | 34.472 | 11.259 | 30.257 | 2 |
| 2025-05-05T15:29:00 | 54.999447 | 8.100638 | 2.0 | 11.096 | 2 | 34.483 | 11.282 | 30.249 | 2 |
| 2025-05-05T15:30:00 | 54.999426 | 8.100709 | 2.0 | 11.064 | 2 | 34.520 | 11.264 | 30.300 | 2 |
| 2025-05-05T15:31:00 | 54.999411 | 8.100805 | 2.0 | 11.068 | 2 | 34.370 | 11.234 | 30.178 | 2 |
| 2025-05-05T15:32:00 | 54.999388 | 8.100877 | 2.0 | 11.061 | 2 | 34.585 | 11.239 | 30.384 | 2 |
| 2025-05-05T15:33:00 | 54.999382 | 8.100916 | 2.0 | 11.068 | 2 | 34.558 | 11.234 | 30.361 | 2 |
| 2025-05-05T15:34:00 | 54.999389 | 8.100924 | 2.0 | 11.079 | 2 | 34.448 | 11.242 | 30.248 | 2 |
| 2025-05-05T15:35:00 | 54.999393 | 8.100847 | 2.0 | 11.058 | 2 | 34.440 | 11.247 | 30.236 | 2 |
| 2025-05-05T15:36:00 | 54.999385 | 8.100792 | 2.0 | 11.058 | 2 | 34.447 | 11.229 | 30.257 | 2 |
| 2025-05-05T15:37:00 | 54.999360 | 8.100816 | 2.0 | 11.053 | 2 | 34.584 | 11.226 | 30.393 | 2 |
| 2025-05-05T15:38:00 | 54.999316 | 8.100908 | 2.0 | 11.058 | 2 | 34.528 | 11.225 | 30.340 | 2 |
| 2025-05-05T15:39:00 | 54.999290 | 8.101006 | 2.0 | 11.056 | 2 | 34.387 | 11.228 | 30.200 | 2 |
| 2025-05-05T15:40:00 | 54.999314 | 8.101052 | 2.0 | 11.031 | 2 | 34.515 | 11.226 | 30.326 | 2 |
| 2025-05-05T15:41:00 | 54.999358 | 8.101023 | 2.0 | 11.018 | 2 | 34.479 | 11.200 | 30.312 | 2 |
| 2025-05-05T15:42:00 | 54.999369 | 8.100958 | 2.0 | 10.977 | 2 | 34.505 | 11.184 | 30.351 | 2 |
| 2025-05-05T15:43:00 | 54.999363 | 8.100896 | 2.0 | 10.979 | 2 | 34.434 | 11.146 | 30.313 | 2 |
| 2025-05-05T15:44:00 | 54.999357 | 8.100850 | 2.0 | 10.987 | 2 | 34.496 | 11.151 | 30.369 | 2 |
| 2025-05-05T15:45:00 | 54.999351 | 8.100809 | 2.0 | 10.963 | 2 | 34.497 | 11.155 | 30.367 | 2 |
| 2025-05-05T15:46:00 | 54.999528 | 8.100426 | 2.0 | 10.955 | 2 | 34.427 | 11.132 | 30.318 | 2 |
| 2025-05-05T15:47:00 | 54.999932 | 8.099436 | 2.0 | 10.945 | 2 | 34.450 | 11.127 | 30.344 | 2 |
| 2025-05-05T15:48:00 | 55.000405 | 8.098349 | 2.0 | 10.881 | 2 | 34.453 | 11.099 | 30.370 | 2 |
| 2025-05-05T15:49:00 | 55.000858 | 8.097251 | 2.0 | 10.838 | 2 | 34.338 | 11.045 | 30.302 | 2 |
| 2025-05-05T15:50:00 | 55.001294 | 8.096169 | 2.0 | 10.842 | 2 | 34.380 | 11.007 | 30.375 | 2 |
| 2025-05-05T15:51:00 | 55.001737 | 8.095095 | 2.0 | 10.831 | 2 | 34.398 | 11.011 | 30.389 | 2 |
| 2025-05-05T15:52:00 | 55.002198 | 8.093993 | 2.0 | 10.830 | 2 | 34.406 | 11.007 | 30.400 | 2 |
| 2025-05-05T15:53:00 | 55.002596 | 8.092990 | 2.0 | 10.853 | 2 | 34.388 | 11.001 | 30.388 | 2 |
| 2025-05-05T15:54:00 | 55.002862 | 8.092238 | 2.0 | 10.858 | 2 | 34.448 | 11.024 | 30.427 | 2 |
| 2025-05-05T15:55:00 | 55.003024 | 8.091636 | 2.0 | 10.842 | 2 | 34.513 | 11.029 | 30.487 | 2 |
| 2025-05-05T15:56:00 | 55.003143 | 8.091210 | 2.0 | 10.840 | 2 | 34.501 | 11.015 | 30.487 | 2 |
| 2025-05-05T15:57:00 | 55.003260 | 8.090937 | 2.0 | 10.848 | 2 | 34.516 | 11.009 | 30.506 | 2 |
| 2025-05-05T15:58:00 | 55.003323 | 8.090661 | 2.0 | 10.826 | 2 | 34.515 | 11.011 | 30.504 | 2 |
| 2025-05-05T15:59:00 | 55.003617 | 8.090052 | 2.0 | 10.856 | 2 | 34.523 | 11.013 | 30.510 | 2 |
| 2025-05-05T16:00:00 | 55.003996 | 8.089360 | 2.0 | 10.827 | 2 | 34.555 | 11.017 | 30.538 | 2 |
| 2025-05-05T16:01:00 | 55.004397 | 8.088665 | 2.0 | 10.818 | 2 | 34.518 | 10.999 | 30.517 | 2 |
| 2025-05-05T16:02:00 | 55.004768 | 8.087996 | 2.0 | 10.798 | 2 | 34.547 | 10.984 | 30.558 | 2 |
| 2025-05-05T16:03:00 | 55.005132 | 8.087314 | 2.0 | 10.815 | 2 | 34.579 | 10.972 | 30.599 | 2 |
| 2025-05-05T16:04:00 | 55.005505 | 8.086594 | 2.0 | 10.827 | 2 | 34.603 | 10.991 | 30.607 | 2 |
| 2025-05-05T16:05:00 | 55.005855 | 8.085900 | 2.0 | 10.754 | 2 | 34.626 | 10.980 | 30.639 | 2 |
| 2025-05-05T16:06:00 | 55.006235 | 8.085236 | 2.0 | 10.729 | 2 | 34.609 | 10.924 | 30.669 | 2 |
| 2025-05-05T16:07:00 | 55.006561 | 8.084674 | 2.0 | 10.758 | 2 | 34.574 | 10.906 | 30.649 | 2 |
| 2025-05-05T16:08:00 | 55.006782 | 8.084243 | 2.0 | 10.772 | 2 | 34.626 | 10.930 | 30.680 | 2 |
| 2025-05-05T16:09:00 | 55.006950 | 8.083935 | 2.0 | 10.743 | 2 | 34.659 | 10.938 | 30.706 | 2 |
| 2025-05-05T16:10:00 | 55.007056 | 8.083692 | 2.0 | 10.728 | 2 | 34.648 | 10.912 | 30.717 | 2 |
| 2025-05-05T16:11:00 | 55.007160 | 8.083417 | 2.0 | 10.729 | 2 | 34.633 | 10.901 | 30.711 | 2 |
| 2025-05-05T16:12:00 | 55.007278 | 8.083119 | 2.0 | 10.710 | 2 | 34.651 | 10.896 | 30.733 | 2 |
| 2025-05-05T16:13:00 | 55.007418 | 8.082813 | 2.0 | 10.694 | 2 | 34.647 | 10.879 | 30.744 | 2 |
| 2025-05-05T16:14:00 | 55.007565 | 8.082514 | 2.0 | 10.691 | 2 | 34.667 | 10.865 | 30.775 | 2 |
| 2025-05-05T16:15:00 | 55.007805 | 8.081761 | 2.0 | 10.664 | 2 | 34.668 | 10.856 | 30.784 | 2 |
| 2025-05-05T16:16:00 | 55.008135 | 8.080518 | 2.0 | 10.592 | 2 | 34.663 | 10.825 | 30.805 | 2 |
| 2025-05-05T16:17:00 | 55.008527 | 8.079167 | 2.0 | 10.522 | 2 | 34.637 | 10.756 | 30.837 | 2 |
| 2025-05-05T16:18:00 | 55.008892 | 8.077923 | 2.0 | 10.498 | 2 | 34.610 | 10.695 | 30.862 | 2 |
| 2025-05-05T16:19:00 | 55.009251 | 8.076655 | 2.0 | 10.496 | 2 | 34.599 | 10.677 | 30.866 | 2 |
| 2025-05-05T16:20:00 | 55.009615 | 8.075400 | 2.0 | 10.490 | 2 | 34.601 | 10.667 | 30.877 | 2 |
| 2025-05-05T16:21:00 | 55.009971 | 8.074184 | 2.0 | 10.475 | 2 | 34.603 | 10.661 | 30.884 | 2 |
| 2025-05-05T16:22:00 | 55.010331 | 8.072956 | 2.0 | 10.475 | 2 | 34.603 | 10.650 | 30.893 | 2 |
| 2025-05-05T16:23:00 | 55.010706 | 8.071678 | 2.0 | 10.483 | 2 | 34.606 | 10.650 | 30.896 | 2 |
| 2025-05-05T16:24:00 | 55.011102 | 8.070396 | 2.0 | 10.493 | 2 | 34.613 | 10.656 | 30.898 | 2 |
| 2025-05-05T16:25:00 | 55.011603 | 8.069210 | 2.0 | 10.505 | 2 | 34.621 | 10.666 | 30.897 | 2 |
| 2025-05-05T16:26:00 | 55.012076 | 8.068320 | 2.0 | 10.517 | 2 | 34.626 | 10.682 | 30.889 | 2 |
| 2025-05-05T16:27:00 | 55.012391 | 8.068135 | 2.0 | 10.518 | 2 | 34.627 | 10.685 | 30.887 | 2 |
| 2025-05-05T16:28:00 | 55.012633 | 8.068442 | 2.0 | 10.483 | 2 | 34.627 | 10.686 | 30.886 | 2 |
| 2025-05-05T16:29:00 | 55.012942 | 8.068929 | 2.0 | 10.506 | 2 | 34.617 | 10.664 | 30.895 | 2 |
| 2025-05-05T16:30:00 | 55.013161 | 8.070033 | 2.0 | 10.508 | 2 | 34.616 | 10.675 | 30.885 | 2 |
| 2025-05-05T16:31:00 | 55.013100 | 8.071585 | 2.0 | 10.506 | 2 | 34.612 | 10.676 | 30.880 | 2 |
| 2025-05-05T16:32:00 | 55.012847 | 8.073383 | 2.0 | 10.498 | 2 | 34.607 | 10.681 | 30.871 | 2 |
| 2025-05-05T16:33:00 | 55.012267 | 8.075420 | 2.0 | 10.495 | 2 | 34.597 | 10.667 | 30.873 | 2 |
| 2025-05-05T16:34:00 | 55.011529 | 8.077629 | 2.0 | 10.477 | 2 | 34.590 | 10.661 | 30.871 | 2 |
| 2025-05-05T16:35:00 | 55.010754 | 8.079843 | 2.0 | 10.486 | 2 | 34.581 | 10.651 | 30.870 | 2 |
| 2025-05-05T16:36:00 | 55.009984 | 8.081953 | 2.0 | 10.526 | 2 | 34.578 | 10.666 | 30.855 | 2 |
| 2025-05-05T16:37:00 | 55.009235 | 8.083977 | 2.0 | 10.579 | 2 | 34.587 | 10.706 | 30.830 | 2 |
| 2025-05-05T16:38:00 | 55.008521 | 8.085894 | 2.0 | 10.682 | 2 | 34.596 | 10.765 | 30.789 | 2 |
| 2025-05-05T16:39:00 | 55.007839 | 8.087730 | 2.0 | 10.730 | 2 | 34.622 | 10.859 | 30.736 | 2 |
| 2025-05-05T16:40:00 | 55.007208 | 8.089541 | 2.0 | 10.751 | 2 | 34.645 | 10.898 | 30.726 | 2 |
| 2025-05-05T16:41:00 | 55.006538 | 8.091167 | 2.0 | 10.773 | 2 | 34.646 | 10.923 | 30.706 | 2 |
| 2025-05-05T16:42:00 | 55.005899 | 8.092744 | 2.0 | 10.773 | 2 | 34.628 | 10.942 | 30.672 | 2 |
| 2025-05-05T16:43:00 | 55.005317 | 8.094293 | 2.0 | 10.754 | 2 | 34.596 | 10.937 | 30.645 | 2 |
| 2025-05-05T16:44:00 | 55.004612 | 8.095658 | 2.0 | 10.741 | 2 | 34.566 | 10.925 | 30.625 | 2 |
| 2025-05-05T16:45:00 | 55.003966 | 8.097094 | 2.0 | 10.734 | 2 | 34.537 | 10.908 | 30.611 | 2 |
| 2025-05-05T16:46:00 | 55.003291 | 8.098434 | 2.0 | 10.729 | 2 | 34.522 | 10.903 | 30.601 | 2 |
| 2025-05-05T16:47:00 | 55.002695 | 8.099767 | 2.0 | 10.728 | 2 | 34.504 | 10.897 | 30.588 | 2 |
| 2025-05-05T16:48:00 | 55.002064 | 8.101027 | 2.0 | 10.723 | 2 | 34.490 | 10.897 | 30.574 | 2 |
| 2025-05-05T16:49:00 | 55.001475 | 8.102334 | 2.0 | 10.715 | 2 | 34.475 | 10.890 | 30.565 | 2 |
| 2025-05-05T16:50:00 | 55.000847 | 8.103561 | 2.0 | 10.721 | 2 | 34.465 | 10.887 | 30.558 | 2 |
| 2025-05-05T16:51:00 | 55.000275 | 8.104838 | 2.0 | 10.740 | 2 | 34.458 | 10.893 | 30.546 | 2 |
| 2025-05-05T16:52:00 | 54.999647 | 8.105997 | 2.0 | 10.745 | 2 | 34.456 | 10.908 | 30.532 | 2 |
| 2025-05-05T16:53:00 | 54.999067 | 8.107194 | 2.0 | 10.759 | 2 | 34.456 | 10.920 | 30.522 | 2 |
| 2025-05-05T16:54:00 | 54.998455 | 8.108111 | 2.0 | 10.764 | 2 | 34.453 | 10.927 | 30.513 | 2 |
| 2025-05-05T16:55:00 | 54.997997 | 8.108164 | 2.0 | 10.768 | 2 | 34.458 | 10.934 | 30.512 | 2 |
| 2025-05-05T16:56:00 | 54.997673 | 8.108123 | 2.0 | 10.774 | 2 | 34.462 | 10.938 | 30.512 | 2 |
| 2025-05-05T16:57:00 | 54.997376 | 8.107989 | 2.0 | 10.779 | 2 | 34.466 | 10.944 | 30.511 | 2 |
| 2025-05-05T16:58:00 | 54.997148 | 8.107766 | 2.0 | 10.777 | 2 | 34.469 | 10.947 | 30.512 | 2 |
| 2025-05-05T16:59:00 | 54.997104 | 8.107384 | 2.0 | 10.790 | 2 | 34.469 | 10.948 | 30.511 | 2 |
| 2025-05-05T17:00:00 | 54.997278 | 8.106927 | 2.0 | 10.791 | 2 | 34.477 | 10.959 | 30.510 | 2 |
| 2025-05-05T17:01:00 | 54.997564 | 8.106475 | 2.0 | 10.773 | 2 | 34.478 | 10.957 | 30.512 | 2 |
| 2025-05-05T17:02:00 | 54.997754 | 8.105972 | 2.0 | 10.770 | 2 | 34.473 | 10.943 | 30.519 | 2 |
| 2025-05-05T17:03:00 | 54.997915 | 8.105443 | 2.0 | 10.761 | 2 | 34.476 | 10.937 | 30.527 | 2 |
| 2025-05-05T17:04:00 | 54.998085 | 8.104938 | 2.0 | 10.735 | 2 | 34.474 | 10.926 | 30.534 | 2 |
| 2025-05-05T17:05:00 | 54.998292 | 8.104482 | 2.0 | 10.734 | 2 | 34.463 | 10.905 | 30.541 | 2 |
| 2025-05-05T17:06:00 | 54.998512 | 8.104029 | 2.0 | 10.742 | 2 | 34.467 | 10.906 | 30.544 | 2 |
| 2025-05-05T17:07:00 | 54.998685 | 8.103570 | 2.0 | 10.719 | 2 | 34.473 | 10.908 | 30.548 | 2 |
| 2025-05-05T17:08:00 | 54.998809 | 8.103177 | 2.0 | 10.718 | 2 | 34.465 | 10.888 | 30.557 | 2 |
| 2025-05-05T17:09:00 | 54.998878 | 8.102820 | 2.0 | 10.732 | 2 | 34.469 | 10.890 | 30.559 | 2 |
| 2025-05-05T17:10:00 | 54.998914 | 8.102533 | 2.0 | 10.717 | 2 | 34.478 | 10.896 | 30.563 | 2 |
| 2025-05-05T17:11:00 | 54.998959 | 8.102268 | 2.0 | 10.717 | 2 | 34.480 | 10.887 | 30.573 | 2 |
| 2025-05-05T17:12:00 | 54.999077 | 8.101942 | 2.0 | 10.723 | 2 | 34.485 | 10.888 | 30.577 | 2 |
| 2025-05-05T17:13:00 | 54.999214 | 8.101650 | 2.0 | 10.723 | 2 | 34.493 | 10.890 | 30.583 | 2 |
| 2025-05-05T17:14:00 | 54.999296 | 8.101447 | 2.0 | 10.712 | 2 | 34.494 | 10.890 | 30.584 | 2 |
| 2025-05-05T17:15:00 | 54.999337 | 8.101207 | 2.0 | 10.713 | 2 | 34.496 | 10.882 | 30.593 | 2 |
| 2025-05-05T17:16:00 | 54.999338 | 8.101009 | 2.0 | 10.717 | 2 | 34.496 | 10.883 | 30.592 | 2 |
| 2025-05-05T17:17:00 | 54.999394 | 8.100798 | 2.0 | 10.716 | 2 | 34.501 | 10.886 | 30.594 | 2 |
| 2025-05-05T17:18:00 | 54.999472 | 8.100623 | 2.0 | 10.721 | 2 | 34.504 | 10.886 | 30.597 | 2 |
| 2025-05-05T17:19:00 | 54.999578 | 8.100397 | 2.0 | 10.713 | 2 | 34.507 | 10.888 | 30.598 | 2 |
| 2025-05-05T17:20:00 | 54.999692 | 8.100182 | 2.0 | 10.704 | 2 | 34.509 | 10.881 | 30.606 | 2 |
| 2025-05-05T17:21:00 | 54.999766 | 8.099994 | 2.0 | 10.689 | 2 | 34.504 | 10.866 | 30.614 | 2 |
| 2025-05-05T17:22:00 | 54.999780 | 8.099800 | 2.0 | 10.702 | 2 | 34.499 | 10.863 | 30.611 | 2 |
| 2025-05-05T17:23:00 | 54.999797 | 8.099583 | 2.0 | 10.705 | 2 | 34.500 | 10.870 | 30.606 | 2 |
| 2025-05-05T17:24:00 | 54.999820 | 8.099352 | 2.0 | 10.703 | 2 | 34.503 | 10.873 | 30.607 | 2 |
| 2025-05-05T17:25:00 | 55.000092 | 8.098784 | 2.0 | 10.689 | 2 | 34.507 | 10.872 | 30.612 | 2 |
| 2025-05-05T17:26:00 | 55.000624 | 8.097808 | 2.0 | 10.673 | 2 | 34.501 | 10.854 | 30.621 | 2 |
| 2025-05-05T17:27:00 | 55.001269 | 8.096819 | 2.0 | 10.662 | 2 | 34.498 | 10.842 | 30.628 | 2 |
| 2025-05-05T17:28:00 | 55.001894 | 8.096005 | 2.0 | 10.657 | 2 | 34.506 | 10.832 | 30.644 | 2 |
| 2025-05-05T17:29:00 | 55.002478 | 8.095067 | 2.0 | 10.639 | 2 | 34.525 | 10.825 | 30.669 | 2 |
| 2025-05-05T17:30:00 | 55.003031 | 8.094000 | 2.0 | 10.644 | 2 | 34.527 | 10.811 | 30.682 | 2 |
| 2025-05-05T17:31:00 | 55.003567 | 8.092894 | 2.0 | 10.638 | 2 | 34.538 | 10.815 | 30.690 | 2 |
| 2025-05-05T17:32:00 | 55.004101 | 8.091767 | 2.0 | 10.623 | 2 | 34.552 | 10.803 | 30.714 | 2 |
| 2025-05-05T17:33:00 | 55.004591 | 8.090745 | 2.0 | 10.615 | 2 | 34.558 | 10.793 | 30.728 | 2 |
| 2025-05-05T17:34:00 | 55.005065 | 8.089744 | 2.0 | 10.612 | 2 | 34.569 | 10.786 | 30.745 | 2 |
| 2025-05-05T17:35:00 | 55.005538 | 8.088772 | 2.0 | 10.612 | 2 | 34.583 | 10.780 | 30.764 | 2 |
| 2025-05-05T17:36:00 | 55.005927 | 8.087966 | 2.0 | 10.580 | 2 | 34.598 | 10.778 | 30.780 | 2 |
| 2025-05-05T17:37:00 | 55.006220 | 8.087335 | 2.0 | 10.569 | 2 | 34.600 | 10.748 | 30.807 | 2 |
| 2025-05-05T17:38:00 | 55.006444 | 8.086885 | 2.0 | 10.549 | 2 | 34.606 | 10.737 | 30.823 | 2 |
| 2025-05-05T17:39:00 | 55.006594 | 8.086533 | 2.0 | 10.542 | 2 | 34.600 | 10.718 | 30.833 | 2 |
| 2025-05-05T17:40:00 | 55.006679 | 8.086240 | 2.0 | 10.538 | 2 | 34.603 | 10.713 | 30.840 | 2 |
| 2025-05-05T17:41:00 | 55.006712 | 8.086057 | 2.0 | 10.534 | 2 | 34.605 | 10.708 | 30.846 | 2 |
| 2025-05-05T17:42:00 | 55.006668 | 8.085988 | 2.0 | 10.535 | 2 | 34.605 | 10.704 | 30.849 | 2 |
| 2025-05-05T17:43:00 | 55.006717 | 8.085655 | 2.0 | 10.536 | 2 | 34.606 | 10.705 | 30.850 | 2 |
| 2025-05-05T17:44:00 | 55.006999 | 8.085044 | 2.0 | 10.539 | 2 | 34.620 | 10.709 | 30.860 | 2 |
| 2025-05-05T17:45:00 | 55.007350 | 8.084335 | 2.0 | 10.509 | 2 | 34.639 | 10.704 | 30.883 | 2 |
| 2025-05-05T17:46:00 | 55.007743 | 8.083546 | 2.0 | 10.478 | 2 | 34.632 | 10.675 | 30.901 | 2 |
| 2025-05-05T17:47:00 | 55.008225 | 8.082638 | 2.0 | 10.464 | 2 | 34.616 | 10.647 | 30.908 | 2 |
| 2025-05-05T17:48:00 | 55.008752 | 8.081643 | 2.0 | 10.463 | 2 | 34.612 | 10.635 | 30.915 | 2 |
| 2025-05-05T17:49:00 | 55.009232 | 8.080693 | 2.0 | 10.461 | 2 | 34.616 | 10.634 | 30.919 | 2 |
| 2025-05-05T17:50:00 | 55.009687 | 8.079794 | 2.0 | 10.461 | 2 | 34.620 | 10.633 | 30.924 | 2 |
| 2025-05-05T17:51:00 | 55.010124 | 8.078918 | 2.0 | 10.454 | 2 | 34.622 | 10.630 | 30.929 | 2 |
| 2025-05-05T17:52:00 | 55.010556 | 8.078008 | 2.0 | 10.454 | 2 | 34.619 | 10.624 | 30.931 | 2 |
| 2025-05-05T17:53:00 | 55.011031 | 8.077049 | 2.0 | 10.462 | 2 | 34.620 | 10.626 | 30.930 | 2 |
| 2025-05-05T17:54:00 | 55.011524 | 8.076052 | 2.0 | 10.463 | 2 | 34.624 | 10.632 | 30.929 | 2 |
| 2025-05-05T17:55:00 | 55.012001 | 8.075115 | 2.0 | 10.466 | 2 | 34.630 | 10.635 | 30.932 | 2 |
| 2025-05-05T17:56:00 | 55.012401 | 8.074316 | 2.0 | 10.464 | 2 | 34.632 | 10.637 | 30.933 | 2 |
| 2025-05-05T17:57:00 | 55.012723 | 8.073666 | 2.0 | 10.464 | 2 | 34.630 | 10.634 | 30.933 | 2 |
| 2025-05-05T17:58:00 | 55.012966 | 8.073135 | 2.0 | 10.468 | 2 | 34.632 | 10.635 | 30.934 | 2 |
| 2025-05-05T17:59:00 | 55.013149 | 8.072681 | 2.0 | 10.467 | 2 | 34.634 | 10.637 | 30.935 | 2 |
| 2025-05-05T18:00:00 | 55.013291 | 8.072292 | 2.0 | 10.471 | 2 | 34.635 | 10.638 | 30.935 | 2 |
| 2025-05-05T18:01:00 | 55.013404 | 8.071954 | 2.0 | 10.475 | 2 | 34.635 | 10.641 | 30.932 | 2 |
| 2025-05-05T18:02:00 | 55.013624 | 8.071373 | 2.0 | 10.477 | 2 | 34.636 | 10.645 | 30.930 | 2 |
| 2025-05-05T18:03:00 | 55.014040 | 8.070505 | 2.0 | 10.478 | 2 | 34.638 | 10.647 | 30.930 | 2 |
| 2025-05-05T18:04:00 | 55.014608 | 8.069389 | 2.0 | 10.472 | 2 | 34.638 | 10.648 | 30.929 | 2 |
| 2025-05-05T18:05:00 | 55.015195 | 8.068291 | 2.0 | 10.466 | 2 | 34.637 | 10.641 | 30.934 | 2 |
| 2025-05-05T18:06:00 | 55.015757 | 8.067229 | 2.0 | 10.477 | 2 | 34.640 | 10.638 | 30.940 | 2 |
| 2025-05-05T18:07:00 | 55.016297 | 8.066205 | 2.0 | 10.491 | 2 | 34.647 | 10.649 | 30.937 | 2 |
| 2025-05-05T18:08:00 | 55.016818 | 8.065155 | 2.0 | 10.491 | 2 | 34.656 | 10.663 | 30.935 | 2 |
| 2025-05-05T18:09:00 | 55.017339 | 8.064087 | 2.0 | 10.475 | 2 | 34.665 | 10.658 | 30.948 | 2 |
| 2025-05-05T18:10:00 | 55.017866 | 8.063047 | 2.0 | 10.480 | 2 | 34.671 | 10.648 | 30.962 | 2 |
| 2025-05-05T18:11:00 | 55.018366 | 8.062009 | 2.0 | 10.490 | 2 | 34.680 | 10.651 | 30.968 | 2 |
| 2025-05-05T18:12:00 | 55.018860 | 8.060980 | 2.0 | 10.505 | 2 | 34.692 | 10.663 | 30.970 | 2 |
| 2025-05-05T18:13:00 | 55.019262 | 8.060082 | 2.0 | 10.512 | 2 | 34.700 | 10.674 | 30.969 | 2 |
| 2025-05-05T18:14:00 | 55.019445 | 8.059342 | 2.0 | 10.533 | 2 | 34.708 | 10.685 | 30.967 | 2 |
| 2025-05-05T18:15:00 | 55.019513 | 8.058737 | 2.0 | 10.546 | 2 | 34.716 | 10.704 | 30.959 | 2 |
| 2025-05-05T18:16:00 | 55.019312 | 8.058295 | 2.0 | 10.554 | 2 | 34.725 | 10.716 | 30.958 | 2 |
| 2025-05-05T18:17:00 | 55.018897 | 8.058661 | 2.0 | 10.550 | 2 | 34.730 | 10.721 | 30.959 | 2 |
| 2025-05-05T18:18:00 | 55.018394 | 8.059735 | 2.0 | 10.541 | 2 | 34.729 | 10.717 | 30.961 | 2 |
| 2025-05-05T18:19:00 | 55.017727 | 8.061198 | 2.0 | 10.532 | 2 | 34.724 | 10.710 | 30.962 | 2 |
| 2025-05-05T18:20:00 | 55.016956 | 8.062895 | 2.0 | 10.513 | 2 | 34.715 | 10.700 | 30.962 | 2 |
| 2025-05-05T18:21:00 | 55.016114 | 8.064750 | 2.0 | 10.486 | 2 | 34.697 | 10.679 | 30.962 | 2 |
| 2025-05-05T18:22:00 | 55.015128 | 8.066899 | 2.0 | 10.476 | 2 | 34.669 | 10.654 | 30.955 | 2 |
| 2025-05-05T18:23:00 | 55.014041 | 8.069275 | 2.0 | 10.483 | 2 | 34.659 | 10.648 | 30.950 | 2 |
| 2025-05-05T18:24:00 | 55.012893 | 8.071793 | 2.0 | 10.480 | 2 | 34.661 | 10.653 | 30.948 | 2 |
| 2025-05-05T18:25:00 | 55.011726 | 8.074376 | 2.0 | 10.470 | 2 | 34.656 | 10.648 | 30.947 | 2 |
| 2025-05-05T18:26:00 | 55.010562 | 8.076972 | 2.0 | 10.475 | 2 | 34.652 | 10.640 | 30.950 | 2 |
| 2025-05-05T18:27:00 | 55.009398 | 8.079581 | 2.0 | 10.483 | 2 | 34.648 | 10.648 | 30.939 | 2 |
| 2025-05-05T18:28:00 | 55.008218 | 8.082192 | 2.0 | 10.473 | 2 | 34.630 | 10.648 | 30.921 | 2 |
| 2025-05-05T18:29:00 | 55.007041 | 8.084822 | 2.0 | 10.512 | 2 | 34.610 | 10.652 | 30.898 | 2 |
| 2025-05-05T18:30:00 | 55.005917 | 8.087353 | 2.0 | 10.551 | 2 | 34.598 | 10.687 | 30.857 | 2 |
| 2025-05-05T18:31:00 | 55.004932 | 8.089569 | 2.0 | 10.604 | 2 | 34.583 | 10.727 | 30.808 | 2 |
| 2025-05-05T18:32:00 | 55.004031 | 8.091591 | 2.0 | 10.652 | 2 | 34.579 | 10.778 | 30.761 | 2 |
| 2025-05-05T18:33:00 | 55.003175 | 8.093491 | 2.0 | 10.693 | 2 | 34.579 | 10.823 | 30.724 | 2 |
| 2025-05-05T18:34:00 | 55.002350 | 8.095303 | 2.0 | 10.716 | 2 | 34.575 | 10.861 | 30.688 | 2 |
| 2025-05-05T18:35:00 | 55.001543 | 8.097077 | 2.0 | 10.733 | 2 | 34.564 | 10.885 | 30.657 | 2 |
| 2025-05-05T18:36:00 | 55.000743 | 8.098819 | 2.0 | 10.743 | 2 | 34.549 | 10.902 | 30.628 | 2 |
| 2025-05-05T18:37:00 | 54.999956 | 8.100547 | 2.0 | 10.741 | 2 | 34.530 | 10.909 | 30.603 | 2 |
| 2025-05-05T18:38:00 | 54.999169 | 8.102258 | 2.0 | 10.769 | 2 | 34.516 | 10.914 | 30.585 | 2 |
| 2025-05-05T18:39:00 | 54.998498 | 8.103919 | 2.0 | 10.784 | 2 | 34.505 | 10.938 | 30.555 | 2 |
| 2025-05-05T18:40:00 | 54.998345 | 8.105544 | 2.0 | 10.784 | 2 | 34.489 | 10.950 | 30.529 | 2 |
| 2025-05-05T18:41:00 | 54.998386 | 8.106859 | 2.0 | 10.788 | 2 | 34.479 | 10.949 | 30.520 | 2 |
| 2025-05-05T18:42:00 | 54.998099 | 8.107655 | 2.0 | 10.807 | 2 | 34.478 | 10.959 | 30.511 | 2 |
| 2025-05-05T18:43:00 | 54.997827 | 8.107683 | 2.0 | 10.812 | 2 | 34.481 | 10.973 | 30.502 | 2 |
| 2025-05-05T18:44:00 | 54.997638 | 8.107584 | 2.0 | 10.814 | 2 | 34.482 | 10.979 | 30.498 | 2 |
| 2025-05-05T18:45:00 | 54.997476 | 8.107460 | 2.0 | 10.818 | 2 | 34.483 | 10.981 | 30.497 | 2 |
| 2025-05-05T18:46:00 | 54.997283 | 8.107255 | 2.0 | 10.820 | 2 | 34.483 | 10.984 | 30.495 | 2 |
| 2025-05-05T18:47:00 | 54.997096 | 8.107006 | 2.0 | 10.821 | 2 | 34.484 | 10.986 | 30.494 | 2 |
| 2025-05-05T18:48:00 | 54.996929 | 8.106698 | 2.0 | 10.821 | 2 | 34.485 | 10.988 | 30.493 | 2 |
| 2025-05-05T18:49:00 | 54.996785 | 8.106336 | 2.0 | 10.821 | 2 | 34.485 | 10.987 | 30.494 | 2 |
| 2025-05-05T18:50:00 | 54.996738 | 8.105819 | 2.0 | 10.821 | 2 | 34.487 | 10.987 | 30.496 | 2 |
| 2025-05-05T18:51:00 | 54.996906 | 8.105331 | 2.0 | 10.824 | 2 | 34.490 | 10.988 | 30.498 | 2 |
| 2025-05-05T18:52:00 | 54.997186 | 8.104939 | 2.0 | 10.828 | 2 | 34.493 | 10.991 | 30.499 | 2 |
| 2025-05-05T18:53:00 | 54.997477 | 8.104563 | 2.0 | 10.817 | 2 | 34.498 | 10.992 | 30.503 | 2 |
Only the first 2000 rows were shown. To view the complete dataset, download it as tab-delimited text. You can still view the full matrix in your browser, but be aware that this may crash the browser due to the huge size.
